<?xml version="1.0" encoding="UTF-8" standalone="no" ?>
<gpx xmlns="http://www.topografix.com/GPX/1/1" xmlns:xsi="http://www.w3.org/2001/XMLSchema-instance" xsi:schemaLocation="http://www.topografix.com/GPX/1/1 http://www.topografix.com/GPX/1/1/gpx.xsd" version="1.1" creator="VisuGPX - https://www.visugpx.com">
  <metadata>
    <name>Semi-Marathon Lyon 2012</name>
    <desc><![CDATA[Très joli parcours dont 1/3 dans le parc de la Tête d\'Or]]></desc>
  </metadata>
  <trk>
    <name><![CDATA[Semi de Lyon]]></name>
    <cmt><![CDATA[Super, sauf les ravitaillements !...]]></cmt>
    <trkseg>
      <trkpt lat="45.75846" lon="4.83252">
        <ele>167</ele>
        <time>2012-10-07T07:16:52Z</time>
      </trkpt>
      <trkpt lat="45.75846" lon="4.83252">
        <ele>159</ele>
        <time>2012-10-07T07:16:53Z</time>
      </trkpt>
      <trkpt lat="45.75851" lon="4.83232">
        <ele>162</ele>
        <time>2012-10-07T07:17:00Z</time>
      </trkpt>
      <trkpt lat="45.75856" lon="4.83213">
        <ele>163</ele>
        <time>2012-10-07T07:17:08Z</time>
      </trkpt>
      <trkpt lat="45.75861" lon="4.83192">
        <ele>162</ele>
        <time>2012-10-07T07:17:17Z</time>
      </trkpt>
      <trkpt lat="45.7587" lon="4.83174">
        <ele>163</ele>
        <time>2012-10-07T07:17:25Z</time>
      </trkpt>
      <trkpt lat="45.75878" lon="4.83155">
        <ele>164</ele>
        <time>2012-10-07T07:17:31Z</time>
      </trkpt>
      <trkpt lat="45.75882" lon="4.83137">
        <ele>164</ele>
        <time>2012-10-07T07:17:39Z</time>
      </trkpt>
      <trkpt lat="45.75886" lon="4.83117">
        <ele>165</ele>
        <time>2012-10-07T07:17:46Z</time>
      </trkpt>
      <trkpt lat="45.7589" lon="4.83096">
        <ele>166</ele>
        <time>2012-10-07T07:17:53Z</time>
      </trkpt>
      <trkpt lat="45.75896" lon="4.83077">
        <ele>168</ele>
        <time>2012-10-07T07:18:00Z</time>
      </trkpt>
      <trkpt lat="45.75903" lon="4.83059">
        <ele>169</ele>
        <time>2012-10-07T07:18:08Z</time>
      </trkpt>
      <trkpt lat="45.7591" lon="4.83038">
        <ele>167</ele>
        <time>2012-10-07T07:18:15Z</time>
      </trkpt>
      <trkpt lat="45.75914" lon="4.83017">
        <ele>168</ele>
        <time>2012-10-07T07:18:22Z</time>
      </trkpt>
      <trkpt lat="45.75916" lon="4.82997">
        <ele>168</ele>
        <time>2012-10-07T07:18:29Z</time>
      </trkpt>
      <trkpt lat="45.7592" lon="4.82977">
        <ele>169</ele>
        <time>2012-10-07T07:18:37Z</time>
      </trkpt>
      <trkpt lat="45.75927" lon="4.82958">
        <ele>171</ele>
        <time>2012-10-07T07:18:45Z</time>
      </trkpt>
      <trkpt lat="45.7593" lon="4.82937">
        <ele>172</ele>
        <time>2012-10-07T07:18:52Z</time>
      </trkpt>
      <trkpt lat="45.75936" lon="4.82919">
        <ele>172</ele>
        <time>2012-10-07T07:18:59Z</time>
      </trkpt>
      <trkpt lat="45.75941" lon="4.82899">
        <ele>171</ele>
        <time>2012-10-07T07:19:06Z</time>
      </trkpt>
      <trkpt lat="45.75942" lon="4.82879">
        <ele>170</ele>
        <time>2012-10-07T07:19:13Z</time>
      </trkpt>
      <trkpt lat="45.75946" lon="4.82858">
        <ele>173</ele>
        <time>2012-10-07T07:19:21Z</time>
      </trkpt>
      <trkpt lat="45.75946" lon="4.82838">
        <ele>174</ele>
        <time>2012-10-07T07:19:28Z</time>
      </trkpt>
      <trkpt lat="45.75955" lon="4.82821">
        <ele>174</ele>
        <time>2012-10-07T07:19:35Z</time>
      </trkpt>
      <trkpt lat="45.75967" lon="4.82808">
        <ele>176</ele>
        <time>2012-10-07T07:19:40Z</time>
      </trkpt>
      <trkpt lat="45.7598" lon="4.82799">
        <ele>176</ele>
        <time>2012-10-07T07:19:48Z</time>
      </trkpt>
      <trkpt lat="45.75995" lon="4.82805">
        <ele>177</ele>
        <time>2012-10-07T07:19:57Z</time>
      </trkpt>
      <trkpt lat="45.76004" lon="4.82823">
        <ele>180</ele>
        <time>2012-10-07T07:20:04Z</time>
      </trkpt>
      <trkpt lat="45.76014" lon="4.82839">
        <ele>181</ele>
        <time>2012-10-07T07:20:09Z</time>
      </trkpt>
      <trkpt lat="45.76027" lon="4.82843">
        <ele>178</ele>
        <time>2012-10-07T07:20:16Z</time>
      </trkpt>
      <trkpt lat="45.76042" lon="4.82848">
        <ele>179</ele>
        <time>2012-10-07T07:20:23Z</time>
      </trkpt>
      <trkpt lat="45.76057" lon="4.82852">
        <ele>178</ele>
        <time>2012-10-07T07:20:30Z</time>
      </trkpt>
      <trkpt lat="45.7607" lon="4.82856">
        <ele>178</ele>
        <time>2012-10-07T07:20:37Z</time>
      </trkpt>
      <trkpt lat="45.76084" lon="4.82862">
        <ele>178</ele>
        <time>2012-10-07T07:20:43Z</time>
      </trkpt>
      <trkpt lat="45.76098" lon="4.82868">
        <ele>175</ele>
        <time>2012-10-07T07:20:51Z</time>
      </trkpt>
      <trkpt lat="45.76111" lon="4.82876">
        <ele>177</ele>
        <time>2012-10-07T07:20:56Z</time>
      </trkpt>
      <trkpt lat="45.76125" lon="4.82877">
        <ele>176</ele>
        <time>2012-10-07T07:21:04Z</time>
      </trkpt>
      <trkpt lat="45.76139" lon="4.8288">
        <ele>176</ele>
        <time>2012-10-07T07:21:11Z</time>
      </trkpt>
      <trkpt lat="45.76153" lon="4.82882">
        <ele>177</ele>
        <time>2012-10-07T07:21:18Z</time>
      </trkpt>
      <trkpt lat="45.76167" lon="4.82886">
        <ele>179</ele>
        <time>2012-10-07T07:21:25Z</time>
      </trkpt>
      <trkpt lat="45.76181" lon="4.8289">
        <ele>177</ele>
        <time>2012-10-07T07:21:32Z</time>
      </trkpt>
      <trkpt lat="45.76197" lon="4.82892">
        <ele>175</ele>
        <time>2012-10-07T07:21:40Z</time>
      </trkpt>
      <trkpt lat="45.76212" lon="4.82892">
        <ele>174</ele>
        <time>2012-10-07T07:21:48Z</time>
      </trkpt>
      <trkpt lat="45.76225" lon="4.82896">
        <ele>175</ele>
        <time>2012-10-07T07:21:55Z</time>
      </trkpt>
      <trkpt lat="45.76241" lon="4.82899">
        <ele>177</ele>
        <time>2012-10-07T07:22:02Z</time>
      </trkpt>
      <trkpt lat="45.76254" lon="4.82907">
        <ele>178</ele>
        <time>2012-10-07T07:22:09Z</time>
      </trkpt>
      <trkpt lat="45.76267" lon="4.82914">
        <ele>181</ele>
        <time>2012-10-07T07:22:18Z</time>
      </trkpt>
      <trkpt lat="45.76281" lon="4.82917">
        <ele>182</ele>
        <time>2012-10-07T07:22:25Z</time>
      </trkpt>
      <trkpt lat="45.76296" lon="4.82919">
        <ele>181</ele>
        <time>2012-10-07T07:22:33Z</time>
      </trkpt>
      <trkpt lat="45.7631" lon="4.82924">
        <ele>179</ele>
        <time>2012-10-07T07:22:40Z</time>
      </trkpt>
      <trkpt lat="45.76325" lon="4.82924">
        <ele>178</ele>
        <time>2012-10-07T07:22:50Z</time>
      </trkpt>
      <trkpt lat="45.7634" lon="4.82924">
        <ele>179</ele>
        <time>2012-10-07T07:23:01Z</time>
      </trkpt>
      <trkpt lat="45.76354" lon="4.82923">
        <ele>179</ele>
        <time>2012-10-07T07:23:07Z</time>
      </trkpt>
      <trkpt lat="45.76369" lon="4.82926">
        <ele>178</ele>
        <time>2012-10-07T07:23:13Z</time>
      </trkpt>
      <trkpt lat="45.76384" lon="4.82926">
        <ele>179</ele>
        <time>2012-10-07T07:23:18Z</time>
      </trkpt>
      <trkpt lat="45.76399" lon="4.82927">
        <ele>181</ele>
        <time>2012-10-07T07:23:26Z</time>
      </trkpt>
      <trkpt lat="45.76415" lon="4.82921">
        <ele>177</ele>
        <time>2012-10-07T07:23:33Z</time>
      </trkpt>
      <trkpt lat="45.76428" lon="4.82919">
        <ele>177</ele>
        <time>2012-10-07T07:23:41Z</time>
      </trkpt>
      <trkpt lat="45.76443" lon="4.8292">
        <ele>177</ele>
        <time>2012-10-07T07:23:48Z</time>
      </trkpt>
      <trkpt lat="45.76457" lon="4.82922">
        <ele>177</ele>
        <time>2012-10-07T07:23:55Z</time>
      </trkpt>
      <trkpt lat="45.7647" lon="4.82928">
        <ele>178</ele>
        <time>2012-10-07T07:24:01Z</time>
      </trkpt>
      <trkpt lat="45.76483" lon="4.82923">
        <ele>178</ele>
        <time>2012-10-07T07:24:07Z</time>
      </trkpt>
      <trkpt lat="45.76496" lon="4.82915">
        <ele>176</ele>
        <time>2012-10-07T07:24:16Z</time>
      </trkpt>
      <trkpt lat="45.76512" lon="4.82918">
        <ele>178</ele>
        <time>2012-10-07T07:24:23Z</time>
      </trkpt>
      <trkpt lat="45.76527" lon="4.82923">
        <ele>180</ele>
        <time>2012-10-07T07:24:31Z</time>
      </trkpt>
      <trkpt lat="45.76541" lon="4.82921">
        <ele>180</ele>
        <time>2012-10-07T07:24:39Z</time>
      </trkpt>
      <trkpt lat="45.76554" lon="4.82915">
        <ele>178</ele>
        <time>2012-10-07T07:24:46Z</time>
      </trkpt>
      <trkpt lat="45.76568" lon="4.82914">
        <ele>178</ele>
        <time>2012-10-07T07:24:54Z</time>
      </trkpt>
      <trkpt lat="45.76581" lon="4.82906">
        <ele>178</ele>
        <time>2012-10-07T07:25:03Z</time>
      </trkpt>
      <trkpt lat="45.76597" lon="4.82904">
        <ele>177</ele>
        <time>2012-10-07T07:25:10Z</time>
      </trkpt>
      <trkpt lat="45.76611" lon="4.82897">
        <ele>177</ele>
        <time>2012-10-07T07:25:15Z</time>
      </trkpt>
      <trkpt lat="45.76625" lon="4.82887">
        <ele>178</ele>
        <time>2012-10-07T07:25:22Z</time>
      </trkpt>
      <trkpt lat="45.76637" lon="4.82871">
        <ele>178</ele>
        <time>2012-10-07T07:25:29Z</time>
      </trkpt>
      <trkpt lat="45.76646" lon="4.82856">
        <ele>177</ele>
        <time>2012-10-07T07:25:34Z</time>
      </trkpt>
      <trkpt lat="45.76655" lon="4.82841">
        <ele>176</ele>
        <time>2012-10-07T07:25:40Z</time>
      </trkpt>
      <trkpt lat="45.76663" lon="4.82823">
        <ele>172</ele>
        <time>2012-10-07T07:25:48Z</time>
      </trkpt>
      <trkpt lat="45.76674" lon="4.82808">
        <ele>174</ele>
        <time>2012-10-07T07:25:54Z</time>
      </trkpt>
      <trkpt lat="45.76686" lon="4.82793">
        <ele>173</ele>
        <time>2012-10-07T07:26:01Z</time>
      </trkpt>
      <trkpt lat="45.76695" lon="4.82776">
        <ele>173</ele>
        <time>2012-10-07T07:26:08Z</time>
      </trkpt>
      <trkpt lat="45.76705" lon="4.82761">
        <ele>174</ele>
        <time>2012-10-07T07:26:14Z</time>
      </trkpt>
      <trkpt lat="45.76727" lon="4.82735">
        <ele>170</ele>
        <time>2012-10-07T07:26:26Z</time>
      </trkpt>
      <trkpt lat="45.76729" lon="4.82712">
        <ele>173</ele>
        <time>2012-10-07T07:26:32Z</time>
      </trkpt>
      <trkpt lat="45.76736" lon="4.82691">
        <ele>171</ele>
        <time>2012-10-07T07:26:38Z</time>
      </trkpt>
      <trkpt lat="45.76742" lon="4.82671">
        <ele>171</ele>
        <time>2012-10-07T07:26:45Z</time>
      </trkpt>
      <trkpt lat="45.76748" lon="4.82654">
        <ele>171</ele>
        <time>2012-10-07T07:26:52Z</time>
      </trkpt>
      <trkpt lat="45.76749" lon="4.82633">
        <ele>170</ele>
        <time>2012-10-07T07:27:00Z</time>
      </trkpt>
      <trkpt lat="45.76753" lon="4.82613">
        <ele>169</ele>
        <time>2012-10-07T07:27:06Z</time>
      </trkpt>
      <trkpt lat="45.76755" lon="4.82592">
        <ele>171</ele>
        <time>2012-10-07T07:27:14Z</time>
      </trkpt>
      <trkpt lat="45.76751" lon="4.82572">
        <ele>170</ele>
        <time>2012-10-07T07:27:20Z</time>
      </trkpt>
      <trkpt lat="45.76745" lon="4.82555">
        <ele>170</ele>
        <time>2012-10-07T07:27:27Z</time>
      </trkpt>
      <trkpt lat="45.76745" lon="4.82534">
        <ele>170</ele>
        <time>2012-10-07T07:27:36Z</time>
      </trkpt>
      <trkpt lat="45.76745" lon="4.82514">
        <ele>171</ele>
        <time>2012-10-07T07:27:42Z</time>
      </trkpt>
      <trkpt lat="45.76744" lon="4.82493">
        <ele>171</ele>
        <time>2012-10-07T07:27:48Z</time>
      </trkpt>
      <trkpt lat="45.76743" lon="4.82474">
        <ele>170</ele>
        <time>2012-10-07T07:27:55Z</time>
      </trkpt>
      <trkpt lat="45.76742" lon="4.82454">
        <ele>171</ele>
        <time>2012-10-07T07:28:01Z</time>
      </trkpt>
      <trkpt lat="45.76746" lon="4.82435">
        <ele>170</ele>
        <time>2012-10-07T07:28:09Z</time>
      </trkpt>
      <trkpt lat="45.76746" lon="4.82415">
        <ele>170</ele>
        <time>2012-10-07T07:28:16Z</time>
      </trkpt>
      <trkpt lat="45.76744" lon="4.82394">
        <ele>170</ele>
        <time>2012-10-07T07:28:23Z</time>
      </trkpt>
      <trkpt lat="45.76741" lon="4.82374">
        <ele>170</ele>
        <time>2012-10-07T07:28:32Z</time>
      </trkpt>
      <trkpt lat="45.7674" lon="4.82352">
        <ele>174</ele>
        <time>2012-10-07T07:28:41Z</time>
      </trkpt>
      <trkpt lat="45.76739" lon="4.8233">
        <ele>172</ele>
        <time>2012-10-07T07:28:48Z</time>
      </trkpt>
      <trkpt lat="45.7674" lon="4.82309">
        <ele>171</ele>
        <time>2012-10-07T07:28:55Z</time>
      </trkpt>
      <trkpt lat="45.76739" lon="4.82287">
        <ele>169</ele>
        <time>2012-10-07T07:29:03Z</time>
      </trkpt>
      <trkpt lat="45.7674" lon="4.82267">
        <ele>170</ele>
        <time>2012-10-07T07:29:11Z</time>
      </trkpt>
      <trkpt lat="45.76739" lon="4.82245">
        <ele>166</ele>
        <time>2012-10-07T07:29:19Z</time>
      </trkpt>
      <trkpt lat="45.76731" lon="4.82228">
        <ele>167</ele>
        <time>2012-10-07T07:29:24Z</time>
      </trkpt>
      <trkpt lat="45.76723" lon="4.8221">
        <ele>169</ele>
        <time>2012-10-07T07:29:33Z</time>
      </trkpt>
      <trkpt lat="45.76719" lon="4.82189">
        <ele>170</ele>
        <time>2012-10-07T07:29:40Z</time>
      </trkpt>
      <trkpt lat="45.76714" lon="4.8217">
        <ele>170</ele>
        <time>2012-10-07T07:29:46Z</time>
      </trkpt>
      <trkpt lat="45.76709" lon="4.82152">
        <ele>171</ele>
        <time>2012-10-07T07:29:54Z</time>
      </trkpt>
      <trkpt lat="45.76707" lon="4.82132">
        <ele>172</ele>
        <time>2012-10-07T07:30:01Z</time>
      </trkpt>
      <trkpt lat="45.76701" lon="4.82113">
        <ele>173</ele>
        <time>2012-10-07T07:30:08Z</time>
      </trkpt>
      <trkpt lat="45.76695" lon="4.82095">
        <ele>173</ele>
        <time>2012-10-07T07:30:16Z</time>
      </trkpt>
      <trkpt lat="45.76688" lon="4.82077">
        <ele>173</ele>
        <time>2012-10-07T07:30:24Z</time>
      </trkpt>
      <trkpt lat="45.76683" lon="4.82059">
        <ele>170</ele>
        <time>2012-10-07T07:30:31Z</time>
      </trkpt>
      <trkpt lat="45.76677" lon="4.82041">
        <ele>171</ele>
        <time>2012-10-07T07:30:39Z</time>
      </trkpt>
      <trkpt lat="45.76671" lon="4.82021">
        <ele>171</ele>
        <time>2012-10-07T07:30:47Z</time>
      </trkpt>
      <trkpt lat="45.76667" lon="4.82">
        <ele>173</ele>
        <time>2012-10-07T07:30:56Z</time>
      </trkpt>
      <trkpt lat="45.7666" lon="4.81982">
        <ele>173</ele>
        <time>2012-10-07T07:31:02Z</time>
      </trkpt>
      <trkpt lat="45.76656" lon="4.81964">
        <ele>175</ele>
        <time>2012-10-07T07:31:10Z</time>
      </trkpt>
      <trkpt lat="45.76657" lon="4.81944">
        <ele>174</ele>
        <time>2012-10-07T07:31:17Z</time>
      </trkpt>
      <trkpt lat="45.7666" lon="4.81922">
        <ele>176</ele>
        <time>2012-10-07T07:31:24Z</time>
      </trkpt>
      <trkpt lat="45.76658" lon="4.81903">
        <ele>178</ele>
        <time>2012-10-07T07:31:30Z</time>
      </trkpt>
      <trkpt lat="45.76654" lon="4.81884">
        <ele>176</ele>
        <time>2012-10-07T07:31:37Z</time>
      </trkpt>
      <trkpt lat="45.76651" lon="4.81864">
        <ele>175</ele>
        <time>2012-10-07T07:31:44Z</time>
      </trkpt>
      <trkpt lat="45.76651" lon="4.81843">
        <ele>173</ele>
        <time>2012-10-07T07:31:51Z</time>
      </trkpt>
      <trkpt lat="45.7665" lon="4.81821">
        <ele>171</ele>
        <time>2012-10-07T07:32:00Z</time>
      </trkpt>
      <trkpt lat="45.76649" lon="4.81799">
        <ele>169</ele>
        <time>2012-10-07T07:32:05Z</time>
      </trkpt>
      <trkpt lat="45.76649" lon="4.81777">
        <ele>169</ele>
        <time>2012-10-07T07:32:14Z</time>
      </trkpt>
      <trkpt lat="45.76658" lon="4.81761">
        <ele>170</ele>
        <time>2012-10-07T07:32:22Z</time>
      </trkpt>
      <trkpt lat="45.76667" lon="4.81742">
        <ele>167</ele>
        <time>2012-10-07T07:32:27Z</time>
      </trkpt>
      <trkpt lat="45.76662" lon="4.81722">
        <ele>167</ele>
        <time>2012-10-07T07:32:35Z</time>
      </trkpt>
      <trkpt lat="45.76661" lon="4.81702">
        <ele>168</ele>
        <time>2012-10-07T07:32:45Z</time>
      </trkpt>
      <trkpt lat="45.76662" lon="4.81682">
        <ele>169</ele>
        <time>2012-10-07T07:32:51Z</time>
      </trkpt>
      <trkpt lat="45.76668" lon="4.81663">
        <ele>168</ele>
        <time>2012-10-07T07:32:58Z</time>
      </trkpt>
      <trkpt lat="45.76676" lon="4.81645">
        <ele>166</ele>
        <time>2012-10-07T07:33:05Z</time>
      </trkpt>
      <trkpt lat="45.76683" lon="4.81623">
        <ele>164</ele>
        <time>2012-10-07T07:33:13Z</time>
      </trkpt>
      <trkpt lat="45.76686" lon="4.81603">
        <ele>162</ele>
        <time>2012-10-07T07:33:19Z</time>
      </trkpt>
      <trkpt lat="45.76686" lon="4.81584">
        <ele>163</ele>
        <time>2012-10-07T07:33:27Z</time>
      </trkpt>
      <trkpt lat="45.76692" lon="4.81565">
        <ele>163</ele>
        <time>2012-10-07T07:33:35Z</time>
      </trkpt>
      <trkpt lat="45.76695" lon="4.81546">
        <ele>160</ele>
        <time>2012-10-07T07:33:43Z</time>
      </trkpt>
      <trkpt lat="45.76699" lon="4.81525">
        <ele>159</ele>
        <time>2012-10-07T07:33:51Z</time>
      </trkpt>
      <trkpt lat="45.76709" lon="4.8151">
        <ele>159</ele>
        <time>2012-10-07T07:33:57Z</time>
      </trkpt>
      <trkpt lat="45.76718" lon="4.81495">
        <ele>161</ele>
        <time>2012-10-07T07:34:06Z</time>
      </trkpt>
      <trkpt lat="45.76722" lon="4.81476">
        <ele>164</ele>
        <time>2012-10-07T07:34:13Z</time>
      </trkpt>
      <trkpt lat="45.76725" lon="4.81456">
        <ele>162</ele>
        <time>2012-10-07T07:34:20Z</time>
      </trkpt>
      <trkpt lat="45.76735" lon="4.81438">
        <ele>165</ele>
        <time>2012-10-07T07:34:28Z</time>
      </trkpt>
      <trkpt lat="45.76744" lon="4.81422">
        <ele>166</ele>
        <time>2012-10-07T07:34:34Z</time>
      </trkpt>
      <trkpt lat="45.76753" lon="4.81406">
        <ele>167</ele>
        <time>2012-10-07T07:34:43Z</time>
      </trkpt>
      <trkpt lat="45.76755" lon="4.81384">
        <ele>168</ele>
        <time>2012-10-07T07:34:51Z</time>
      </trkpt>
      <trkpt lat="45.76758" lon="4.81363">
        <ele>168</ele>
        <time>2012-10-07T07:34:56Z</time>
      </trkpt>
      <trkpt lat="45.76767" lon="4.81348">
        <ele>166</ele>
        <time>2012-10-07T07:35:05Z</time>
      </trkpt>
      <trkpt lat="45.76779" lon="4.81337">
        <ele>168</ele>
        <time>2012-10-07T07:35:12Z</time>
      </trkpt>
      <trkpt lat="45.76791" lon="4.81325">
        <ele>171</ele>
        <time>2012-10-07T07:35:19Z</time>
      </trkpt>
      <trkpt lat="45.76804" lon="4.81313">
        <ele>170</ele>
        <time>2012-10-07T07:35:25Z</time>
      </trkpt>
      <trkpt lat="45.76814" lon="4.81297">
        <ele>174</ele>
        <time>2012-10-07T07:35:33Z</time>
      </trkpt>
      <trkpt lat="45.76828" lon="4.81299">
        <ele>177</ele>
        <time>2012-10-07T07:35:40Z</time>
      </trkpt>
      <trkpt lat="45.76842" lon="4.81297">
        <ele>178</ele>
        <time>2012-10-07T07:35:48Z</time>
      </trkpt>
      <trkpt lat="45.76856" lon="4.81294">
        <ele>179</ele>
        <time>2012-10-07T07:35:54Z</time>
      </trkpt>
      <trkpt lat="45.76871" lon="4.81298">
        <ele>185</ele>
        <time>2012-10-07T07:36:03Z</time>
      </trkpt>
      <trkpt lat="45.76886" lon="4.81303">
        <ele>186</ele>
        <time>2012-10-07T07:36:11Z</time>
      </trkpt>
      <trkpt lat="45.769" lon="4.81301">
        <ele>182</ele>
        <time>2012-10-07T07:36:18Z</time>
      </trkpt>
      <trkpt lat="45.76914" lon="4.81295">
        <ele>182</ele>
        <time>2012-10-07T07:36:27Z</time>
      </trkpt>
      <trkpt lat="45.76928" lon="4.81291">
        <ele>183</ele>
        <time>2012-10-07T07:36:34Z</time>
      </trkpt>
      <trkpt lat="45.76943" lon="4.81291">
        <ele>184</ele>
        <time>2012-10-07T07:36:41Z</time>
      </trkpt>
      <trkpt lat="45.76956" lon="4.81293">
        <ele>187</ele>
        <time>2012-10-07T07:36:50Z</time>
      </trkpt>
      <trkpt lat="45.7697" lon="4.8129">
        <ele>186</ele>
        <time>2012-10-07T07:36:56Z</time>
      </trkpt>
      <trkpt lat="45.76983" lon="4.81282">
        <ele>183</ele>
        <time>2012-10-07T07:37:03Z</time>
      </trkpt>
      <trkpt lat="45.76996" lon="4.81293">
        <ele>183</ele>
        <time>2012-10-07T07:37:16Z</time>
      </trkpt>
      <trkpt lat="45.76999" lon="4.81312">
        <ele>182</ele>
        <time>2012-10-07T07:37:23Z</time>
      </trkpt>
      <trkpt lat="45.77003" lon="4.81331">
        <ele>179</ele>
        <time>2012-10-07T07:37:31Z</time>
      </trkpt>
      <trkpt lat="45.77008" lon="4.81351">
        <ele>178</ele>
        <time>2012-10-07T07:37:39Z</time>
      </trkpt>
      <trkpt lat="45.77011" lon="4.81373">
        <ele>175</ele>
        <time>2012-10-07T07:37:47Z</time>
      </trkpt>
      <trkpt lat="45.77015" lon="4.81392">
        <ele>171</ele>
        <time>2012-10-07T07:37:54Z</time>
      </trkpt>
      <trkpt lat="45.77016" lon="4.81412">
        <ele>171</ele>
        <time>2012-10-07T07:38:01Z</time>
      </trkpt>
      <trkpt lat="45.77006" lon="4.81425">
        <ele>171</ele>
        <time>2012-10-07T07:38:09Z</time>
      </trkpt>
      <trkpt lat="45.76991" lon="4.81432">
        <ele>171</ele>
        <time>2012-10-07T07:38:16Z</time>
      </trkpt>
      <trkpt lat="45.76977" lon="4.8144">
        <ele>172</ele>
        <time>2012-10-07T07:38:25Z</time>
      </trkpt>
      <trkpt lat="45.76965" lon="4.81447">
        <ele>173</ele>
        <time>2012-10-07T07:38:31Z</time>
      </trkpt>
      <trkpt lat="45.76951" lon="4.81457">
        <ele>172</ele>
        <time>2012-10-07T07:38:39Z</time>
      </trkpt>
      <trkpt lat="45.76937" lon="4.81466">
        <ele>172</ele>
        <time>2012-10-07T07:38:47Z</time>
      </trkpt>
      <trkpt lat="45.76924" lon="4.81474">
        <ele>170</ele>
        <time>2012-10-07T07:38:54Z</time>
      </trkpt>
      <trkpt lat="45.76912" lon="4.81482">
        <ele>171</ele>
        <time>2012-10-07T07:38:59Z</time>
      </trkpt>
      <trkpt lat="45.76897" lon="4.81486">
        <ele>170</ele>
        <time>2012-10-07T07:39:05Z</time>
      </trkpt>
      <trkpt lat="45.76884" lon="4.81496">
        <ele>168</ele>
        <time>2012-10-07T07:39:12Z</time>
      </trkpt>
      <trkpt lat="45.76871" lon="4.81501">
        <ele>166</ele>
        <time>2012-10-07T07:39:19Z</time>
      </trkpt>
      <trkpt lat="45.76857" lon="4.81511">
        <ele>166</ele>
        <time>2012-10-07T07:39:27Z</time>
      </trkpt>
      <trkpt lat="45.76846" lon="4.81525">
        <ele>166</ele>
        <time>2012-10-07T07:39:33Z</time>
      </trkpt>
      <trkpt lat="45.76834" lon="4.81537">
        <ele>165</ele>
        <time>2012-10-07T07:39:41Z</time>
      </trkpt>
      <trkpt lat="45.76828" lon="4.81558">
        <ele>164</ele>
        <time>2012-10-07T07:39:49Z</time>
      </trkpt>
      <trkpt lat="45.76819" lon="4.81573">
        <ele>166</ele>
        <time>2012-10-07T07:39:55Z</time>
      </trkpt>
      <trkpt lat="45.76811" lon="4.81589">
        <ele>163</ele>
        <time>2012-10-07T07:40:02Z</time>
      </trkpt>
      <trkpt lat="45.76806" lon="4.81609">
        <ele>161</ele>
        <time>2012-10-07T07:40:12Z</time>
      </trkpt>
      <trkpt lat="45.76802" lon="4.81628">
        <ele>161</ele>
        <time>2012-10-07T07:40:20Z</time>
      </trkpt>
      <trkpt lat="45.76796" lon="4.81648">
        <ele>162</ele>
        <time>2012-10-07T07:40:28Z</time>
      </trkpt>
      <trkpt lat="45.76792" lon="4.81669">
        <ele>161</ele>
        <time>2012-10-07T07:40:36Z</time>
      </trkpt>
      <trkpt lat="45.76788" lon="4.81688">
        <ele>162</ele>
        <time>2012-10-07T07:40:43Z</time>
      </trkpt>
      <trkpt lat="45.76782" lon="4.81707">
        <ele>165</ele>
        <time>2012-10-07T07:40:48Z</time>
      </trkpt>
      <trkpt lat="45.76774" lon="4.81726">
        <ele>166</ele>
        <time>2012-10-07T07:40:55Z</time>
      </trkpt>
      <trkpt lat="45.7677" lon="4.81746">
        <ele>165</ele>
        <time>2012-10-07T07:41:03Z</time>
      </trkpt>
      <trkpt lat="45.76769" lon="4.81767">
        <ele>164</ele>
        <time>2012-10-07T07:41:11Z</time>
      </trkpt>
      <trkpt lat="45.76764" lon="4.81786">
        <ele>163</ele>
        <time>2012-10-07T07:41:19Z</time>
      </trkpt>
      <trkpt lat="45.76763" lon="4.81807">
        <ele>166</ele>
        <time>2012-10-07T07:41:27Z</time>
      </trkpt>
      <trkpt lat="45.7676" lon="4.81829">
        <ele>165</ele>
        <time>2012-10-07T07:41:35Z</time>
      </trkpt>
      <trkpt lat="45.76756" lon="4.81847">
        <ele>166</ele>
        <time>2012-10-07T07:41:41Z</time>
      </trkpt>
      <trkpt lat="45.76754" lon="4.81868">
        <ele>167</ele>
        <time>2012-10-07T07:41:48Z</time>
      </trkpt>
      <trkpt lat="45.76757" lon="4.81889">
        <ele>165</ele>
        <time>2012-10-07T07:41:55Z</time>
      </trkpt>
      <trkpt lat="45.76764" lon="4.81908">
        <ele>160</ele>
        <time>2012-10-07T07:42:04Z</time>
      </trkpt>
      <trkpt lat="45.76768" lon="4.81927">
        <ele>160</ele>
        <time>2012-10-07T07:42:11Z</time>
      </trkpt>
      <trkpt lat="45.76772" lon="4.81947">
        <ele>159</ele>
        <time>2012-10-07T07:42:17Z</time>
      </trkpt>
      <trkpt lat="45.76776" lon="4.81967">
        <ele>160</ele>
        <time>2012-10-07T07:42:25Z</time>
      </trkpt>
      <trkpt lat="45.76779" lon="4.81988">
        <ele>161</ele>
        <time>2012-10-07T07:42:33Z</time>
      </trkpt>
      <trkpt lat="45.76782" lon="4.82007">
        <ele>164</ele>
        <time>2012-10-07T07:42:40Z</time>
      </trkpt>
      <trkpt lat="45.76785" lon="4.82029">
        <ele>163</ele>
        <time>2012-10-07T07:42:48Z</time>
      </trkpt>
      <trkpt lat="45.76787" lon="4.82049">
        <ele>165</ele>
        <time>2012-10-07T07:42:55Z</time>
      </trkpt>
      <trkpt lat="45.7679" lon="4.82071">
        <ele>164</ele>
        <time>2012-10-07T07:43:03Z</time>
      </trkpt>
      <trkpt lat="45.76795" lon="4.82091">
        <ele>162</ele>
        <time>2012-10-07T07:43:11Z</time>
      </trkpt>
      <trkpt lat="45.76803" lon="4.82108">
        <ele>156</ele>
        <time>2012-10-07T07:43:19Z</time>
      </trkpt>
      <trkpt lat="45.7681" lon="4.82127">
        <ele>154</ele>
        <time>2012-10-07T07:43:27Z</time>
      </trkpt>
      <trkpt lat="45.76815" lon="4.82146">
        <ele>150</ele>
        <time>2012-10-07T07:43:35Z</time>
      </trkpt>
      <trkpt lat="45.76819" lon="4.82167">
        <ele>153</ele>
        <time>2012-10-07T07:43:42Z</time>
      </trkpt>
      <trkpt lat="45.76819" lon="4.82188">
        <ele>155</ele>
        <time>2012-10-07T07:43:48Z</time>
      </trkpt>
      <trkpt lat="45.76824" lon="4.82208">
        <ele>156</ele>
        <time>2012-10-07T07:43:56Z</time>
      </trkpt>
      <trkpt lat="45.76827" lon="4.82228">
        <ele>158</ele>
        <time>2012-10-07T07:44:04Z</time>
      </trkpt>
      <trkpt lat="45.76828" lon="4.82249">
        <ele>159</ele>
        <time>2012-10-07T07:44:11Z</time>
      </trkpt>
      <trkpt lat="45.76826" lon="4.82269">
        <ele>163</ele>
        <time>2012-10-07T07:44:18Z</time>
      </trkpt>
      <trkpt lat="45.76827" lon="4.82291">
        <ele>163</ele>
        <time>2012-10-07T07:44:27Z</time>
      </trkpt>
      <trkpt lat="45.76825" lon="4.8231">
        <ele>173</ele>
        <time>2012-10-07T07:44:34Z</time>
      </trkpt>
      <trkpt lat="45.76825" lon="4.82332">
        <ele>174</ele>
        <time>2012-10-07T07:44:41Z</time>
      </trkpt>
      <trkpt lat="45.76825" lon="4.82355">
        <ele>176</ele>
        <time>2012-10-07T07:44:48Z</time>
      </trkpt>
      <trkpt lat="45.76826" lon="4.82375">
        <ele>178</ele>
        <time>2012-10-07T07:44:54Z</time>
      </trkpt>
      <trkpt lat="45.76828" lon="4.82395">
        <ele>179</ele>
        <time>2012-10-07T07:45:01Z</time>
      </trkpt>
      <trkpt lat="45.76827" lon="4.82418">
        <ele>178</ele>
        <time>2012-10-07T07:45:07Z</time>
      </trkpt>
      <trkpt lat="45.76832" lon="4.82437">
        <ele>177</ele>
        <time>2012-10-07T07:45:14Z</time>
      </trkpt>
      <trkpt lat="45.76834" lon="4.82458">
        <ele>176</ele>
        <time>2012-10-07T07:45:23Z</time>
      </trkpt>
      <trkpt lat="45.76833" lon="4.82478">
        <ele>177</ele>
        <time>2012-10-07T07:45:32Z</time>
      </trkpt>
      <trkpt lat="45.76836" lon="4.82499">
        <ele>173</ele>
        <time>2012-10-07T07:45:39Z</time>
      </trkpt>
      <trkpt lat="45.76839" lon="4.8252">
        <ele>172</ele>
        <time>2012-10-07T07:45:49Z</time>
      </trkpt>
      <trkpt lat="45.7684" lon="4.82542">
        <ele>173</ele>
        <time>2012-10-07T07:45:55Z</time>
      </trkpt>
      <trkpt lat="45.76841" lon="4.82562">
        <ele>173</ele>
        <time>2012-10-07T07:46:02Z</time>
      </trkpt>
      <trkpt lat="45.76843" lon="4.82581">
        <ele>172</ele>
        <time>2012-10-07T07:46:11Z</time>
      </trkpt>
      <trkpt lat="45.7684" lon="4.82603">
        <ele>172</ele>
        <time>2012-10-07T07:46:18Z</time>
      </trkpt>
      <trkpt lat="45.76837" lon="4.82623">
        <ele>174</ele>
        <time>2012-10-07T07:46:27Z</time>
      </trkpt>
      <trkpt lat="45.76831" lon="4.82641">
        <ele>178</ele>
        <time>2012-10-07T07:46:33Z</time>
      </trkpt>
      <trkpt lat="45.76826" lon="4.8266">
        <ele>178</ele>
        <time>2012-10-07T07:46:40Z</time>
      </trkpt>
      <trkpt lat="45.76827" lon="4.82681">
        <ele>177</ele>
        <time>2012-10-07T07:46:47Z</time>
      </trkpt>
      <trkpt lat="45.76823" lon="4.82699">
        <ele>177</ele>
        <time>2012-10-07T07:46:55Z</time>
      </trkpt>
      <trkpt lat="45.76818" lon="4.82718">
        <ele>178</ele>
        <time>2012-10-07T07:47:01Z</time>
      </trkpt>
      <trkpt lat="45.76814" lon="4.82738">
        <ele>176</ele>
        <time>2012-10-07T07:47:08Z</time>
      </trkpt>
      <trkpt lat="45.7681" lon="4.82759">
        <ele>175</ele>
        <time>2012-10-07T07:47:17Z</time>
      </trkpt>
      <trkpt lat="45.76805" lon="4.82779">
        <ele>179</ele>
        <time>2012-10-07T07:47:27Z</time>
      </trkpt>
      <trkpt lat="45.76797" lon="4.82796">
        <ele>180</ele>
        <time>2012-10-07T07:47:35Z</time>
      </trkpt>
      <trkpt lat="45.7679" lon="4.82813">
        <ele>178</ele>
        <time>2012-10-07T07:47:44Z</time>
      </trkpt>
      <trkpt lat="45.76781" lon="4.8283">
        <ele>174</ele>
        <time>2012-10-07T07:47:51Z</time>
      </trkpt>
      <trkpt lat="45.76772" lon="4.82846">
        <ele>173</ele>
        <time>2012-10-07T07:47:58Z</time>
      </trkpt>
      <trkpt lat="45.76765" lon="4.82865">
        <ele>172</ele>
        <time>2012-10-07T07:48:07Z</time>
      </trkpt>
      <trkpt lat="45.76755" lon="4.82882">
        <ele>171</ele>
        <time>2012-10-07T07:48:15Z</time>
      </trkpt>
      <trkpt lat="45.76745" lon="4.82898">
        <ele>171</ele>
        <time>2012-10-07T07:48:22Z</time>
      </trkpt>
      <trkpt lat="45.76735" lon="4.82914">
        <ele>167</ele>
        <time>2012-10-07T07:48:29Z</time>
      </trkpt>
      <trkpt lat="45.76727" lon="4.82931">
        <ele>167</ele>
        <time>2012-10-07T07:48:36Z</time>
      </trkpt>
      <trkpt lat="45.76718" lon="4.82946">
        <ele>168</ele>
        <time>2012-10-07T07:48:43Z</time>
      </trkpt>
      <trkpt lat="45.76706" lon="4.8296">
        <ele>169</ele>
        <time>2012-10-07T07:48:51Z</time>
      </trkpt>
      <trkpt lat="45.76695" lon="4.82971">
        <ele>170</ele>
        <time>2012-10-07T07:48:57Z</time>
      </trkpt>
      <trkpt lat="45.76687" lon="4.82989">
        <ele>171</ele>
        <time>2012-10-07T07:49:06Z</time>
      </trkpt>
      <trkpt lat="45.76679" lon="4.83005">
        <ele>170</ele>
        <time>2012-10-07T07:49:13Z</time>
      </trkpt>
      <trkpt lat="45.76668" lon="4.83018">
        <ele>171</ele>
        <time>2012-10-07T07:49:20Z</time>
      </trkpt>
      <trkpt lat="45.76669" lon="4.83041">
        <ele>170</ele>
        <time>2012-10-07T07:49:29Z</time>
      </trkpt>
      <trkpt lat="45.76674" lon="4.83059">
        <ele>172</ele>
        <time>2012-10-07T07:49:33Z</time>
      </trkpt>
      <trkpt lat="45.76675" lon="4.83081">
        <ele>172</ele>
        <time>2012-10-07T07:49:41Z</time>
      </trkpt>
      <trkpt lat="45.76684" lon="4.83099">
        <ele>174</ele>
        <time>2012-10-07T07:49:46Z</time>
      </trkpt>
      <trkpt lat="45.76695" lon="4.83112">
        <ele>174</ele>
        <time>2012-10-07T07:49:53Z</time>
      </trkpt>
      <trkpt lat="45.76692" lon="4.83131">
        <ele>175</ele>
        <time>2012-10-07T07:49:58Z</time>
      </trkpt>
      <trkpt lat="45.76692" lon="4.8315">
        <ele>175</ele>
        <time>2012-10-07T07:50:04Z</time>
      </trkpt>
      <trkpt lat="45.76697" lon="4.83169">
        <ele>175</ele>
        <time>2012-10-07T07:50:10Z</time>
      </trkpt>
      <trkpt lat="45.7671" lon="4.8318">
        <ele>176</ele>
        <time>2012-10-07T07:50:17Z</time>
      </trkpt>
      <trkpt lat="45.76708" lon="4.832">
        <ele>175</ele>
        <time>2012-10-07T07:50:26Z</time>
      </trkpt>
      <trkpt lat="45.76706" lon="4.83222">
        <ele>176</ele>
        <time>2012-10-07T07:50:34Z</time>
      </trkpt>
      <trkpt lat="45.76708" lon="4.83242">
        <ele>176</ele>
        <time>2012-10-07T07:50:40Z</time>
      </trkpt>
      <trkpt lat="45.76716" lon="4.83259">
        <ele>177</ele>
        <time>2012-10-07T07:50:47Z</time>
      </trkpt>
      <trkpt lat="45.76712" lon="4.8328">
        <ele>181</ele>
        <time>2012-10-07T07:50:54Z</time>
      </trkpt>
      <trkpt lat="45.76709" lon="4.83301">
        <ele>183</ele>
        <time>2012-10-07T07:51:00Z</time>
      </trkpt>
      <trkpt lat="45.76709" lon="4.83322">
        <ele>186</ele>
        <time>2012-10-07T07:51:08Z</time>
      </trkpt>
      <trkpt lat="45.76716" lon="4.8334">
        <ele>187</ele>
        <time>2012-10-07T07:51:15Z</time>
      </trkpt>
      <trkpt lat="45.76721" lon="4.83361">
        <ele>187</ele>
        <time>2012-10-07T07:51:23Z</time>
      </trkpt>
      <trkpt lat="45.76728" lon="4.83379">
        <ele>187</ele>
        <time>2012-10-07T07:51:31Z</time>
      </trkpt>
      <trkpt lat="45.76731" lon="4.83399">
        <ele>188</ele>
        <time>2012-10-07T07:51:40Z</time>
      </trkpt>
      <trkpt lat="45.7673" lon="4.8342">
        <ele>188</ele>
        <time>2012-10-07T07:51:48Z</time>
      </trkpt>
      <trkpt lat="45.76734" lon="4.8344">
        <ele>188</ele>
        <time>2012-10-07T07:51:55Z</time>
      </trkpt>
      <trkpt lat="45.76743" lon="4.83457">
        <ele>187</ele>
        <time>2012-10-07T07:52:02Z</time>
      </trkpt>
      <trkpt lat="45.76757" lon="4.83469">
        <ele>187</ele>
        <time>2012-10-07T07:52:07Z</time>
      </trkpt>
      <trkpt lat="45.76766" lon="4.83486">
        <ele>186</ele>
        <time>2012-10-07T07:52:14Z</time>
      </trkpt>
      <trkpt lat="45.76762" lon="4.83505">
        <ele>183</ele>
        <time>2012-10-07T07:52:23Z</time>
      </trkpt>
      <trkpt lat="45.76755" lon="4.83524">
        <ele>183</ele>
        <time>2012-10-07T07:52:28Z</time>
      </trkpt>
      <trkpt lat="45.76751" lon="4.83545">
        <ele>182</ele>
        <time>2012-10-07T07:52:35Z</time>
      </trkpt>
      <trkpt lat="45.7675" lon="4.83565">
        <ele>183</ele>
        <time>2012-10-07T07:52:42Z</time>
      </trkpt>
      <trkpt lat="45.76751" lon="4.83586">
        <ele>190</ele>
        <time>2012-10-07T07:52:48Z</time>
      </trkpt>
      <trkpt lat="45.76753" lon="4.83606">
        <ele>191</ele>
        <time>2012-10-07T07:52:53Z</time>
      </trkpt>
      <trkpt lat="45.76759" lon="4.83623">
        <ele>190</ele>
        <time>2012-10-07T07:52:59Z</time>
      </trkpt>
      <trkpt lat="45.76764" lon="4.83643">
        <ele>190</ele>
        <time>2012-10-07T07:53:08Z</time>
      </trkpt>
      <trkpt lat="45.7676" lon="4.83665">
        <ele>189</ele>
        <time>2012-10-07T07:53:14Z</time>
      </trkpt>
      <trkpt lat="45.76758" lon="4.83684">
        <ele>189</ele>
        <time>2012-10-07T07:53:19Z</time>
      </trkpt>
      <trkpt lat="45.76754" lon="4.83704">
        <ele>190</ele>
        <time>2012-10-07T07:53:29Z</time>
      </trkpt>
      <trkpt lat="45.76747" lon="4.83722">
        <ele>188</ele>
        <time>2012-10-07T07:53:34Z</time>
      </trkpt>
      <trkpt lat="45.76731" lon="4.83759">
        <ele>186</ele>
        <time>2012-10-07T07:53:43Z</time>
      </trkpt>
      <trkpt lat="45.76732" lon="4.8378">
        <ele>187</ele>
        <time>2012-10-07T07:53:50Z</time>
      </trkpt>
      <trkpt lat="45.76767" lon="4.83787">
        <ele>189</ele>
        <time>2012-10-07T07:53:57Z</time>
      </trkpt>
      <trkpt lat="45.76774" lon="4.83807">
        <ele>190</ele>
        <time>2012-10-07T07:54:04Z</time>
      </trkpt>
      <trkpt lat="45.76775" lon="4.83828">
        <ele>185</ele>
        <time>2012-10-07T07:54:12Z</time>
      </trkpt>
      <trkpt lat="45.76789" lon="4.83833">
        <ele>185</ele>
        <time>2012-10-07T07:54:17Z</time>
      </trkpt>
      <trkpt lat="45.76804" lon="4.83834">
        <ele>186</ele>
        <time>2012-10-07T07:54:23Z</time>
      </trkpt>
      <trkpt lat="45.76817" lon="4.83839">
        <ele>183</ele>
        <time>2012-10-07T07:54:31Z</time>
      </trkpt>
      <trkpt lat="45.76832" lon="4.83835">
        <ele>182</ele>
        <time>2012-10-07T07:54:39Z</time>
      </trkpt>
      <trkpt lat="45.76845" lon="4.83833">
        <ele>184</ele>
        <time>2012-10-07T07:54:45Z</time>
      </trkpt>
      <trkpt lat="45.76858" lon="4.8384">
        <ele>184</ele>
        <time>2012-10-07T07:54:52Z</time>
      </trkpt>
      <trkpt lat="45.76858" lon="4.8386">
        <ele>184</ele>
        <time>2012-10-07T07:54:59Z</time>
      </trkpt>
      <trkpt lat="45.76856" lon="4.83879">
        <ele>184</ele>
        <time>2012-10-07T07:55:07Z</time>
      </trkpt>
      <trkpt lat="45.76856" lon="4.839">
        <ele>182</ele>
        <time>2012-10-07T07:55:14Z</time>
      </trkpt>
      <trkpt lat="45.76857" lon="4.83919">
        <ele>182</ele>
        <time>2012-10-07T07:55:21Z</time>
      </trkpt>
      <trkpt lat="45.76859" lon="4.8394">
        <ele>181</ele>
        <time>2012-10-07T07:55:28Z</time>
      </trkpt>
      <trkpt lat="45.76857" lon="4.83961">
        <ele>179</ele>
        <time>2012-10-07T07:55:35Z</time>
      </trkpt>
      <trkpt lat="45.76859" lon="4.83983">
        <ele>179</ele>
        <time>2012-10-07T07:55:44Z</time>
      </trkpt>
      <trkpt lat="45.76856" lon="4.84004">
        <ele>180</ele>
        <time>2012-10-07T07:55:49Z</time>
      </trkpt>
      <trkpt lat="45.76854" lon="4.84023">
        <ele>182</ele>
        <time>2012-10-07T07:55:56Z</time>
      </trkpt>
      <trkpt lat="45.76852" lon="4.84042">
        <ele>186</ele>
        <time>2012-10-07T07:56:04Z</time>
      </trkpt>
      <trkpt lat="45.76854" lon="4.84062">
        <ele>185</ele>
        <time>2012-10-07T07:56:10Z</time>
      </trkpt>
      <trkpt lat="45.76859" lon="4.84081">
        <ele>183</ele>
        <time>2012-10-07T07:56:17Z</time>
      </trkpt>
      <trkpt lat="45.76865" lon="4.841">
        <ele>183</ele>
        <time>2012-10-07T07:56:25Z</time>
      </trkpt>
      <trkpt lat="45.76857" lon="4.84117">
        <ele>182</ele>
        <time>2012-10-07T07:56:36Z</time>
      </trkpt>
      <trkpt lat="45.76841" lon="4.8412">
        <ele>183</ele>
        <time>2012-10-07T07:56:41Z</time>
      </trkpt>
      <trkpt lat="45.76827" lon="4.8412">
        <ele>183</ele>
        <time>2012-10-07T07:56:48Z</time>
      </trkpt>
      <trkpt lat="45.76812" lon="4.84116">
        <ele>185</ele>
        <time>2012-10-07T07:56:56Z</time>
      </trkpt>
      <trkpt lat="45.76798" lon="4.84114">
        <ele>184</ele>
        <time>2012-10-07T07:57:04Z</time>
      </trkpt>
      <trkpt lat="45.76783" lon="4.84115">
        <ele>183</ele>
        <time>2012-10-07T07:57:14Z</time>
      </trkpt>
      <trkpt lat="45.7677" lon="4.84116">
        <ele>181</ele>
        <time>2012-10-07T07:57:20Z</time>
      </trkpt>
      <trkpt lat="45.76756" lon="4.84122">
        <ele>183</ele>
        <time>2012-10-07T07:57:26Z</time>
      </trkpt>
      <trkpt lat="45.7674" lon="4.84123">
        <ele>182</ele>
        <time>2012-10-07T07:57:33Z</time>
      </trkpt>
      <trkpt lat="45.76726" lon="4.84123">
        <ele>182</ele>
        <time>2012-10-07T07:57:39Z</time>
      </trkpt>
      <trkpt lat="45.76712" lon="4.8412">
        <ele>183</ele>
        <time>2012-10-07T07:57:46Z</time>
      </trkpt>
      <trkpt lat="45.7671" lon="4.84098">
        <ele>183</ele>
        <time>2012-10-07T07:57:53Z</time>
      </trkpt>
      <trkpt lat="45.76724" lon="4.84089">
        <ele>182</ele>
        <time>2012-10-07T07:58:04Z</time>
      </trkpt>
      <trkpt lat="45.76738" lon="4.84093">
        <ele>180</ele>
        <time>2012-10-07T07:58:11Z</time>
      </trkpt>
      <trkpt lat="45.76754" lon="4.84089">
        <ele>180</ele>
        <time>2012-10-07T07:58:19Z</time>
      </trkpt>
      <trkpt lat="45.76769" lon="4.8409">
        <ele>182</ele>
        <time>2012-10-07T07:58:25Z</time>
      </trkpt>
      <trkpt lat="45.76783" lon="4.84089">
        <ele>183</ele>
        <time>2012-10-07T07:58:31Z</time>
      </trkpt>
      <trkpt lat="45.76797" lon="4.84084">
        <ele>182</ele>
        <time>2012-10-07T07:58:38Z</time>
      </trkpt>
      <trkpt lat="45.76811" lon="4.84083">
        <ele>182</ele>
        <time>2012-10-07T07:58:45Z</time>
      </trkpt>
      <trkpt lat="45.76826" lon="4.84081">
        <ele>182</ele>
        <time>2012-10-07T07:58:53Z</time>
      </trkpt>
      <trkpt lat="45.7684" lon="4.84078">
        <ele>180</ele>
        <time>2012-10-07T07:59:07Z</time>
      </trkpt>
      <trkpt lat="45.76854" lon="4.84072">
        <ele>178</ele>
        <time>2012-10-07T07:59:18Z</time>
      </trkpt>
      <trkpt lat="45.76884" lon="4.84071">
        <ele>175</ele>
        <time>2012-10-07T07:59:26Z</time>
      </trkpt>
      <trkpt lat="45.76899" lon="4.8407">
        <ele>176</ele>
        <time>2012-10-07T07:59:31Z</time>
      </trkpt>
      <trkpt lat="45.76914" lon="4.84071">
        <ele>174</ele>
        <time>2012-10-07T07:59:39Z</time>
      </trkpt>
      <trkpt lat="45.76928" lon="4.84069">
        <ele>178</ele>
        <time>2012-10-07T07:59:47Z</time>
      </trkpt>
      <trkpt lat="45.76943" lon="4.84073">
        <ele>181</ele>
        <time>2012-10-07T07:59:54Z</time>
      </trkpt>
      <trkpt lat="45.76957" lon="4.84077">
        <ele>182</ele>
        <time>2012-10-07T08:00:02Z</time>
      </trkpt>
      <trkpt lat="45.76973" lon="4.84079">
        <ele>182</ele>
        <time>2012-10-07T08:00:11Z</time>
      </trkpt>
      <trkpt lat="45.76989" lon="4.84078">
        <ele>183</ele>
        <time>2012-10-07T08:00:17Z</time>
      </trkpt>
      <trkpt lat="45.77002" lon="4.84077">
        <ele>186</ele>
        <time>2012-10-07T08:00:23Z</time>
      </trkpt>
      <trkpt lat="45.77018" lon="4.84079">
        <ele>186</ele>
        <time>2012-10-07T08:00:32Z</time>
      </trkpt>
      <trkpt lat="45.77033" lon="4.84077">
        <ele>187</ele>
        <time>2012-10-07T08:00:39Z</time>
      </trkpt>
      <trkpt lat="45.77047" lon="4.84075">
        <ele>187</ele>
        <time>2012-10-07T08:00:46Z</time>
      </trkpt>
      <trkpt lat="45.77061" lon="4.84079">
        <ele>184</ele>
        <time>2012-10-07T08:00:53Z</time>
      </trkpt>
      <trkpt lat="45.77074" lon="4.8408">
        <ele>185</ele>
        <time>2012-10-07T08:01:00Z</time>
      </trkpt>
      <trkpt lat="45.77089" lon="4.84081">
        <ele>182</ele>
        <time>2012-10-07T08:01:04Z</time>
      </trkpt>
      <trkpt lat="45.77102" lon="4.84081">
        <ele>182</ele>
        <time>2012-10-07T08:01:10Z</time>
      </trkpt>
      <trkpt lat="45.77118" lon="4.84079">
        <ele>181</ele>
        <time>2012-10-07T08:01:18Z</time>
      </trkpt>
      <trkpt lat="45.77134" lon="4.84079">
        <ele>181</ele>
        <time>2012-10-07T08:01:25Z</time>
      </trkpt>
      <trkpt lat="45.77149" lon="4.84078">
        <ele>183</ele>
        <time>2012-10-07T08:01:31Z</time>
      </trkpt>
      <trkpt lat="45.77163" lon="4.84081">
        <ele>183</ele>
        <time>2012-10-07T08:01:37Z</time>
      </trkpt>
      <trkpt lat="45.77178" lon="4.84082">
        <ele>182</ele>
        <time>2012-10-07T08:01:44Z</time>
      </trkpt>
      <trkpt lat="45.77192" lon="4.84082">
        <ele>183</ele>
        <time>2012-10-07T08:01:55Z</time>
      </trkpt>
      <trkpt lat="45.77206" lon="4.84077">
        <ele>180</ele>
        <time>2012-10-07T08:02:09Z</time>
      </trkpt>
      <trkpt lat="45.77225" lon="4.84072">
        <ele>180</ele>
        <time>2012-10-07T08:02:23Z</time>
      </trkpt>
      <trkpt lat="45.77251" lon="4.8408">
        <ele>180</ele>
        <time>2012-10-07T08:02:30Z</time>
      </trkpt>
      <trkpt lat="45.77279" lon="4.84094">
        <ele>181</ele>
        <time>2012-10-07T08:02:39Z</time>
      </trkpt>
      <trkpt lat="45.77293" lon="4.84097">
        <ele>181</ele>
        <time>2012-10-07T08:02:44Z</time>
      </trkpt>
      <trkpt lat="45.77307" lon="4.84103">
        <ele>181</ele>
        <time>2012-10-07T08:02:51Z</time>
      </trkpt>
      <trkpt lat="45.77319" lon="4.84113">
        <ele>181</ele>
        <time>2012-10-07T08:02:57Z</time>
      </trkpt>
      <trkpt lat="45.77332" lon="4.84118">
        <ele>181</ele>
        <time>2012-10-07T08:03:08Z</time>
      </trkpt>
      <trkpt lat="45.77346" lon="4.84125">
        <ele>180</ele>
        <time>2012-10-07T08:03:15Z</time>
      </trkpt>
      <trkpt lat="45.77358" lon="4.84134">
        <ele>179</ele>
        <time>2012-10-07T08:03:20Z</time>
      </trkpt>
      <trkpt lat="45.7737" lon="4.84145">
        <ele>179</ele>
        <time>2012-10-07T08:03:31Z</time>
      </trkpt>
      <trkpt lat="45.77382" lon="4.84155">
        <ele>181</ele>
        <time>2012-10-07T08:03:39Z</time>
      </trkpt>
      <trkpt lat="45.77395" lon="4.84167">
        <ele>182</ele>
        <time>2012-10-07T08:03:47Z</time>
      </trkpt>
      <trkpt lat="45.77409" lon="4.84181">
        <ele>187</ele>
        <time>2012-10-07T08:03:58Z</time>
      </trkpt>
      <trkpt lat="45.77421" lon="4.84193">
        <ele>187</ele>
        <time>2012-10-07T08:04:07Z</time>
      </trkpt>
      <trkpt lat="45.77433" lon="4.84206">
        <ele>187</ele>
        <time>2012-10-07T08:04:13Z</time>
      </trkpt>
      <trkpt lat="45.77447" lon="4.84212">
        <ele>183</ele>
        <time>2012-10-07T08:04:19Z</time>
      </trkpt>
      <trkpt lat="45.7746" lon="4.8422">
        <ele>181</ele>
        <time>2012-10-07T08:04:26Z</time>
      </trkpt>
      <trkpt lat="45.77474" lon="4.84228">
        <ele>182</ele>
        <time>2012-10-07T08:04:35Z</time>
      </trkpt>
      <trkpt lat="45.77488" lon="4.84234">
        <ele>185</ele>
        <time>2012-10-07T08:04:42Z</time>
      </trkpt>
      <trkpt lat="45.775" lon="4.84246">
        <ele>184</ele>
        <time>2012-10-07T08:04:50Z</time>
      </trkpt>
      <trkpt lat="45.77513" lon="4.84257">
        <ele>183</ele>
        <time>2012-10-07T08:04:57Z</time>
      </trkpt>
      <trkpt lat="45.77525" lon="4.84268">
        <ele>183</ele>
        <time>2012-10-07T08:05:05Z</time>
      </trkpt>
      <trkpt lat="45.77537" lon="4.84279">
        <ele>184</ele>
        <time>2012-10-07T08:05:13Z</time>
      </trkpt>
      <trkpt lat="45.7755" lon="4.84287">
        <ele>186</ele>
        <time>2012-10-07T08:05:20Z</time>
      </trkpt>
      <trkpt lat="45.77563" lon="4.84296">
        <ele>187</ele>
        <time>2012-10-07T08:05:28Z</time>
      </trkpt>
      <trkpt lat="45.77577" lon="4.84305">
        <ele>185</ele>
        <time>2012-10-07T08:05:36Z</time>
      </trkpt>
      <trkpt lat="45.77592" lon="4.84313">
        <ele>186</ele>
        <time>2012-10-07T08:05:43Z</time>
      </trkpt>
      <trkpt lat="45.77605" lon="4.84319">
        <ele>187</ele>
        <time>2012-10-07T08:05:50Z</time>
      </trkpt>
      <trkpt lat="45.77616" lon="4.84333">
        <ele>188</ele>
        <time>2012-10-07T08:05:56Z</time>
      </trkpt>
      <trkpt lat="45.77624" lon="4.84348">
        <ele>189</ele>
        <time>2012-10-07T08:06:03Z</time>
      </trkpt>
      <trkpt lat="45.77636" lon="4.84362">
        <ele>191</ele>
        <time>2012-10-07T08:06:11Z</time>
      </trkpt>
      <trkpt lat="45.77647" lon="4.84376">
        <ele>190</ele>
        <time>2012-10-07T08:06:20Z</time>
      </trkpt>
      <trkpt lat="45.77658" lon="4.8439">
        <ele>190</ele>
        <time>2012-10-07T08:06:27Z</time>
      </trkpt>
      <trkpt lat="45.77675" lon="4.84386">
        <ele>187</ele>
        <time>2012-10-07T08:06:32Z</time>
      </trkpt>
      <trkpt lat="45.7769" lon="4.84378">
        <ele>186</ele>
        <time>2012-10-07T08:06:37Z</time>
      </trkpt>
      <trkpt lat="45.77705" lon="4.84372">
        <ele>184</ele>
        <time>2012-10-07T08:06:42Z</time>
      </trkpt>
      <trkpt lat="45.77719" lon="4.84374">
        <ele>182</ele>
        <time>2012-10-07T08:06:51Z</time>
      </trkpt>
      <trkpt lat="45.77734" lon="4.84372">
        <ele>183</ele>
        <time>2012-10-07T08:07:00Z</time>
      </trkpt>
      <trkpt lat="45.77747" lon="4.84373">
        <ele>185</ele>
        <time>2012-10-07T08:07:08Z</time>
      </trkpt>
      <trkpt lat="45.77761" lon="4.84376">
        <ele>186</ele>
        <time>2012-10-07T08:07:21Z</time>
      </trkpt>
      <trkpt lat="45.77776" lon="4.84375">
        <ele>194</ele>
        <time>2012-10-07T08:07:28Z</time>
      </trkpt>
      <trkpt lat="45.77809" lon="4.84376">
        <ele>187</ele>
        <time>2012-10-07T08:07:38Z</time>
      </trkpt>
      <trkpt lat="45.77825" lon="4.84379">
        <ele>186</ele>
        <time>2012-10-07T08:07:46Z</time>
      </trkpt>
      <trkpt lat="45.77838" lon="4.84387">
        <ele>187</ele>
        <time>2012-10-07T08:07:55Z</time>
      </trkpt>
      <trkpt lat="45.77848" lon="4.84404">
        <ele>186</ele>
        <time>2012-10-07T08:08:01Z</time>
      </trkpt>
      <trkpt lat="45.77859" lon="4.84417">
        <ele>188</ele>
        <time>2012-10-07T08:08:06Z</time>
      </trkpt>
      <trkpt lat="45.7787" lon="4.84428">
        <ele>188</ele>
        <time>2012-10-07T08:08:13Z</time>
      </trkpt>
      <trkpt lat="45.77883" lon="4.84437">
        <ele>190</ele>
        <time>2012-10-07T08:08:22Z</time>
      </trkpt>
      <trkpt lat="45.77896" lon="4.84449">
        <ele>189</ele>
        <time>2012-10-07T08:08:30Z</time>
      </trkpt>
      <trkpt lat="45.7791" lon="4.84457">
        <ele>190</ele>
        <time>2012-10-07T08:08:38Z</time>
      </trkpt>
      <trkpt lat="45.77922" lon="4.84467">
        <ele>186</ele>
        <time>2012-10-07T08:08:44Z</time>
      </trkpt>
      <trkpt lat="45.77935" lon="4.84475">
        <ele>185</ele>
        <time>2012-10-07T08:08:50Z</time>
      </trkpt>
      <trkpt lat="45.77948" lon="4.84485">
        <ele>183</ele>
        <time>2012-10-07T08:08:59Z</time>
      </trkpt>
      <trkpt lat="45.77963" lon="4.84491">
        <ele>185</ele>
        <time>2012-10-07T08:09:14Z</time>
      </trkpt>
      <trkpt lat="45.77976" lon="4.84498">
        <ele>185</ele>
        <time>2012-10-07T08:09:21Z</time>
      </trkpt>
      <trkpt lat="45.77989" lon="4.84508">
        <ele>185</ele>
        <time>2012-10-07T08:09:28Z</time>
      </trkpt>
      <trkpt lat="45.78001" lon="4.84522">
        <ele>185</ele>
        <time>2012-10-07T08:09:35Z</time>
      </trkpt>
      <trkpt lat="45.78012" lon="4.84534">
        <ele>185</ele>
        <time>2012-10-07T08:09:42Z</time>
      </trkpt>
      <trkpt lat="45.78022" lon="4.84548">
        <ele>183</ele>
        <time>2012-10-07T08:09:52Z</time>
      </trkpt>
      <trkpt lat="45.78035" lon="4.84559">
        <ele>183</ele>
        <time>2012-10-07T08:09:58Z</time>
      </trkpt>
      <trkpt lat="45.78048" lon="4.8457">
        <ele>184</ele>
        <time>2012-10-07T08:10:04Z</time>
      </trkpt>
      <trkpt lat="45.78061" lon="4.84579">
        <ele>182</ele>
        <time>2012-10-07T08:10:12Z</time>
      </trkpt>
      <trkpt lat="45.78073" lon="4.84588">
        <ele>179</ele>
        <time>2012-10-07T08:10:20Z</time>
      </trkpt>
      <trkpt lat="45.78086" lon="4.84599">
        <ele>179</ele>
        <time>2012-10-07T08:10:28Z</time>
      </trkpt>
      <trkpt lat="45.78098" lon="4.84611">
        <ele>180</ele>
        <time>2012-10-07T08:10:36Z</time>
      </trkpt>
      <trkpt lat="45.78111" lon="4.84623">
        <ele>181</ele>
        <time>2012-10-07T08:10:44Z</time>
      </trkpt>
      <trkpt lat="45.78124" lon="4.84634">
        <ele>180</ele>
        <time>2012-10-07T08:10:51Z</time>
      </trkpt>
      <trkpt lat="45.78134" lon="4.84647">
        <ele>181</ele>
        <time>2012-10-07T08:10:58Z</time>
      </trkpt>
      <trkpt lat="45.78142" lon="4.84663">
        <ele>181</ele>
        <time>2012-10-07T08:11:06Z</time>
      </trkpt>
      <trkpt lat="45.78143" lon="4.84682">
        <ele>179</ele>
        <time>2012-10-07T08:11:15Z</time>
      </trkpt>
      <trkpt lat="45.78135" lon="4.847">
        <ele>176</ele>
        <time>2012-10-07T08:11:29Z</time>
      </trkpt>
      <trkpt lat="45.78126" lon="4.84715">
        <ele>175</ele>
        <time>2012-10-07T08:11:37Z</time>
      </trkpt>
      <trkpt lat="45.78116" lon="4.84731">
        <ele>175</ele>
        <time>2012-10-07T08:11:45Z</time>
      </trkpt>
      <trkpt lat="45.78109" lon="4.84748">
        <ele>173</ele>
        <time>2012-10-07T08:11:54Z</time>
      </trkpt>
      <trkpt lat="45.78107" lon="4.84769">
        <ele>172</ele>
        <time>2012-10-07T08:12:02Z</time>
      </trkpt>
      <trkpt lat="45.78114" lon="4.84787">
        <ele>171</ele>
        <time>2012-10-07T08:12:10Z</time>
      </trkpt>
      <trkpt lat="45.78127" lon="4.84797">
        <ele>170</ele>
        <time>2012-10-07T08:12:15Z</time>
      </trkpt>
      <trkpt lat="45.78137" lon="4.84813">
        <ele>171</ele>
        <time>2012-10-07T08:12:23Z</time>
      </trkpt>
      <trkpt lat="45.78147" lon="4.84827">
        <ele>170</ele>
        <time>2012-10-07T08:12:31Z</time>
      </trkpt>
      <trkpt lat="45.78158" lon="4.84841">
        <ele>168</ele>
        <time>2012-10-07T08:12:38Z</time>
      </trkpt>
      <trkpt lat="45.7817" lon="4.84856">
        <ele>168</ele>
        <time>2012-10-07T08:12:44Z</time>
      </trkpt>
      <trkpt lat="45.78181" lon="4.84868">
        <ele>169</ele>
        <time>2012-10-07T08:12:52Z</time>
      </trkpt>
      <trkpt lat="45.78192" lon="4.84884">
        <ele>172</ele>
        <time>2012-10-07T08:12:59Z</time>
      </trkpt>
      <trkpt lat="45.78204" lon="4.84897">
        <ele>174</ele>
        <time>2012-10-07T08:13:06Z</time>
      </trkpt>
      <trkpt lat="45.78213" lon="4.84913">
        <ele>173</ele>
        <time>2012-10-07T08:13:14Z</time>
      </trkpt>
      <trkpt lat="45.78223" lon="4.8493">
        <ele>177</ele>
        <time>2012-10-07T08:13:21Z</time>
      </trkpt>
      <trkpt lat="45.78233" lon="4.84946">
        <ele>178</ele>
        <time>2012-10-07T08:13:27Z</time>
      </trkpt>
      <trkpt lat="45.78242" lon="4.84964">
        <ele>185</ele>
        <time>2012-10-07T08:13:33Z</time>
      </trkpt>
      <trkpt lat="45.78252" lon="4.84981">
        <ele>184</ele>
        <time>2012-10-07T08:13:40Z</time>
      </trkpt>
      <trkpt lat="45.78261" lon="4.84998">
        <ele>182</ele>
        <time>2012-10-07T08:13:48Z</time>
      </trkpt>
      <trkpt lat="45.7827" lon="4.85014">
        <ele>182</ele>
        <time>2012-10-07T08:13:55Z</time>
      </trkpt>
      <trkpt lat="45.78281" lon="4.85028">
        <ele>182</ele>
        <time>2012-10-07T08:14:01Z</time>
      </trkpt>
      <trkpt lat="45.7829" lon="4.85043">
        <ele>184</ele>
        <time>2012-10-07T08:14:08Z</time>
      </trkpt>
      <trkpt lat="45.78298" lon="4.85061">
        <ele>183</ele>
        <time>2012-10-07T08:14:24Z</time>
      </trkpt>
      <trkpt lat="45.78306" lon="4.85077">
        <ele>182</ele>
        <time>2012-10-07T08:14:29Z</time>
      </trkpt>
      <trkpt lat="45.78313" lon="4.85096">
        <ele>184</ele>
        <time>2012-10-07T08:14:35Z</time>
      </trkpt>
      <trkpt lat="45.7832" lon="4.85114">
        <ele>185</ele>
        <time>2012-10-07T08:14:42Z</time>
      </trkpt>
      <trkpt lat="45.7833" lon="4.85128">
        <ele>185</ele>
        <time>2012-10-07T08:14:50Z</time>
      </trkpt>
      <trkpt lat="45.7834" lon="4.85143">
        <ele>184</ele>
        <time>2012-10-07T08:14:57Z</time>
      </trkpt>
      <trkpt lat="45.78344" lon="4.85163">
        <ele>185</ele>
        <time>2012-10-07T08:15:06Z</time>
      </trkpt>
      <trkpt lat="45.78354" lon="4.8518">
        <ele>185</ele>
        <time>2012-10-07T08:15:13Z</time>
      </trkpt>
      <trkpt lat="45.78361" lon="4.85198">
        <ele>187</ele>
        <time>2012-10-07T08:15:20Z</time>
      </trkpt>
      <trkpt lat="45.78369" lon="4.85215">
        <ele>190</ele>
        <time>2012-10-07T08:15:27Z</time>
      </trkpt>
      <trkpt lat="45.7838" lon="4.85229">
        <ele>185</ele>
        <time>2012-10-07T08:15:34Z</time>
      </trkpt>
      <trkpt lat="45.78389" lon="4.85247">
        <ele>183</ele>
        <time>2012-10-07T08:15:41Z</time>
      </trkpt>
      <trkpt lat="45.78394" lon="4.85265">
        <ele>184</ele>
        <time>2012-10-07T08:15:48Z</time>
      </trkpt>
      <trkpt lat="45.784" lon="4.85284">
        <ele>183</ele>
        <time>2012-10-07T08:15:55Z</time>
      </trkpt>
      <trkpt lat="45.78407" lon="4.85301">
        <ele>182</ele>
        <time>2012-10-07T08:16:01Z</time>
      </trkpt>
      <trkpt lat="45.78415" lon="4.85317">
        <ele>180</ele>
        <time>2012-10-07T08:16:09Z</time>
      </trkpt>
      <trkpt lat="45.78426" lon="4.8533">
        <ele>178</ele>
        <time>2012-10-07T08:16:24Z</time>
      </trkpt>
      <trkpt lat="45.78434" lon="4.85351">
        <ele>179</ele>
        <time>2012-10-07T08:16:30Z</time>
      </trkpt>
      <trkpt lat="45.7844" lon="4.8537">
        <ele>179</ele>
        <time>2012-10-07T08:16:37Z</time>
      </trkpt>
      <trkpt lat="45.78441" lon="4.85392">
        <ele>179</ele>
        <time>2012-10-07T08:16:45Z</time>
      </trkpt>
      <trkpt lat="45.78447" lon="4.85411">
        <ele>179</ele>
        <time>2012-10-07T08:16:53Z</time>
      </trkpt>
      <trkpt lat="45.78448" lon="4.85431">
        <ele>181</ele>
        <time>2012-10-07T08:16:59Z</time>
      </trkpt>
      <trkpt lat="45.78454" lon="4.85451">
        <ele>182</ele>
        <time>2012-10-07T08:17:05Z</time>
      </trkpt>
      <trkpt lat="45.78461" lon="4.85469">
        <ele>181</ele>
        <time>2012-10-07T08:17:12Z</time>
      </trkpt>
      <trkpt lat="45.78467" lon="4.85488">
        <ele>181</ele>
        <time>2012-10-07T08:17:20Z</time>
      </trkpt>
      <trkpt lat="45.78471" lon="4.85508">
        <ele>179</ele>
        <time>2012-10-07T08:17:31Z</time>
      </trkpt>
      <trkpt lat="45.78473" lon="4.8553">
        <ele>180</ele>
        <time>2012-10-07T08:17:38Z</time>
      </trkpt>
      <trkpt lat="45.78475" lon="4.8555">
        <ele>180</ele>
        <time>2012-10-07T08:17:45Z</time>
      </trkpt>
      <trkpt lat="45.78476" lon="4.85569">
        <ele>180</ele>
        <time>2012-10-07T08:17:52Z</time>
      </trkpt>
      <trkpt lat="45.7848" lon="4.8559">
        <ele>181</ele>
        <time>2012-10-07T08:17:59Z</time>
      </trkpt>
      <trkpt lat="45.78484" lon="4.8561">
        <ele>180</ele>
        <time>2012-10-07T08:18:06Z</time>
      </trkpt>
      <trkpt lat="45.78482" lon="4.8563">
        <ele>179</ele>
        <time>2012-10-07T08:18:12Z</time>
      </trkpt>
      <trkpt lat="45.78483" lon="4.8565">
        <ele>180</ele>
        <time>2012-10-07T08:18:20Z</time>
      </trkpt>
      <trkpt lat="45.78478" lon="4.85668">
        <ele>176</ele>
        <time>2012-10-07T08:18:26Z</time>
      </trkpt>
      <trkpt lat="45.78478" lon="4.85688">
        <ele>176</ele>
        <time>2012-10-07T08:18:34Z</time>
      </trkpt>
      <trkpt lat="45.78478" lon="4.85709">
        <ele>174</ele>
        <time>2012-10-07T08:18:43Z</time>
      </trkpt>
      <trkpt lat="45.78482" lon="4.85728">
        <ele>176</ele>
        <time>2012-10-07T08:18:55Z</time>
      </trkpt>
      <trkpt lat="45.78493" lon="4.8577">
        <ele>175.8</ele>
        <time>2012-10-07T08:19:23Z</time>
      </trkpt>
      <trkpt lat="45.78466" lon="4.85836">
        <ele>174</ele>
        <time>2012-10-07T08:19:31Z</time>
      </trkpt>
      <trkpt lat="45.78466" lon="4.85865">
        <ele>169</ele>
        <time>2012-10-07T08:19:40Z</time>
      </trkpt>
      <trkpt lat="45.78469" lon="4.85884">
        <ele>169</ele>
        <time>2012-10-07T08:19:47Z</time>
      </trkpt>
      <trkpt lat="45.78467" lon="4.85904">
        <ele>166</ele>
        <time>2012-10-07T08:19:56Z</time>
      </trkpt>
      <trkpt lat="45.78453" lon="4.85904">
        <ele>168</ele>
        <time>2012-10-07T08:20:03Z</time>
      </trkpt>
      <trkpt lat="45.7844" lon="4.85895">
        <ele>171</ele>
        <time>2012-10-07T08:20:11Z</time>
      </trkpt>
      <trkpt lat="45.78426" lon="4.85887">
        <ele>172</ele>
        <time>2012-10-07T08:20:19Z</time>
      </trkpt>
      <trkpt lat="45.78414" lon="4.85875">
        <ele>172</ele>
        <time>2012-10-07T08:20:27Z</time>
      </trkpt>
      <trkpt lat="45.78401" lon="4.85866">
        <ele>175</ele>
        <time>2012-10-07T08:20:35Z</time>
      </trkpt>
      <trkpt lat="45.78392" lon="4.85851">
        <ele>177</ele>
        <time>2012-10-07T08:20:42Z</time>
      </trkpt>
      <trkpt lat="45.78387" lon="4.85832">
        <ele>178</ele>
        <time>2012-10-07T08:20:48Z</time>
      </trkpt>
      <trkpt lat="45.78381" lon="4.85814">
        <ele>176</ele>
        <time>2012-10-07T08:20:55Z</time>
      </trkpt>
      <trkpt lat="45.78378" lon="4.85793">
        <ele>174</ele>
        <time>2012-10-07T08:21:02Z</time>
      </trkpt>
      <trkpt lat="45.78377" lon="4.85773">
        <ele>175</ele>
        <time>2012-10-07T08:21:09Z</time>
      </trkpt>
      <trkpt lat="45.78377" lon="4.85752">
        <ele>174</ele>
        <time>2012-10-07T08:21:17Z</time>
      </trkpt>
      <trkpt lat="45.78384" lon="4.85734">
        <ele>172</ele>
        <time>2012-10-07T08:21:24Z</time>
      </trkpt>
      <trkpt lat="45.78389" lon="4.85715">
        <ele>173</ele>
        <time>2012-10-07T08:21:30Z</time>
      </trkpt>
      <trkpt lat="45.78398" lon="4.85699">
        <ele>173</ele>
        <time>2012-10-07T08:21:37Z</time>
      </trkpt>
      <trkpt lat="45.78406" lon="4.8568">
        <ele>174</ele>
        <time>2012-10-07T08:21:43Z</time>
      </trkpt>
      <trkpt lat="45.78413" lon="4.85662">
        <ele>174</ele>
        <time>2012-10-07T08:21:49Z</time>
      </trkpt>
      <trkpt lat="45.78421" lon="4.85644">
        <ele>169</ele>
        <time>2012-10-07T08:21:56Z</time>
      </trkpt>
      <trkpt lat="45.78421" lon="4.85623">
        <ele>170</ele>
        <time>2012-10-07T08:22:02Z</time>
      </trkpt>
      <trkpt lat="45.78424" lon="4.85601">
        <ele>171</ele>
        <time>2012-10-07T08:22:08Z</time>
      </trkpt>
      <trkpt lat="45.78427" lon="4.85582">
        <ele>171</ele>
        <time>2012-10-07T08:22:15Z</time>
      </trkpt>
      <trkpt lat="45.78422" lon="4.85562">
        <ele>170</ele>
        <time>2012-10-07T08:22:24Z</time>
      </trkpt>
      <trkpt lat="45.78412" lon="4.85546">
        <ele>166</ele>
        <time>2012-10-07T08:22:31Z</time>
      </trkpt>
      <trkpt lat="45.78401" lon="4.85533">
        <ele>166</ele>
        <time>2012-10-07T08:22:37Z</time>
      </trkpt>
      <trkpt lat="45.78392" lon="4.85518">
        <ele>163</ele>
        <time>2012-10-07T08:22:44Z</time>
      </trkpt>
      <trkpt lat="45.78383" lon="4.85504">
        <ele>160</ele>
        <time>2012-10-07T08:22:50Z</time>
      </trkpt>
      <trkpt lat="45.78373" lon="4.85487">
        <ele>160</ele>
        <time>2012-10-07T08:22:56Z</time>
      </trkpt>
      <trkpt lat="45.78362" lon="4.85473">
        <ele>160</ele>
        <time>2012-10-07T08:23:02Z</time>
      </trkpt>
      <trkpt lat="45.78351" lon="4.85457">
        <ele>162</ele>
        <time>2012-10-07T08:23:08Z</time>
      </trkpt>
      <trkpt lat="45.7834" lon="4.85442">
        <ele>163</ele>
        <time>2012-10-07T08:23:15Z</time>
      </trkpt>
      <trkpt lat="45.78328" lon="4.85431">
        <ele>165</ele>
        <time>2012-10-07T08:23:24Z</time>
      </trkpt>
      <trkpt lat="45.78316" lon="4.85419">
        <ele>166</ele>
        <time>2012-10-07T08:23:33Z</time>
      </trkpt>
      <trkpt lat="45.78307" lon="4.85403">
        <ele>166</ele>
        <time>2012-10-07T08:23:42Z</time>
      </trkpt>
      <trkpt lat="45.78298" lon="4.85386">
        <ele>167</ele>
        <time>2012-10-07T08:23:52Z</time>
      </trkpt>
      <trkpt lat="45.78292" lon="4.85368">
        <ele>169</ele>
        <time>2012-10-07T08:23:58Z</time>
      </trkpt>
      <trkpt lat="45.78287" lon="4.85349">
        <ele>170</ele>
        <time>2012-10-07T08:24:06Z</time>
      </trkpt>
      <trkpt lat="45.78278" lon="4.85333">
        <ele>169</ele>
        <time>2012-10-07T08:24:12Z</time>
      </trkpt>
      <trkpt lat="45.7827" lon="4.85316">
        <ele>167</ele>
        <time>2012-10-07T08:24:18Z</time>
      </trkpt>
      <trkpt lat="45.78263" lon="4.85298">
        <ele>166</ele>
        <time>2012-10-07T08:24:24Z</time>
      </trkpt>
      <trkpt lat="45.78255" lon="4.85281">
        <ele>168</ele>
        <time>2012-10-07T08:24:31Z</time>
      </trkpt>
      <trkpt lat="45.78248" lon="4.85264">
        <ele>169</ele>
        <time>2012-10-07T08:24:39Z</time>
      </trkpt>
      <trkpt lat="45.78239" lon="4.85247">
        <ele>168</ele>
        <time>2012-10-07T08:24:46Z</time>
      </trkpt>
      <trkpt lat="45.78233" lon="4.8523">
        <ele>168</ele>
        <time>2012-10-07T08:24:54Z</time>
      </trkpt>
      <trkpt lat="45.78227" lon="4.85208">
        <ele>167</ele>
        <time>2012-10-07T08:25:00Z</time>
      </trkpt>
      <trkpt lat="45.7822" lon="4.8519">
        <ele>166</ele>
        <time>2012-10-07T08:25:06Z</time>
      </trkpt>
      <trkpt lat="45.78212" lon="4.85173">
        <ele>167</ele>
        <time>2012-10-07T08:25:12Z</time>
      </trkpt>
      <trkpt lat="45.78201" lon="4.85158">
        <ele>165</ele>
        <time>2012-10-07T08:25:20Z</time>
      </trkpt>
      <trkpt lat="45.78193" lon="4.85143">
        <ele>162</ele>
        <time>2012-10-07T08:25:29Z</time>
      </trkpt>
      <trkpt lat="45.78184" lon="4.85128">
        <ele>163</ele>
        <time>2012-10-07T08:25:37Z</time>
      </trkpt>
      <trkpt lat="45.78173" lon="4.85116">
        <ele>162</ele>
        <time>2012-10-07T08:25:45Z</time>
      </trkpt>
      <trkpt lat="45.78162" lon="4.85103">
        <ele>162</ele>
        <time>2012-10-07T08:25:52Z</time>
      </trkpt>
      <trkpt lat="45.78151" lon="4.85089">
        <ele>163</ele>
        <time>2012-10-07T08:26:03Z</time>
      </trkpt>
      <trkpt lat="45.78139" lon="4.85079">
        <ele>162</ele>
        <time>2012-10-07T08:26:10Z</time>
      </trkpt>
      <trkpt lat="45.78127" lon="4.85067">
        <ele>162</ele>
        <time>2012-10-07T08:26:17Z</time>
      </trkpt>
      <trkpt lat="45.78115" lon="4.85056">
        <ele>163</ele>
        <time>2012-10-07T08:26:24Z</time>
      </trkpt>
      <trkpt lat="45.78103" lon="4.85044">
        <ele>165</ele>
        <time>2012-10-07T08:26:31Z</time>
      </trkpt>
      <trkpt lat="45.78092" lon="4.85028">
        <ele>168</ele>
        <time>2012-10-07T08:26:38Z</time>
      </trkpt>
      <trkpt lat="45.78086" lon="4.85008">
        <ele>170</ele>
        <time>2012-10-07T08:26:44Z</time>
      </trkpt>
      <trkpt lat="45.78079" lon="4.84989">
        <ele>173</ele>
        <time>2012-10-07T08:26:51Z</time>
      </trkpt>
      <trkpt lat="45.78072" lon="4.84971">
        <ele>175</ele>
        <time>2012-10-07T08:26:58Z</time>
      </trkpt>
      <trkpt lat="45.78067" lon="4.84952">
        <ele>178</ele>
        <time>2012-10-07T08:27:06Z</time>
      </trkpt>
      <trkpt lat="45.78059" lon="4.84934">
        <ele>177</ele>
        <time>2012-10-07T08:27:15Z</time>
      </trkpt>
      <trkpt lat="45.78049" lon="4.84919">
        <ele>178</ele>
        <time>2012-10-07T08:27:23Z</time>
      </trkpt>
      <trkpt lat="45.7804" lon="4.84903">
        <ele>179</ele>
        <time>2012-10-07T08:27:31Z</time>
      </trkpt>
      <trkpt lat="45.7803" lon="4.84887">
        <ele>178</ele>
        <time>2012-10-07T08:27:40Z</time>
      </trkpt>
      <trkpt lat="45.7802" lon="4.8487">
        <ele>178</ele>
        <time>2012-10-07T08:27:47Z</time>
      </trkpt>
      <trkpt lat="45.78013" lon="4.84852">
        <ele>177</ele>
        <time>2012-10-07T08:27:56Z</time>
      </trkpt>
      <trkpt lat="45.78002" lon="4.84838">
        <ele>174</ele>
        <time>2012-10-07T08:28:05Z</time>
      </trkpt>
      <trkpt lat="45.7799" lon="4.84827">
        <ele>175</ele>
        <time>2012-10-07T08:28:10Z</time>
      </trkpt>
      <trkpt lat="45.77979" lon="4.84813">
        <ele>173</ele>
        <time>2012-10-07T08:28:16Z</time>
      </trkpt>
      <trkpt lat="45.77968" lon="4.84802">
        <ele>173</ele>
        <time>2012-10-07T08:28:23Z</time>
      </trkpt>
      <trkpt lat="45.77958" lon="4.84783">
        <ele>169</ele>
        <time>2012-10-07T08:28:30Z</time>
      </trkpt>
      <trkpt lat="45.77946" lon="4.84773">
        <ele>168</ele>
        <time>2012-10-07T08:28:37Z</time>
      </trkpt>
      <trkpt lat="45.77933" lon="4.8476">
        <ele>173</ele>
        <time>2012-10-07T08:28:45Z</time>
      </trkpt>
      <trkpt lat="45.77921" lon="4.84748">
        <ele>178</ele>
        <time>2012-10-07T08:28:52Z</time>
      </trkpt>
      <trkpt lat="45.77912" lon="4.8473">
        <ele>178</ele>
        <time>2012-10-07T08:29:00Z</time>
      </trkpt>
      <trkpt lat="45.77902" lon="4.84713">
        <ele>178</ele>
        <time>2012-10-07T08:29:06Z</time>
      </trkpt>
      <trkpt lat="45.7789" lon="4.84701">
        <ele>179</ele>
        <time>2012-10-07T08:29:14Z</time>
      </trkpt>
      <trkpt lat="45.7788" lon="4.84685">
        <ele>179</ele>
        <time>2012-10-07T08:29:22Z</time>
      </trkpt>
      <trkpt lat="45.77868" lon="4.84673">
        <ele>180</ele>
        <time>2012-10-07T08:29:33Z</time>
      </trkpt>
      <trkpt lat="45.77857" lon="4.84662">
        <ele>179</ele>
        <time>2012-10-07T08:29:41Z</time>
      </trkpt>
      <trkpt lat="45.77845" lon="4.84652">
        <ele>178</ele>
        <time>2012-10-07T08:29:48Z</time>
      </trkpt>
      <trkpt lat="45.77834" lon="4.84639">
        <ele>178</ele>
        <time>2012-10-07T08:29:56Z</time>
      </trkpt>
      <trkpt lat="45.77825" lon="4.84624">
        <ele>177</ele>
        <time>2012-10-07T08:30:02Z</time>
      </trkpt>
      <trkpt lat="45.77812" lon="4.84616">
        <ele>175</ele>
        <time>2012-10-07T08:30:08Z</time>
      </trkpt>
      <trkpt lat="45.77801" lon="4.84603">
        <ele>176</ele>
        <time>2012-10-07T08:30:13Z</time>
      </trkpt>
      <trkpt lat="45.77791" lon="4.8459">
        <ele>178</ele>
        <time>2012-10-07T08:30:18Z</time>
      </trkpt>
      <trkpt lat="45.7778" lon="4.84578">
        <ele>179</ele>
        <time>2012-10-07T08:30:24Z</time>
      </trkpt>
      <trkpt lat="45.7777" lon="4.84563">
        <ele>179</ele>
        <time>2012-10-07T08:30:31Z</time>
      </trkpt>
      <trkpt lat="45.77758" lon="4.84551">
        <ele>183</ele>
        <time>2012-10-07T08:30:37Z</time>
      </trkpt>
      <trkpt lat="45.77744" lon="4.84548">
        <ele>180</ele>
        <time>2012-10-07T08:30:45Z</time>
      </trkpt>
      <trkpt lat="45.77733" lon="4.84562">
        <ele>178</ele>
        <time>2012-10-07T08:30:53Z</time>
      </trkpt>
      <trkpt lat="45.77726" lon="4.8458">
        <ele>176</ele>
        <time>2012-10-07T08:30:59Z</time>
      </trkpt>
      <trkpt lat="45.77723" lon="4.84599">
        <ele>175</ele>
        <time>2012-10-07T08:31:06Z</time>
      </trkpt>
      <trkpt lat="45.77723" lon="4.84621">
        <ele>172</ele>
        <time>2012-10-07T08:31:12Z</time>
      </trkpt>
      <trkpt lat="45.77723" lon="4.84641">
        <ele>172</ele>
        <time>2012-10-07T08:31:17Z</time>
      </trkpt>
      <trkpt lat="45.77725" lon="4.84662">
        <ele>172</ele>
        <time>2012-10-07T08:31:24Z</time>
      </trkpt>
      <trkpt lat="45.77726" lon="4.84682">
        <ele>170</ele>
        <time>2012-10-07T08:31:31Z</time>
      </trkpt>
      <trkpt lat="45.77728" lon="4.84702">
        <ele>172</ele>
        <time>2012-10-07T08:31:38Z</time>
      </trkpt>
      <trkpt lat="45.77729" lon="4.84722">
        <ele>172</ele>
        <time>2012-10-07T08:31:45Z</time>
      </trkpt>
      <trkpt lat="45.7773" lon="4.84741">
        <ele>171</ele>
        <time>2012-10-07T08:31:52Z</time>
      </trkpt>
      <trkpt lat="45.77733" lon="4.8476">
        <ele>172</ele>
        <time>2012-10-07T08:31:59Z</time>
      </trkpt>
      <trkpt lat="45.77729" lon="4.84782">
        <ele>173</ele>
        <time>2012-10-07T08:32:06Z</time>
      </trkpt>
      <trkpt lat="45.7773" lon="4.84803">
        <ele>177</ele>
        <time>2012-10-07T08:32:13Z</time>
      </trkpt>
      <trkpt lat="45.77734" lon="4.84821">
        <ele>178</ele>
        <time>2012-10-07T08:32:21Z</time>
      </trkpt>
      <trkpt lat="45.77741" lon="4.84839">
        <ele>178</ele>
        <time>2012-10-07T08:32:30Z</time>
      </trkpt>
      <trkpt lat="45.77746" lon="4.84858">
        <ele>174</ele>
        <time>2012-10-07T08:32:43Z</time>
      </trkpt>
      <trkpt lat="45.77748" lon="4.8488">
        <ele>177</ele>
        <time>2012-10-07T08:32:50Z</time>
      </trkpt>
      <trkpt lat="45.77748" lon="4.849">
        <ele>176</ele>
        <time>2012-10-07T08:32:56Z</time>
      </trkpt>
      <trkpt lat="45.7775" lon="4.84921">
        <ele>175</ele>
        <time>2012-10-07T08:33:01Z</time>
      </trkpt>
      <trkpt lat="45.77754" lon="4.8494">
        <ele>173</ele>
        <time>2012-10-07T08:33:06Z</time>
      </trkpt>
      <trkpt lat="45.7776" lon="4.84959">
        <ele>175</ele>
        <time>2012-10-07T08:33:12Z</time>
      </trkpt>
      <trkpt lat="45.77764" lon="4.84978">
        <ele>173</ele>
        <time>2012-10-07T08:33:21Z</time>
      </trkpt>
      <trkpt lat="45.77765" lon="4.84999">
        <ele>172</ele>
        <time>2012-10-07T08:33:30Z</time>
      </trkpt>
      <trkpt lat="45.77766" lon="4.85019">
        <ele>171</ele>
        <time>2012-10-07T08:33:39Z</time>
      </trkpt>
      <trkpt lat="45.77767" lon="4.85039">
        <ele>172</ele>
        <time>2012-10-07T08:33:47Z</time>
      </trkpt>
      <trkpt lat="45.77767" lon="4.85059">
        <ele>172</ele>
        <time>2012-10-07T08:33:55Z</time>
      </trkpt>
      <trkpt lat="45.77772" lon="4.85077">
        <ele>173</ele>
        <time>2012-10-07T08:34:04Z</time>
      </trkpt>
      <trkpt lat="45.7777" lon="4.85098">
        <ele>176</ele>
        <time>2012-10-07T08:34:11Z</time>
      </trkpt>
      <trkpt lat="45.77769" lon="4.85118">
        <ele>177</ele>
        <time>2012-10-07T08:34:19Z</time>
      </trkpt>
      <trkpt lat="45.77766" lon="4.85137">
        <ele>178</ele>
        <time>2012-10-07T08:34:27Z</time>
      </trkpt>
      <trkpt lat="45.77766" lon="4.85159">
        <ele>178</ele>
        <time>2012-10-07T08:34:36Z</time>
      </trkpt>
      <trkpt lat="45.77766" lon="4.85178">
        <ele>177</ele>
        <time>2012-10-07T08:34:42Z</time>
      </trkpt>
      <trkpt lat="45.7777" lon="4.85198">
        <ele>177</ele>
        <time>2012-10-07T08:34:50Z</time>
      </trkpt>
      <trkpt lat="45.77777" lon="4.85215">
        <ele>179</ele>
        <time>2012-10-07T08:34:58Z</time>
      </trkpt>
      <trkpt lat="45.77789" lon="4.85227">
        <ele>180</ele>
        <time>2012-10-07T08:35:04Z</time>
      </trkpt>
      <trkpt lat="45.77799" lon="4.85244">
        <ele>182</ele>
        <time>2012-10-07T08:35:11Z</time>
      </trkpt>
      <trkpt lat="45.77804" lon="4.85262">
        <ele>180</ele>
        <time>2012-10-07T08:35:18Z</time>
      </trkpt>
      <trkpt lat="45.77816" lon="4.85276">
        <ele>177</ele>
        <time>2012-10-07T08:35:24Z</time>
      </trkpt>
      <trkpt lat="45.77829" lon="4.85288">
        <ele>182</ele>
        <time>2012-10-07T08:35:32Z</time>
      </trkpt>
      <trkpt lat="45.77839" lon="4.85302">
        <ele>181</ele>
        <time>2012-10-07T08:35:41Z</time>
      </trkpt>
      <trkpt lat="45.77852" lon="4.85313">
        <ele>181</ele>
        <time>2012-10-07T08:35:49Z</time>
      </trkpt>
      <trkpt lat="45.77867" lon="4.85318">
        <ele>181</ele>
        <time>2012-10-07T08:35:55Z</time>
      </trkpt>
      <trkpt lat="45.77882" lon="4.85321">
        <ele>180</ele>
        <time>2012-10-07T08:36:03Z</time>
      </trkpt>
      <trkpt lat="45.77894" lon="4.8533">
        <ele>181</ele>
        <time>2012-10-07T08:36:07Z</time>
      </trkpt>
      <trkpt lat="45.779" lon="4.85349">
        <ele>179</ele>
        <time>2012-10-07T08:36:18Z</time>
      </trkpt>
      <trkpt lat="45.77908" lon="4.85365">
        <ele>177</ele>
        <time>2012-10-07T08:36:28Z</time>
      </trkpt>
      <trkpt lat="45.77915" lon="4.85385">
        <ele>178</ele>
        <time>2012-10-07T08:36:36Z</time>
      </trkpt>
      <trkpt lat="45.7792" lon="4.85406">
        <ele>179</ele>
        <time>2012-10-07T08:36:42Z</time>
      </trkpt>
      <trkpt lat="45.77927" lon="4.85425">
        <ele>179</ele>
        <time>2012-10-07T08:36:48Z</time>
      </trkpt>
      <trkpt lat="45.77938" lon="4.85439">
        <ele>179</ele>
        <time>2012-10-07T08:36:54Z</time>
      </trkpt>
      <trkpt lat="45.77948" lon="4.85453">
        <ele>178</ele>
        <time>2012-10-07T08:37:00Z</time>
      </trkpt>
      <trkpt lat="45.77955" lon="4.85471">
        <ele>177</ele>
        <time>2012-10-07T08:37:08Z</time>
      </trkpt>
      <trkpt lat="45.77964" lon="4.85489">
        <ele>179</ele>
        <time>2012-10-07T08:37:17Z</time>
      </trkpt>
      <trkpt lat="45.77966" lon="4.85509">
        <ele>178</ele>
        <time>2012-10-07T08:37:22Z</time>
      </trkpt>
      <trkpt lat="45.77972" lon="4.85527">
        <ele>179</ele>
        <time>2012-10-07T08:37:28Z</time>
      </trkpt>
      <trkpt lat="45.77977" lon="4.85546">
        <ele>178</ele>
        <time>2012-10-07T08:37:38Z</time>
      </trkpt>
      <trkpt lat="45.77979" lon="4.85568">
        <ele>176</ele>
        <time>2012-10-07T08:37:45Z</time>
      </trkpt>
      <trkpt lat="45.77981" lon="4.85587">
        <ele>177</ele>
        <time>2012-10-07T08:37:52Z</time>
      </trkpt>
      <trkpt lat="45.77991" lon="4.85604">
        <ele>176</ele>
        <time>2012-10-07T08:37:58Z</time>
      </trkpt>
      <trkpt lat="45.77997" lon="4.85622">
        <ele>174</ele>
        <time>2012-10-07T08:38:07Z</time>
      </trkpt>
      <trkpt lat="45.77998" lon="4.85642">
        <ele>176</ele>
        <time>2012-10-07T08:38:15Z</time>
      </trkpt>
      <trkpt lat="45.77984" lon="4.85649">
        <ele>175</ele>
        <time>2012-10-07T08:38:24Z</time>
      </trkpt>
      <trkpt lat="45.77971" lon="4.85647">
        <ele>170</ele>
        <time>2012-10-07T08:38:33Z</time>
      </trkpt>
      <trkpt lat="45.77957" lon="4.85648">
        <ele>170</ele>
        <time>2012-10-07T08:38:40Z</time>
      </trkpt>
      <trkpt lat="45.77944" lon="4.85652">
        <ele>168</ele>
        <time>2012-10-07T08:38:48Z</time>
      </trkpt>
      <trkpt lat="45.7793" lon="4.85654">
        <ele>168</ele>
        <time>2012-10-07T08:38:57Z</time>
      </trkpt>
      <trkpt lat="45.77914" lon="4.85656">
        <ele>170</ele>
        <time>2012-10-07T08:39:04Z</time>
      </trkpt>
      <trkpt lat="45.779" lon="4.8566">
        <ele>172</ele>
        <time>2012-10-07T08:39:11Z</time>
      </trkpt>
      <trkpt lat="45.77886" lon="4.85664">
        <ele>174</ele>
        <time>2012-10-07T08:39:21Z</time>
      </trkpt>
      <trkpt lat="45.77872" lon="4.85669">
        <ele>174</ele>
        <time>2012-10-07T08:39:29Z</time>
      </trkpt>
      <trkpt lat="45.77859" lon="4.85666">
        <ele>172</ele>
        <time>2012-10-07T08:39:37Z</time>
      </trkpt>
      <trkpt lat="45.7785" lon="4.85648">
        <ele>173</ele>
        <time>2012-10-07T08:39:45Z</time>
      </trkpt>
      <trkpt lat="45.77844" lon="4.8563">
        <ele>173</ele>
        <time>2012-10-07T08:39:52Z</time>
      </trkpt>
      <trkpt lat="45.77842" lon="4.85609">
        <ele>173</ele>
        <time>2012-10-07T08:40:03Z</time>
      </trkpt>
      <trkpt lat="45.77837" lon="4.8559">
        <ele>173</ele>
        <time>2012-10-07T08:40:10Z</time>
      </trkpt>
      <trkpt lat="45.77832" lon="4.85571">
        <ele>172</ele>
        <time>2012-10-07T08:40:18Z</time>
      </trkpt>
      <trkpt lat="45.77826" lon="4.85552">
        <ele>174</ele>
        <time>2012-10-07T08:40:29Z</time>
      </trkpt>
      <trkpt lat="45.77824" lon="4.85533">
        <ele>174</ele>
        <time>2012-10-07T08:40:35Z</time>
      </trkpt>
      <trkpt lat="45.7782" lon="4.85513">
        <ele>174</ele>
        <time>2012-10-07T08:40:41Z</time>
      </trkpt>
      <trkpt lat="45.77818" lon="4.85493">
        <ele>174</ele>
        <time>2012-10-07T08:40:48Z</time>
      </trkpt>
      <trkpt lat="45.77811" lon="4.85476">
        <ele>175</ele>
        <time>2012-10-07T08:40:55Z</time>
      </trkpt>
      <trkpt lat="45.778" lon="4.85465">
        <ele>174</ele>
        <time>2012-10-07T08:41:02Z</time>
      </trkpt>
      <trkpt lat="45.77804" lon="4.85444">
        <ele>174</ele>
        <time>2012-10-07T08:41:11Z</time>
      </trkpt>
      <trkpt lat="45.77803" lon="4.85423">
        <ele>173</ele>
        <time>2012-10-07T08:41:16Z</time>
      </trkpt>
      <trkpt lat="45.77801" lon="4.85403">
        <ele>173</ele>
        <time>2012-10-07T08:41:22Z</time>
      </trkpt>
      <trkpt lat="45.77793" lon="4.85386">
        <ele>173</ele>
        <time>2012-10-07T08:41:29Z</time>
      </trkpt>
      <trkpt lat="45.77788" lon="4.85368">
        <ele>176</ele>
        <time>2012-10-07T08:41:36Z</time>
      </trkpt>
      <trkpt lat="45.77785" lon="4.85348">
        <ele>176</ele>
        <time>2012-10-07T08:41:46Z</time>
      </trkpt>
      <trkpt lat="45.77784" lon="4.85328">
        <ele>175</ele>
        <time>2012-10-07T08:41:56Z</time>
      </trkpt>
      <trkpt lat="45.77784" lon="4.85305">
        <ele>174</ele>
        <time>2012-10-07T08:42:03Z</time>
      </trkpt>
      <trkpt lat="45.77788" lon="4.85286">
        <ele>173</ele>
        <time>2012-10-07T08:42:07Z</time>
      </trkpt>
      <trkpt lat="45.77787" lon="4.85265">
        <ele>174</ele>
        <time>2012-10-07T08:42:15Z</time>
      </trkpt>
      <trkpt lat="45.77784" lon="4.85245">
        <ele>175</ele>
        <time>2012-10-07T08:42:26Z</time>
      </trkpt>
      <trkpt lat="45.77769" lon="4.85243">
        <ele>173</ele>
        <time>2012-10-07T08:42:34Z</time>
      </trkpt>
      <trkpt lat="45.77755" lon="4.85247">
        <ele>169</ele>
        <time>2012-10-07T08:42:41Z</time>
      </trkpt>
      <trkpt lat="45.7774" lon="4.85258">
        <ele>169</ele>
        <time>2012-10-07T08:42:47Z</time>
      </trkpt>
      <trkpt lat="45.77726" lon="4.85269">
        <ele>170</ele>
        <time>2012-10-07T08:42:53Z</time>
      </trkpt>
      <trkpt lat="45.77713" lon="4.85279">
        <ele>170</ele>
        <time>2012-10-07T08:42:59Z</time>
      </trkpt>
      <trkpt lat="45.777" lon="4.85283">
        <ele>170</ele>
        <time>2012-10-07T08:43:06Z</time>
      </trkpt>
      <trkpt lat="45.77688" lon="4.85294">
        <ele>169</ele>
        <time>2012-10-07T08:43:16Z</time>
      </trkpt>
      <trkpt lat="45.77676" lon="4.85306">
        <ele>167</ele>
        <time>2012-10-07T08:43:23Z</time>
      </trkpt>
      <trkpt lat="45.77663" lon="4.85309">
        <ele>169</ele>
        <time>2012-10-07T08:43:31Z</time>
      </trkpt>
      <trkpt lat="45.77648" lon="4.8531">
        <ele>170</ele>
        <time>2012-10-07T08:43:39Z</time>
      </trkpt>
      <trkpt lat="45.77634" lon="4.85312">
        <ele>171</ele>
        <time>2012-10-07T08:43:47Z</time>
      </trkpt>
      <trkpt lat="45.7762" lon="4.85318">
        <ele>173</ele>
        <time>2012-10-07T08:43:53Z</time>
      </trkpt>
      <trkpt lat="45.77606" lon="4.85319">
        <ele>172</ele>
        <time>2012-10-07T08:44:02Z</time>
      </trkpt>
      <trkpt lat="45.77593" lon="4.85318">
        <ele>170</ele>
        <time>2012-10-07T08:44:09Z</time>
      </trkpt>
      <trkpt lat="45.77579" lon="4.85321">
        <ele>172</ele>
        <time>2012-10-07T08:44:15Z</time>
      </trkpt>
      <trkpt lat="45.77564" lon="4.85321">
        <ele>171</ele>
        <time>2012-10-07T08:44:23Z</time>
      </trkpt>
      <trkpt lat="45.77549" lon="4.85318">
        <ele>172</ele>
        <time>2012-10-07T08:44:32Z</time>
      </trkpt>
      <trkpt lat="45.77535" lon="4.85315">
        <ele>171</ele>
        <time>2012-10-07T08:44:40Z</time>
      </trkpt>
      <trkpt lat="45.7752" lon="4.85311">
        <ele>173</ele>
        <time>2012-10-07T08:44:47Z</time>
      </trkpt>
      <trkpt lat="45.77507" lon="4.85304">
        <ele>174</ele>
        <time>2012-10-07T08:44:53Z</time>
      </trkpt>
      <trkpt lat="45.77493" lon="4.85292">
        <ele>176</ele>
        <time>2012-10-07T08:45:01Z</time>
      </trkpt>
      <trkpt lat="45.77479" lon="4.85285">
        <ele>176</ele>
        <time>2012-10-07T08:45:08Z</time>
      </trkpt>
      <trkpt lat="45.77467" lon="4.85274">
        <ele>174</ele>
        <time>2012-10-07T08:45:16Z</time>
      </trkpt>
      <trkpt lat="45.77454" lon="4.85264">
        <ele>174</ele>
        <time>2012-10-07T08:45:25Z</time>
      </trkpt>
      <trkpt lat="45.77453" lon="4.85245">
        <ele>171</ele>
        <time>2012-10-07T08:45:33Z</time>
      </trkpt>
      <trkpt lat="45.77458" lon="4.85227">
        <ele>172</ele>
        <time>2012-10-07T08:45:40Z</time>
      </trkpt>
      <trkpt lat="45.77465" lon="4.85207">
        <ele>171</ele>
        <time>2012-10-07T08:45:47Z</time>
      </trkpt>
      <trkpt lat="45.77473" lon="4.8519">
        <ele>169</ele>
        <time>2012-10-07T08:45:53Z</time>
      </trkpt>
      <trkpt lat="45.77478" lon="4.85171">
        <ele>168</ele>
        <time>2012-10-07T08:46:01Z</time>
      </trkpt>
      <trkpt lat="45.77485" lon="4.85151">
        <ele>166</ele>
        <time>2012-10-07T08:46:07Z</time>
      </trkpt>
      <trkpt lat="45.77497" lon="4.85141">
        <ele>167</ele>
        <time>2012-10-07T08:46:13Z</time>
      </trkpt>
      <trkpt lat="45.77506" lon="4.85124">
        <ele>167</ele>
        <time>2012-10-07T08:46:23Z</time>
      </trkpt>
      <trkpt lat="45.77513" lon="4.85106">
        <ele>168</ele>
        <time>2012-10-07T08:46:31Z</time>
      </trkpt>
      <trkpt lat="45.77521" lon="4.8509">
        <ele>170</ele>
        <time>2012-10-07T08:46:39Z</time>
      </trkpt>
      <trkpt lat="45.77526" lon="4.8507">
        <ele>170</ele>
        <time>2012-10-07T08:46:48Z</time>
      </trkpt>
      <trkpt lat="45.77534" lon="4.85052">
        <ele>168</ele>
        <time>2012-10-07T08:46:56Z</time>
      </trkpt>
      <trkpt lat="45.77548" lon="4.85042">
        <ele>168</ele>
        <time>2012-10-07T08:47:03Z</time>
      </trkpt>
      <trkpt lat="45.77554" lon="4.85024">
        <ele>169</ele>
        <time>2012-10-07T08:47:11Z</time>
      </trkpt>
      <trkpt lat="45.77555" lon="4.85002">
        <ele>169</ele>
        <time>2012-10-07T08:47:19Z</time>
      </trkpt>
      <trkpt lat="45.77561" lon="4.84983">
        <ele>174</ele>
        <time>2012-10-07T08:47:26Z</time>
      </trkpt>
      <trkpt lat="45.77566" lon="4.84965">
        <ele>174</ele>
        <time>2012-10-07T08:47:33Z</time>
      </trkpt>
      <trkpt lat="45.77573" lon="4.84947">
        <ele>176</ele>
        <time>2012-10-07T08:47:40Z</time>
      </trkpt>
      <trkpt lat="45.77577" lon="4.84927">
        <ele>175</ele>
        <time>2012-10-07T08:47:48Z</time>
      </trkpt>
      <trkpt lat="45.77578" lon="4.84907">
        <ele>179</ele>
        <time>2012-10-07T08:47:56Z</time>
      </trkpt>
      <trkpt lat="45.77583" lon="4.84888">
        <ele>179</ele>
        <time>2012-10-07T08:48:03Z</time>
      </trkpt>
      <trkpt lat="45.77591" lon="4.8487">
        <ele>179</ele>
        <time>2012-10-07T08:48:09Z</time>
      </trkpt>
      <trkpt lat="45.77598" lon="4.84849">
        <ele>178</ele>
        <time>2012-10-07T08:48:15Z</time>
      </trkpt>
      <trkpt lat="45.77602" lon="4.84828">
        <ele>178</ele>
        <time>2012-10-07T08:48:21Z</time>
      </trkpt>
      <trkpt lat="45.77604" lon="4.84809">
        <ele>178</ele>
        <time>2012-10-07T08:48:28Z</time>
      </trkpt>
      <trkpt lat="45.77607" lon="4.84786">
        <ele>178</ele>
        <time>2012-10-07T08:48:35Z</time>
      </trkpt>
      <trkpt lat="45.77611" lon="4.84767">
        <ele>176</ele>
        <time>2012-10-07T08:48:42Z</time>
      </trkpt>
      <trkpt lat="45.77598" lon="4.84772">
        <ele>176</ele>
        <time>2012-10-07T08:49:00Z</time>
      </trkpt>
      <trkpt lat="45.77587" lon="4.84785">
        <ele>177</ele>
        <time>2012-10-07T08:49:04Z</time>
      </trkpt>
      <trkpt lat="45.77576" lon="4.848">
        <ele>176</ele>
        <time>2012-10-07T08:49:10Z</time>
      </trkpt>
      <trkpt lat="45.77566" lon="4.84817">
        <ele>175</ele>
        <time>2012-10-07T08:49:18Z</time>
      </trkpt>
      <trkpt lat="45.77555" lon="4.84833">
        <ele>173</ele>
        <time>2012-10-07T08:49:23Z</time>
      </trkpt>
      <trkpt lat="45.77542" lon="4.84844">
        <ele>174</ele>
        <time>2012-10-07T08:49:27Z</time>
      </trkpt>
      <trkpt lat="45.77533" lon="4.84861">
        <ele>173</ele>
        <time>2012-10-07T08:49:33Z</time>
      </trkpt>
      <trkpt lat="45.7753" lon="4.84881">
        <ele>171</ele>
        <time>2012-10-07T08:49:43Z</time>
      </trkpt>
      <trkpt lat="45.77528" lon="4.849">
        <ele>172</ele>
        <time>2012-10-07T08:49:53Z</time>
      </trkpt>
      <trkpt lat="45.77531" lon="4.8492">
        <ele>174</ele>
        <time>2012-10-07T08:50:00Z</time>
      </trkpt>
      <trkpt lat="45.77528" lon="4.84941">
        <ele>177</ele>
        <time>2012-10-07T08:50:06Z</time>
      </trkpt>
      <trkpt lat="45.77515" lon="4.84952">
        <ele>177</ele>
        <time>2012-10-07T08:50:15Z</time>
      </trkpt>
      <trkpt lat="45.77508" lon="4.84968">
        <ele>176</ele>
        <time>2012-10-07T08:50:24Z</time>
      </trkpt>
      <trkpt lat="45.775" lon="4.84984">
        <ele>176</ele>
        <time>2012-10-07T08:50:30Z</time>
      </trkpt>
      <trkpt lat="45.77492" lon="4.85">
        <ele>177</ele>
        <time>2012-10-07T08:50:35Z</time>
      </trkpt>
      <trkpt lat="45.77484" lon="4.85016">
        <ele>177</ele>
        <time>2012-10-07T08:50:42Z</time>
      </trkpt>
      <trkpt lat="45.77472" lon="4.8503">
        <ele>175</ele>
        <time>2012-10-07T08:50:48Z</time>
      </trkpt>
      <trkpt lat="45.7746" lon="4.85045">
        <ele>173</ele>
        <time>2012-10-07T08:50:54Z</time>
      </trkpt>
      <trkpt lat="45.77452" lon="4.85061">
        <ele>175</ele>
        <time>2012-10-07T08:51:01Z</time>
      </trkpt>
      <trkpt lat="45.77448" lon="4.85081">
        <ele>177</ele>
        <time>2012-10-07T08:51:08Z</time>
      </trkpt>
      <trkpt lat="45.77448" lon="4.851">
        <ele>175</ele>
        <time>2012-10-07T08:51:16Z</time>
      </trkpt>
      <trkpt lat="45.77437" lon="4.85115">
        <ele>176</ele>
        <time>2012-10-07T08:51:25Z</time>
      </trkpt>
      <trkpt lat="45.77428" lon="4.85131">
        <ele>175</ele>
        <time>2012-10-07T08:51:32Z</time>
      </trkpt>
      <trkpt lat="45.77417" lon="4.85143">
        <ele>172</ele>
        <time>2012-10-07T08:51:39Z</time>
      </trkpt>
      <trkpt lat="45.77405" lon="4.85156">
        <ele>169</ele>
        <time>2012-10-07T08:51:47Z</time>
      </trkpt>
      <trkpt lat="45.77392" lon="4.85161">
        <ele>170</ele>
        <time>2012-10-07T08:51:56Z</time>
      </trkpt>
      <trkpt lat="45.77378" lon="4.85164">
        <ele>168</ele>
        <time>2012-10-07T08:52:03Z</time>
      </trkpt>
      <trkpt lat="45.77366" lon="4.85177">
        <ele>170</ele>
        <time>2012-10-07T08:52:10Z</time>
      </trkpt>
      <trkpt lat="45.77363" lon="4.85196">
        <ele>172</ele>
        <time>2012-10-07T08:52:17Z</time>
      </trkpt>
      <trkpt lat="45.77357" lon="4.85213">
        <ele>174</ele>
        <time>2012-10-07T08:52:24Z</time>
      </trkpt>
      <trkpt lat="45.7735" lon="4.8523">
        <ele>173</ele>
        <time>2012-10-07T08:52:30Z</time>
      </trkpt>
      <trkpt lat="45.77347" lon="4.85251">
        <ele>173</ele>
        <time>2012-10-07T08:52:40Z</time>
      </trkpt>
      <trkpt lat="45.77348" lon="4.85272">
        <ele>171</ele>
        <time>2012-10-07T08:52:47Z</time>
      </trkpt>
      <trkpt lat="45.77345" lon="4.85293">
        <ele>169</ele>
        <time>2012-10-07T08:52:53Z</time>
      </trkpt>
      <trkpt lat="45.77343" lon="4.85315">
        <ele>168</ele>
        <time>2012-10-07T08:52:59Z</time>
      </trkpt>
      <trkpt lat="45.77345" lon="4.85338">
        <ele>173</ele>
        <time>2012-10-07T08:53:05Z</time>
      </trkpt>
      <trkpt lat="45.7734" lon="4.85358">
        <ele>173</ele>
        <time>2012-10-07T08:53:12Z</time>
      </trkpt>
      <trkpt lat="45.77344" lon="4.85378">
        <ele>173</ele>
        <time>2012-10-07T08:53:18Z</time>
      </trkpt>
      <trkpt lat="45.77351" lon="4.85396">
        <ele>173</ele>
        <time>2012-10-07T08:53:25Z</time>
      </trkpt>
      <trkpt lat="45.77363" lon="4.85407">
        <ele>172</ele>
        <time>2012-10-07T08:53:33Z</time>
      </trkpt>
      <trkpt lat="45.77369" lon="4.85428">
        <ele>169</ele>
        <time>2012-10-07T08:53:45Z</time>
      </trkpt>
      <trkpt lat="45.77377" lon="4.85445">
        <ele>167</ele>
        <time>2012-10-07T08:53:50Z</time>
      </trkpt>
      <trkpt lat="45.77389" lon="4.8546">
        <ele>169</ele>
        <time>2012-10-07T08:53:56Z</time>
      </trkpt>
      <trkpt lat="45.774" lon="4.85472">
        <ele>168</ele>
        <time>2012-10-07T08:54:02Z</time>
      </trkpt>
      <trkpt lat="45.7741" lon="4.85485">
        <ele>170</ele>
        <time>2012-10-07T08:54:08Z</time>
      </trkpt>
      <trkpt lat="45.77418" lon="4.85503">
        <ele>171</ele>
        <time>2012-10-07T08:54:16Z</time>
      </trkpt>
      <trkpt lat="45.77424" lon="4.85522">
        <ele>171</ele>
        <time>2012-10-07T08:54:29Z</time>
      </trkpt>
      <trkpt lat="45.77434" lon="4.85537">
        <ele>172</ele>
        <time>2012-10-07T08:54:37Z</time>
      </trkpt>
      <trkpt lat="45.77444" lon="4.85555">
        <ele>170</ele>
        <time>2012-10-07T08:54:43Z</time>
      </trkpt>
      <trkpt lat="45.77456" lon="4.85569">
        <ele>167</ele>
        <time>2012-10-07T08:54:49Z</time>
      </trkpt>
      <trkpt lat="45.7747" lon="4.85576">
        <ele>168</ele>
        <time>2012-10-07T08:54:56Z</time>
      </trkpt>
      <trkpt lat="45.77484" lon="4.85585">
        <ele>168</ele>
        <time>2012-10-07T08:55:03Z</time>
      </trkpt>
      <trkpt lat="45.77496" lon="4.85597">
        <ele>169</ele>
        <time>2012-10-07T08:55:11Z</time>
      </trkpt>
      <trkpt lat="45.77508" lon="4.85606">
        <ele>170</ele>
        <time>2012-10-07T08:55:17Z</time>
      </trkpt>
      <trkpt lat="45.77522" lon="4.85609">
        <ele>169</ele>
        <time>2012-10-07T08:55:25Z</time>
      </trkpt>
      <trkpt lat="45.77539" lon="4.85611">
        <ele>170</ele>
        <time>2012-10-07T08:55:37Z</time>
      </trkpt>
      <trkpt lat="45.77553" lon="4.8561">
        <ele>170</ele>
        <time>2012-10-07T08:55:44Z</time>
      </trkpt>
      <trkpt lat="45.77567" lon="4.85608">
        <ele>171</ele>
        <time>2012-10-07T08:55:50Z</time>
      </trkpt>
      <trkpt lat="45.77582" lon="4.85606">
        <ele>171</ele>
        <time>2012-10-07T08:55:58Z</time>
      </trkpt>
      <trkpt lat="45.77594" lon="4.85598">
        <ele>168</ele>
        <time>2012-10-07T08:56:13Z</time>
      </trkpt>
      <trkpt lat="45.77607" lon="4.85588">
        <ele>168</ele>
        <time>2012-10-07T08:56:19Z</time>
      </trkpt>
      <trkpt lat="45.77621" lon="4.85581">
        <ele>167</ele>
        <time>2012-10-07T08:56:24Z</time>
      </trkpt>
      <trkpt lat="45.77634" lon="4.85572">
        <ele>168</ele>
        <time>2012-10-07T08:56:32Z</time>
      </trkpt>
      <trkpt lat="45.77644" lon="4.8556">
        <ele>168</ele>
        <time>2012-10-07T08:56:44Z</time>
      </trkpt>
      <trkpt lat="45.77652" lon="4.85544">
        <ele>169</ele>
        <time>2012-10-07T08:56:49Z</time>
      </trkpt>
      <trkpt lat="45.77659" lon="4.85524">
        <ele>169</ele>
        <time>2012-10-07T08:56:55Z</time>
      </trkpt>
      <trkpt lat="45.77664" lon="4.85506">
        <ele>169</ele>
        <time>2012-10-07T08:57:03Z</time>
      </trkpt>
      <trkpt lat="45.77669" lon="4.85487">
        <ele>168</ele>
        <time>2012-10-07T08:57:09Z</time>
      </trkpt>
      <trkpt lat="45.77674" lon="4.85469">
        <ele>168</ele>
        <time>2012-10-07T08:57:14Z</time>
      </trkpt>
      <trkpt lat="45.77679" lon="4.8545">
        <ele>170</ele>
        <time>2012-10-07T08:57:22Z</time>
      </trkpt>
      <trkpt lat="45.77681" lon="4.8543">
        <ele>168</ele>
        <time>2012-10-07T08:57:30Z</time>
      </trkpt>
      <trkpt lat="45.77682" lon="4.8541">
        <ele>167</ele>
        <time>2012-10-07T08:57:37Z</time>
      </trkpt>
      <trkpt lat="45.77683" lon="4.8539">
        <ele>168</ele>
        <time>2012-10-07T08:57:45Z</time>
      </trkpt>
      <trkpt lat="45.77692" lon="4.85374">
        <ele>169</ele>
        <time>2012-10-07T08:57:52Z</time>
      </trkpt>
      <trkpt lat="45.777" lon="4.85356">
        <ele>169</ele>
        <time>2012-10-07T08:57:59Z</time>
      </trkpt>
      <trkpt lat="45.77707" lon="4.85337">
        <ele>170</ele>
        <time>2012-10-07T08:58:06Z</time>
      </trkpt>
      <trkpt lat="45.77711" lon="4.85317">
        <ele>170</ele>
        <time>2012-10-07T08:58:17Z</time>
      </trkpt>
      <trkpt lat="45.77717" lon="4.85299">
        <ele>172</ele>
        <time>2012-10-07T08:58:25Z</time>
      </trkpt>
      <trkpt lat="45.77728" lon="4.85287">
        <ele>170</ele>
        <time>2012-10-07T08:58:32Z</time>
      </trkpt>
      <trkpt lat="45.77736" lon="4.85271">
        <ele>173</ele>
        <time>2012-10-07T08:58:42Z</time>
      </trkpt>
      <trkpt lat="45.7775" lon="4.8527">
        <ele>171</ele>
        <time>2012-10-07T08:58:52Z</time>
      </trkpt>
      <trkpt lat="45.77752" lon="4.85289">
        <ele>168</ele>
        <time>2012-10-07T08:58:59Z</time>
      </trkpt>
      <trkpt lat="45.77752" lon="4.85311">
        <ele>168</ele>
        <time>2012-10-07T08:59:08Z</time>
      </trkpt>
      <trkpt lat="45.77756" lon="4.8533">
        <ele>167</ele>
        <time>2012-10-07T08:59:16Z</time>
      </trkpt>
      <trkpt lat="45.77759" lon="4.85352">
        <ele>167</ele>
        <time>2012-10-07T08:59:24Z</time>
      </trkpt>
      <trkpt lat="45.7776" lon="4.85373">
        <ele>168</ele>
        <time>2012-10-07T08:59:31Z</time>
      </trkpt>
      <trkpt lat="45.77764" lon="4.85392">
        <ele>166</ele>
        <time>2012-10-07T08:59:39Z</time>
      </trkpt>
      <trkpt lat="45.77769" lon="4.85411">
        <ele>166</ele>
        <time>2012-10-07T08:59:50Z</time>
      </trkpt>
      <trkpt lat="45.77767" lon="4.85433">
        <ele>166</ele>
        <time>2012-10-07T08:59:57Z</time>
      </trkpt>
      <trkpt lat="45.77767" lon="4.85455">
        <ele>167</ele>
        <time>2012-10-07T09:00:04Z</time>
      </trkpt>
      <trkpt lat="45.77773" lon="4.85474">
        <ele>165</ele>
        <time>2012-10-07T09:00:11Z</time>
      </trkpt>
      <trkpt lat="45.77784" lon="4.85484">
        <ele>166</ele>
        <time>2012-10-07T09:00:19Z</time>
      </trkpt>
      <trkpt lat="45.7779" lon="4.85502">
        <ele>167</ele>
        <time>2012-10-07T09:00:26Z</time>
      </trkpt>
      <trkpt lat="45.77794" lon="4.85523">
        <ele>166</ele>
        <time>2012-10-07T09:00:34Z</time>
      </trkpt>
      <trkpt lat="45.77797" lon="4.85543">
        <ele>163</ele>
        <time>2012-10-07T09:00:42Z</time>
      </trkpt>
      <trkpt lat="45.77802" lon="4.85564">
        <ele>164</ele>
        <time>2012-10-07T09:00:50Z</time>
      </trkpt>
      <trkpt lat="45.77807" lon="4.85586">
        <ele>165</ele>
        <time>2012-10-07T09:00:57Z</time>
      </trkpt>
      <trkpt lat="45.77813" lon="4.85606">
        <ele>163</ele>
        <time>2012-10-07T09:01:03Z</time>
      </trkpt>
      <trkpt lat="45.77822" lon="4.85623">
        <ele>162</ele>
        <time>2012-10-07T09:01:09Z</time>
      </trkpt>
      <trkpt lat="45.77826" lon="4.85644">
        <ele>160</ele>
        <time>2012-10-07T09:01:26Z</time>
      </trkpt>
      <trkpt lat="45.77836" lon="4.85657">
        <ele>163</ele>
        <time>2012-10-07T09:01:31Z</time>
      </trkpt>
      <trkpt lat="45.77843" lon="4.85675">
        <ele>168</ele>
        <time>2012-10-07T09:01:36Z</time>
      </trkpt>
      <trkpt lat="45.77847" lon="4.85694">
        <ele>171</ele>
        <time>2012-10-07T09:01:41Z</time>
      </trkpt>
      <trkpt lat="45.7785" lon="4.85713">
        <ele>168</ele>
        <time>2012-10-07T09:01:47Z</time>
      </trkpt>
      <trkpt lat="45.77854" lon="4.85734">
        <ele>168</ele>
        <time>2012-10-07T09:01:55Z</time>
      </trkpt>
      <trkpt lat="45.77862" lon="4.85749">
        <ele>168</ele>
        <time>2012-10-07T09:02:02Z</time>
      </trkpt>
      <trkpt lat="45.77869" lon="4.85768">
        <ele>169</ele>
        <time>2012-10-07T09:02:08Z</time>
      </trkpt>
      <trkpt lat="45.77874" lon="4.85787">
        <ele>171</ele>
        <time>2012-10-07T09:02:16Z</time>
      </trkpt>
      <trkpt lat="45.77878" lon="4.85806">
        <ele>172</ele>
        <time>2012-10-07T09:02:23Z</time>
      </trkpt>
      <trkpt lat="45.77879" lon="4.85826">
        <ele>172</ele>
        <time>2012-10-07T09:02:29Z</time>
      </trkpt>
      <trkpt lat="45.77882" lon="4.85845">
        <ele>172</ele>
        <time>2012-10-07T09:02:36Z</time>
      </trkpt>
      <trkpt lat="45.77868" lon="4.85851">
        <ele>177</ele>
        <time>2012-10-07T09:02:51Z</time>
      </trkpt>
      <trkpt lat="45.77855" lon="4.85843">
        <ele>176</ele>
        <time>2012-10-07T09:03:01Z</time>
      </trkpt>
      <trkpt lat="45.77842" lon="4.8584">
        <ele>175</ele>
        <time>2012-10-07T09:03:09Z</time>
      </trkpt>
      <trkpt lat="45.77827" lon="4.85837">
        <ele>173</ele>
        <time>2012-10-07T09:03:16Z</time>
      </trkpt>
      <trkpt lat="45.77814" lon="4.85835">
        <ele>172</ele>
        <time>2012-10-07T09:03:22Z</time>
      </trkpt>
      <trkpt lat="45.77799" lon="4.85835">
        <ele>173</ele>
        <time>2012-10-07T09:03:29Z</time>
      </trkpt>
      <trkpt lat="45.77784" lon="4.85835">
        <ele>171</ele>
        <time>2012-10-07T09:03:35Z</time>
      </trkpt>
      <trkpt lat="45.77769" lon="4.85828">
        <ele>171</ele>
        <time>2012-10-07T09:03:43Z</time>
      </trkpt>
      <trkpt lat="45.77755" lon="4.85825">
        <ele>171</ele>
        <time>2012-10-07T09:03:50Z</time>
      </trkpt>
      <trkpt lat="45.77741" lon="4.85821">
        <ele>174</ele>
        <time>2012-10-07T09:03:57Z</time>
      </trkpt>
      <trkpt lat="45.77726" lon="4.85821">
        <ele>176</ele>
        <time>2012-10-07T09:04:03Z</time>
      </trkpt>
      <trkpt lat="45.77712" lon="4.85822">
        <ele>174</ele>
        <time>2012-10-07T09:04:11Z</time>
      </trkpt>
      <trkpt lat="45.77697" lon="4.85818">
        <ele>172</ele>
        <time>2012-10-07T09:04:19Z</time>
      </trkpt>
      <trkpt lat="45.77683" lon="4.85818">
        <ele>171</ele>
        <time>2012-10-07T09:04:26Z</time>
      </trkpt>
      <trkpt lat="45.7767" lon="4.85818">
        <ele>171</ele>
        <time>2012-10-07T09:04:36Z</time>
      </trkpt>
      <trkpt lat="45.77655" lon="4.8582">
        <ele>170</ele>
        <time>2012-10-07T09:04:44Z</time>
      </trkpt>
      <trkpt lat="45.7764" lon="4.85819">
        <ele>172</ele>
        <time>2012-10-07T09:04:52Z</time>
      </trkpt>
      <trkpt lat="45.77625" lon="4.85817">
        <ele>172</ele>
        <time>2012-10-07T09:04:58Z</time>
      </trkpt>
      <trkpt lat="45.7761" lon="4.85816">
        <ele>172</ele>
        <time>2012-10-07T09:05:05Z</time>
      </trkpt>
      <trkpt lat="45.77596" lon="4.85814">
        <ele>172</ele>
        <time>2012-10-07T09:05:13Z</time>
      </trkpt>
      <trkpt lat="45.77581" lon="4.85819">
        <ele>174</ele>
        <time>2012-10-07T09:05:21Z</time>
      </trkpt>
      <trkpt lat="45.77567" lon="4.85819">
        <ele>175</ele>
        <time>2012-10-07T09:05:28Z</time>
      </trkpt>
      <trkpt lat="45.77553" lon="4.85818">
        <ele>174</ele>
        <time>2012-10-07T09:05:36Z</time>
      </trkpt>
      <trkpt lat="45.77538" lon="4.85816">
        <ele>174</ele>
        <time>2012-10-07T09:05:45Z</time>
      </trkpt>
      <trkpt lat="45.77524" lon="4.85816">
        <ele>175</ele>
        <time>2012-10-07T09:05:51Z</time>
      </trkpt>
      <trkpt lat="45.7751" lon="4.85812">
        <ele>175</ele>
        <time>2012-10-07T09:06:01Z</time>
      </trkpt>
      <trkpt lat="45.77495" lon="4.85808">
        <ele>174</ele>
        <time>2012-10-07T09:06:11Z</time>
      </trkpt>
      <trkpt lat="45.77482" lon="4.85801">
        <ele>174</ele>
        <time>2012-10-07T09:06:20Z</time>
      </trkpt>
      <trkpt lat="45.77468" lon="4.85797">
        <ele>176</ele>
        <time>2012-10-07T09:06:29Z</time>
      </trkpt>
      <trkpt lat="45.77453" lon="4.85793">
        <ele>175</ele>
        <time>2012-10-07T09:06:35Z</time>
      </trkpt>
      <trkpt lat="45.77437" lon="4.85786">
        <ele>175</ele>
        <time>2012-10-07T09:06:42Z</time>
      </trkpt>
      <trkpt lat="45.77424" lon="4.85774">
        <ele>174</ele>
        <time>2012-10-07T09:06:48Z</time>
      </trkpt>
      <trkpt lat="45.77418" lon="4.85754">
        <ele>171</ele>
        <time>2012-10-07T09:06:56Z</time>
      </trkpt>
      <trkpt lat="45.77415" lon="4.85733">
        <ele>170</ele>
        <time>2012-10-07T09:07:02Z</time>
      </trkpt>
      <trkpt lat="45.77413" lon="4.85711">
        <ele>172</ele>
        <time>2012-10-07T09:07:09Z</time>
      </trkpt>
      <trkpt lat="45.77414" lon="4.8569">
        <ele>170</ele>
        <time>2012-10-07T09:07:16Z</time>
      </trkpt>
      <trkpt lat="45.77409" lon="4.8567">
        <ele>170</ele>
        <time>2012-10-07T09:07:23Z</time>
      </trkpt>
      <trkpt lat="45.77403" lon="4.85652">
        <ele>169</ele>
        <time>2012-10-07T09:07:30Z</time>
      </trkpt>
      <trkpt lat="45.77395" lon="4.85636">
        <ele>166</ele>
        <time>2012-10-07T09:07:36Z</time>
      </trkpt>
      <trkpt lat="45.77382" lon="4.85628">
        <ele>168</ele>
        <time>2012-10-07T09:07:42Z</time>
      </trkpt>
      <trkpt lat="45.77368" lon="4.85638">
        <ele>168</ele>
        <time>2012-10-07T09:07:48Z</time>
      </trkpt>
      <trkpt lat="45.77353" lon="4.85639">
        <ele>169</ele>
        <time>2012-10-07T09:07:55Z</time>
      </trkpt>
      <trkpt lat="45.77339" lon="4.85639">
        <ele>167</ele>
        <time>2012-10-07T09:08:04Z</time>
      </trkpt>
      <trkpt lat="45.77325" lon="4.85645">
        <ele>169</ele>
        <time>2012-10-07T09:08:11Z</time>
      </trkpt>
      <trkpt lat="45.77312" lon="4.85648">
        <ele>167</ele>
        <time>2012-10-07T09:08:17Z</time>
      </trkpt>
      <trkpt lat="45.77298" lon="4.85652">
        <ele>172</ele>
        <time>2012-10-07T09:08:24Z</time>
      </trkpt>
      <trkpt lat="45.77284" lon="4.85653">
        <ele>170</ele>
        <time>2012-10-07T09:08:34Z</time>
      </trkpt>
      <trkpt lat="45.77274" lon="4.85637">
        <ele>172</ele>
        <time>2012-10-07T09:08:45Z</time>
      </trkpt>
      <trkpt lat="45.77269" lon="4.85619">
        <ele>171</ele>
        <time>2012-10-07T09:08:53Z</time>
      </trkpt>
      <trkpt lat="45.77267" lon="4.85598">
        <ele>171</ele>
        <time>2012-10-07T09:09:01Z</time>
      </trkpt>
      <trkpt lat="45.77261" lon="4.8558">
        <ele>171</ele>
        <time>2012-10-07T09:09:10Z</time>
      </trkpt>
      <trkpt lat="45.77256" lon="4.8556">
        <ele>168</ele>
        <time>2012-10-07T09:09:15Z</time>
      </trkpt>
      <trkpt lat="45.77249" lon="4.85541">
        <ele>168</ele>
        <time>2012-10-07T09:09:21Z</time>
      </trkpt>
      <trkpt lat="45.7725" lon="4.85521">
        <ele>170</ele>
        <time>2012-10-07T09:09:30Z</time>
      </trkpt>
      <trkpt lat="45.7725" lon="4.855">
        <ele>170</ele>
        <time>2012-10-07T09:09:38Z</time>
      </trkpt>
      <trkpt lat="45.77248" lon="4.85481">
        <ele>172</ele>
        <time>2012-10-07T09:09:45Z</time>
      </trkpt>
      <trkpt lat="45.77244" lon="4.8546">
        <ele>173</ele>
        <time>2012-10-07T09:09:52Z</time>
      </trkpt>
      <trkpt lat="45.77241" lon="4.85437">
        <ele>174</ele>
        <time>2012-10-07T09:09:59Z</time>
      </trkpt>
      <trkpt lat="45.7724" lon="4.85416">
        <ele>175</ele>
        <time>2012-10-07T09:10:06Z</time>
      </trkpt>
      <trkpt lat="45.77236" lon="4.85397">
        <ele>172</ele>
        <time>2012-10-07T09:10:12Z</time>
      </trkpt>
      <trkpt lat="45.77242" lon="4.85378">
        <ele>177</ele>
        <time>2012-10-07T09:10:21Z</time>
      </trkpt>
      <trkpt lat="45.77249" lon="4.8536">
        <ele>177</ele>
        <time>2012-10-07T09:10:29Z</time>
      </trkpt>
      <trkpt lat="45.77256" lon="4.85342">
        <ele>176</ele>
        <time>2012-10-07T09:10:36Z</time>
      </trkpt>
      <trkpt lat="45.77265" lon="4.85325">
        <ele>176</ele>
        <time>2012-10-07T09:10:44Z</time>
      </trkpt>
      <trkpt lat="45.77271" lon="4.85306">
        <ele>177</ele>
        <time>2012-10-07T09:10:53Z</time>
      </trkpt>
      <trkpt lat="45.7728" lon="4.85292">
        <ele>178</ele>
        <time>2012-10-07T09:11:00Z</time>
      </trkpt>
      <trkpt lat="45.77291" lon="4.85276">
        <ele>179</ele>
        <time>2012-10-07T09:11:09Z</time>
      </trkpt>
      <trkpt lat="45.77291" lon="4.85254">
        <ele>176</ele>
        <time>2012-10-07T09:11:16Z</time>
      </trkpt>
      <trkpt lat="45.77295" lon="4.85235">
        <ele>175</ele>
        <time>2012-10-07T09:11:22Z</time>
      </trkpt>
      <trkpt lat="45.77304" lon="4.85219">
        <ele>173</ele>
        <time>2012-10-07T09:11:27Z</time>
      </trkpt>
      <trkpt lat="45.77312" lon="4.85203">
        <ele>173</ele>
        <time>2012-10-07T09:11:32Z</time>
      </trkpt>
      <trkpt lat="45.77317" lon="4.85184">
        <ele>175</ele>
        <time>2012-10-07T09:11:41Z</time>
      </trkpt>
      <trkpt lat="45.77323" lon="4.85166">
        <ele>173</ele>
        <time>2012-10-07T09:11:49Z</time>
      </trkpt>
      <trkpt lat="45.77331" lon="4.8515">
        <ele>173</ele>
        <time>2012-10-07T09:11:56Z</time>
      </trkpt>
      <trkpt lat="45.77334" lon="4.8513">
        <ele>172</ele>
        <time>2012-10-07T09:12:05Z</time>
      </trkpt>
      <trkpt lat="45.77345" lon="4.85114">
        <ele>171</ele>
        <time>2012-10-07T09:12:12Z</time>
      </trkpt>
      <trkpt lat="45.77355" lon="4.85101">
        <ele>172</ele>
        <time>2012-10-07T09:12:20Z</time>
      </trkpt>
      <trkpt lat="45.77359" lon="4.85081">
        <ele>172</ele>
        <time>2012-10-07T09:12:28Z</time>
      </trkpt>
      <trkpt lat="45.77366" lon="4.85063">
        <ele>172</ele>
        <time>2012-10-07T09:12:35Z</time>
      </trkpt>
      <trkpt lat="45.77374" lon="4.85045">
        <ele>173</ele>
        <time>2012-10-07T09:12:42Z</time>
      </trkpt>
      <trkpt lat="45.77383" lon="4.85028">
        <ele>175</ele>
        <time>2012-10-07T09:12:49Z</time>
      </trkpt>
      <trkpt lat="45.77392" lon="4.85014">
        <ele>174</ele>
        <time>2012-10-07T09:12:55Z</time>
      </trkpt>
      <trkpt lat="45.774" lon="4.84996">
        <ele>173</ele>
        <time>2012-10-07T09:13:02Z</time>
      </trkpt>
      <trkpt lat="45.77407" lon="4.84978">
        <ele>172</ele>
        <time>2012-10-07T09:13:09Z</time>
      </trkpt>
      <trkpt lat="45.77415" lon="4.84962">
        <ele>168</ele>
        <time>2012-10-07T09:13:19Z</time>
      </trkpt>
      <trkpt lat="45.77423" lon="4.84941">
        <ele>167</ele>
        <time>2012-10-07T09:13:26Z</time>
      </trkpt>
      <trkpt lat="45.77428" lon="4.84922">
        <ele>167</ele>
        <time>2012-10-07T09:13:30Z</time>
      </trkpt>
      <trkpt lat="45.77432" lon="4.84903">
        <ele>167</ele>
        <time>2012-10-07T09:13:35Z</time>
      </trkpt>
      <trkpt lat="45.77441" lon="4.84887">
        <ele>170</ele>
        <time>2012-10-07T09:13:42Z</time>
      </trkpt>
      <trkpt lat="45.77455" lon="4.8488">
        <ele>169</ele>
        <time>2012-10-07T09:13:49Z</time>
      </trkpt>
      <trkpt lat="45.77465" lon="4.84864">
        <ele>168</ele>
        <time>2012-10-07T09:13:57Z</time>
      </trkpt>
      <trkpt lat="45.77471" lon="4.84844">
        <ele>167</ele>
        <time>2012-10-07T09:14:05Z</time>
      </trkpt>
      <trkpt lat="45.77478" lon="4.84826">
        <ele>170</ele>
        <time>2012-10-07T09:14:13Z</time>
      </trkpt>
      <trkpt lat="45.77488" lon="4.8481">
        <ele>169</ele>
        <time>2012-10-07T09:14:23Z</time>
      </trkpt>
      <trkpt lat="45.77497" lon="4.84796">
        <ele>169</ele>
        <time>2012-10-07T09:14:29Z</time>
      </trkpt>
      <trkpt lat="45.77502" lon="4.84774">
        <ele>172</ele>
        <time>2012-10-07T09:14:37Z</time>
      </trkpt>
      <trkpt lat="45.7751" lon="4.84755">
        <ele>174</ele>
        <time>2012-10-07T09:14:43Z</time>
      </trkpt>
      <trkpt lat="45.77518" lon="4.8474">
        <ele>174</ele>
        <time>2012-10-07T09:14:50Z</time>
      </trkpt>
      <trkpt lat="45.77526" lon="4.84724">
        <ele>175</ele>
        <time>2012-10-07T09:14:58Z</time>
      </trkpt>
      <trkpt lat="45.77532" lon="4.84706">
        <ele>177</ele>
        <time>2012-10-07T09:15:10Z</time>
      </trkpt>
      <trkpt lat="45.77544" lon="4.84695">
        <ele>173</ele>
        <time>2012-10-07T09:15:16Z</time>
      </trkpt>
      <trkpt lat="45.7755" lon="4.84676">
        <ele>172</ele>
        <time>2012-10-07T09:15:23Z</time>
      </trkpt>
      <trkpt lat="45.77554" lon="4.84657">
        <ele>170</ele>
        <time>2012-10-07T09:15:32Z</time>
      </trkpt>
      <trkpt lat="45.77562" lon="4.84638">
        <ele>174</ele>
        <time>2012-10-07T09:15:40Z</time>
      </trkpt>
      <trkpt lat="45.77575" lon="4.84624">
        <ele>179</ele>
        <time>2012-10-07T09:15:46Z</time>
      </trkpt>
      <trkpt lat="45.77584" lon="4.8461">
        <ele>179</ele>
        <time>2012-10-07T09:15:53Z</time>
      </trkpt>
      <trkpt lat="45.77594" lon="4.84595">
        <ele>177</ele>
        <time>2012-10-07T09:16:00Z</time>
      </trkpt>
      <trkpt lat="45.77601" lon="4.84576">
        <ele>176</ele>
        <time>2012-10-07T09:16:06Z</time>
      </trkpt>
      <trkpt lat="45.77606" lon="4.84555">
        <ele>174</ele>
        <time>2012-10-07T09:16:12Z</time>
      </trkpt>
      <trkpt lat="45.77605" lon="4.84535">
        <ele>174</ele>
        <time>2012-10-07T09:16:20Z</time>
      </trkpt>
      <trkpt lat="45.77613" lon="4.84518">
        <ele>174</ele>
        <time>2012-10-07T09:16:28Z</time>
      </trkpt>
      <trkpt lat="45.77628" lon="4.84515">
        <ele>175</ele>
        <time>2012-10-07T09:16:33Z</time>
      </trkpt>
      <trkpt lat="45.77642" lon="4.84508">
        <ele>180</ele>
        <time>2012-10-07T09:16:44Z</time>
      </trkpt>
      <trkpt lat="45.77647" lon="4.84486">
        <ele>184</ele>
        <time>2012-10-07T09:16:58Z</time>
      </trkpt>
      <trkpt lat="45.77656" lon="4.84468">
        <ele>185</ele>
        <time>2012-10-07T09:17:03Z</time>
      </trkpt>
      <trkpt lat="45.77663" lon="4.84448">
        <ele>181</ele>
        <time>2012-10-07T09:17:09Z</time>
      </trkpt>
      <trkpt lat="45.77669" lon="4.84428">
        <ele>179</ele>
        <time>2012-10-07T09:17:15Z</time>
      </trkpt>
      <trkpt lat="45.77683" lon="4.84427">
        <ele>178</ele>
        <time>2012-10-07T09:17:23Z</time>
      </trkpt>
      <trkpt lat="45.77694" lon="4.84439">
        <ele>177</ele>
        <time>2012-10-07T09:17:31Z</time>
      </trkpt>
      <trkpt lat="45.77706" lon="4.84449">
        <ele>176</ele>
        <time>2012-10-07T09:17:37Z</time>
      </trkpt>
      <trkpt lat="45.77721" lon="4.84453">
        <ele>176</ele>
        <time>2012-10-07T09:17:44Z</time>
      </trkpt>
      <trkpt lat="45.77735" lon="4.84459">
        <ele>175</ele>
        <time>2012-10-07T09:17:51Z</time>
      </trkpt>
      <trkpt lat="45.77747" lon="4.84469">
        <ele>176</ele>
        <time>2012-10-07T09:18:00Z</time>
      </trkpt>
      <trkpt lat="45.77761" lon="4.84475">
        <ele>176</ele>
        <time>2012-10-07T09:18:05Z</time>
      </trkpt>
      <trkpt lat="45.77774" lon="4.84473">
        <ele>175</ele>
        <time>2012-10-07T09:18:11Z</time>
      </trkpt>
      <trkpt lat="45.77789" lon="4.84474">
        <ele>177</ele>
        <time>2012-10-07T09:18:17Z</time>
      </trkpt>
      <trkpt lat="45.77802" lon="4.84469">
        <ele>179</ele>
        <time>2012-10-07T09:18:27Z</time>
      </trkpt>
      <trkpt lat="45.77816" lon="4.84478">
        <ele>179</ele>
        <time>2012-10-07T09:18:36Z</time>
      </trkpt>
      <trkpt lat="45.7783" lon="4.84481">
        <ele>182</ele>
        <time>2012-10-07T09:18:45Z</time>
      </trkpt>
      <trkpt lat="45.77844" lon="4.84485">
        <ele>183</ele>
        <time>2012-10-07T09:18:54Z</time>
      </trkpt>
      <trkpt lat="45.77857" lon="4.84497">
        <ele>176</ele>
        <time>2012-10-07T09:19:02Z</time>
      </trkpt>
      <trkpt lat="45.77869" lon="4.84515">
        <ele>173</ele>
        <time>2012-10-07T09:19:09Z</time>
      </trkpt>
      <trkpt lat="45.77883" lon="4.84523">
        <ele>175</ele>
        <time>2012-10-07T09:19:19Z</time>
      </trkpt>
      <trkpt lat="45.77896" lon="4.84533">
        <ele>174</ele>
        <time>2012-10-07T09:19:26Z</time>
      </trkpt>
      <trkpt lat="45.77909" lon="4.84544">
        <ele>175</ele>
        <time>2012-10-07T09:19:34Z</time>
      </trkpt>
      <trkpt lat="45.77921" lon="4.84552">
        <ele>177</ele>
        <time>2012-10-07T09:19:41Z</time>
      </trkpt>
      <trkpt lat="45.77934" lon="4.84561">
        <ele>178</ele>
        <time>2012-10-07T09:19:47Z</time>
      </trkpt>
      <trkpt lat="45.77948" lon="4.84569">
        <ele>175</ele>
        <time>2012-10-07T09:19:53Z</time>
      </trkpt>
      <trkpt lat="45.77961" lon="4.84576">
        <ele>172</ele>
        <time>2012-10-07T09:19:59Z</time>
      </trkpt>
      <trkpt lat="45.77973" lon="4.84587">
        <ele>172</ele>
        <time>2012-10-07T09:20:06Z</time>
      </trkpt>
      <trkpt lat="45.77987" lon="4.84591">
        <ele>173</ele>
        <time>2012-10-07T09:20:14Z</time>
      </trkpt>
      <trkpt lat="45.78001" lon="4.84594">
        <ele>173</ele>
        <time>2012-10-07T09:20:22Z</time>
      </trkpt>
      <trkpt lat="45.78016" lon="4.84599">
        <ele>173</ele>
        <time>2012-10-07T09:20:31Z</time>
      </trkpt>
      <trkpt lat="45.78029" lon="4.84603">
        <ele>173</ele>
        <time>2012-10-07T09:20:39Z</time>
      </trkpt>
      <trkpt lat="45.78042" lon="4.84613">
        <ele>171</ele>
        <time>2012-10-07T09:20:47Z</time>
      </trkpt>
      <trkpt lat="45.78055" lon="4.84624">
        <ele>170</ele>
        <time>2012-10-07T09:20:54Z</time>
      </trkpt>
      <trkpt lat="45.78066" lon="4.84638">
        <ele>170</ele>
        <time>2012-10-07T09:21:01Z</time>
      </trkpt>
      <trkpt lat="45.78079" lon="4.84649">
        <ele>170</ele>
        <time>2012-10-07T09:21:07Z</time>
      </trkpt>
      <trkpt lat="45.78092" lon="4.84645">
        <ele>168</ele>
        <time>2012-10-07T09:21:14Z</time>
      </trkpt>
      <trkpt lat="45.78106" lon="4.84645">
        <ele>166</ele>
        <time>2012-10-07T09:21:22Z</time>
      </trkpt>
      <trkpt lat="45.78121" lon="4.84646">
        <ele>165</ele>
        <time>2012-10-07T09:21:30Z</time>
      </trkpt>
      <trkpt lat="45.78133" lon="4.84659">
        <ele>165</ele>
        <time>2012-10-07T09:21:38Z</time>
      </trkpt>
      <trkpt lat="45.78124" lon="4.84644">
        <ele>167</ele>
        <time>2012-10-07T09:21:53Z</time>
      </trkpt>
      <trkpt lat="45.78109" lon="4.84637">
        <ele>167</ele>
        <time>2012-10-07T09:22:00Z</time>
      </trkpt>
      <trkpt lat="45.78096" lon="4.84629">
        <ele>168</ele>
        <time>2012-10-07T09:22:08Z</time>
      </trkpt>
      <trkpt lat="45.78083" lon="4.84621">
        <ele>169</ele>
        <time>2012-10-07T09:22:15Z</time>
      </trkpt>
      <trkpt lat="45.7807" lon="4.84613">
        <ele>169</ele>
        <time>2012-10-07T09:22:24Z</time>
      </trkpt>
      <trkpt lat="45.78056" lon="4.8461">
        <ele>169</ele>
        <time>2012-10-07T09:22:31Z</time>
      </trkpt>
      <trkpt lat="45.78042" lon="4.84603">
        <ele>169</ele>
        <time>2012-10-07T09:22:39Z</time>
      </trkpt>
      <trkpt lat="45.7803" lon="4.84591">
        <ele>169</ele>
        <time>2012-10-07T09:22:46Z</time>
      </trkpt>
      <trkpt lat="45.78017" lon="4.84584">
        <ele>169</ele>
        <time>2012-10-07T09:22:54Z</time>
      </trkpt>
      <trkpt lat="45.78004" lon="4.84575">
        <ele>169</ele>
        <time>2012-10-07T09:23:03Z</time>
      </trkpt>
      <trkpt lat="45.77993" lon="4.84562">
        <ele>169</ele>
        <time>2012-10-07T09:23:10Z</time>
      </trkpt>
      <trkpt lat="45.77981" lon="4.84552">
        <ele>168</ele>
        <time>2012-10-07T09:23:18Z</time>
      </trkpt>
      <trkpt lat="45.77967" lon="4.84542">
        <ele>166</ele>
        <time>2012-10-07T09:23:26Z</time>
      </trkpt>
      <trkpt lat="45.77954" lon="4.84534">
        <ele>168</ele>
        <time>2012-10-07T09:23:33Z</time>
      </trkpt>
      <trkpt lat="45.77941" lon="4.84525">
        <ele>168</ele>
        <time>2012-10-07T09:23:40Z</time>
      </trkpt>
      <trkpt lat="45.77928" lon="4.84517">
        <ele>168</ele>
        <time>2012-10-07T09:23:47Z</time>
      </trkpt>
      <trkpt lat="45.77916" lon="4.84504">
        <ele>167</ele>
        <time>2012-10-07T09:23:55Z</time>
      </trkpt>
      <trkpt lat="45.77906" lon="4.8449">
        <ele>167</ele>
        <time>2012-10-07T09:24:02Z</time>
      </trkpt>
      <trkpt lat="45.77894" lon="4.8448">
        <ele>169</ele>
        <time>2012-10-07T09:24:11Z</time>
      </trkpt>
      <trkpt lat="45.77881" lon="4.84471">
        <ele>169</ele>
        <time>2012-10-07T09:24:18Z</time>
      </trkpt>
      <trkpt lat="45.77869" lon="4.8446">
        <ele>170</ele>
        <time>2012-10-07T09:24:25Z</time>
      </trkpt>
      <trkpt lat="45.77856" lon="4.84453">
        <ele>169</ele>
        <time>2012-10-07T09:24:32Z</time>
      </trkpt>
      <trkpt lat="45.77843" lon="4.84445">
        <ele>168</ele>
        <time>2012-10-07T09:24:40Z</time>
      </trkpt>
      <trkpt lat="45.77828" lon="4.8444">
        <ele>167</ele>
        <time>2012-10-07T09:24:47Z</time>
      </trkpt>
      <trkpt lat="45.77813" lon="4.84435">
        <ele>168</ele>
        <time>2012-10-07T09:24:54Z</time>
      </trkpt>
      <trkpt lat="45.77799" lon="4.84429">
        <ele>168</ele>
        <time>2012-10-07T09:25:01Z</time>
      </trkpt>
      <trkpt lat="45.77785" lon="4.84424">
        <ele>167</ele>
        <time>2012-10-07T09:25:08Z</time>
      </trkpt>
      <trkpt lat="45.77772" lon="4.84406">
        <ele>169</ele>
        <time>2012-10-07T09:25:18Z</time>
      </trkpt>
      <trkpt lat="45.77757" lon="4.84399">
        <ele>171</ele>
        <time>2012-10-07T09:25:25Z</time>
      </trkpt>
      <trkpt lat="45.77742" lon="4.84395">
        <ele>173</ele>
        <time>2012-10-07T09:25:32Z</time>
      </trkpt>
      <trkpt lat="45.77728" lon="4.8439">
        <ele>176</ele>
        <time>2012-10-07T09:25:40Z</time>
      </trkpt>
      <trkpt lat="45.77714" lon="4.84386">
        <ele>179</ele>
        <time>2012-10-07T09:25:49Z</time>
      </trkpt>
      <trkpt lat="45.77703" lon="4.84371">
        <ele>180</ele>
        <time>2012-10-07T09:26:03Z</time>
      </trkpt>
      <trkpt lat="45.77675" lon="4.84368">
        <ele>182</ele>
        <time>2012-10-07T09:26:11Z</time>
      </trkpt>
      <trkpt lat="45.7766" lon="4.84364">
        <ele>180</ele>
        <time>2012-10-07T09:26:18Z</time>
      </trkpt>
      <trkpt lat="45.77646" lon="4.84355">
        <ele>182</ele>
        <time>2012-10-07T09:26:26Z</time>
      </trkpt>
      <trkpt lat="45.77632" lon="4.84351">
        <ele>180</ele>
        <time>2012-10-07T09:26:31Z</time>
      </trkpt>
      <trkpt lat="45.77617" lon="4.8435">
        <ele>179</ele>
        <time>2012-10-07T09:26:37Z</time>
      </trkpt>
      <trkpt lat="45.77604" lon="4.84339">
        <ele>178</ele>
        <time>2012-10-07T09:26:46Z</time>
      </trkpt>
      <trkpt lat="45.77592" lon="4.84329">
        <ele>178</ele>
        <time>2012-10-07T09:26:53Z</time>
      </trkpt>
      <trkpt lat="45.77581" lon="4.84314">
        <ele>176</ele>
        <time>2012-10-07T09:27:00Z</time>
      </trkpt>
      <trkpt lat="45.77568" lon="4.84303">
        <ele>175</ele>
        <time>2012-10-07T09:27:09Z</time>
      </trkpt>
      <trkpt lat="45.77553" lon="4.84297">
        <ele>176</ele>
        <time>2012-10-07T09:27:15Z</time>
      </trkpt>
      <trkpt lat="45.77539" lon="4.8429">
        <ele>174</ele>
        <time>2012-10-07T09:27:22Z</time>
      </trkpt>
      <trkpt lat="45.77529" lon="4.84277">
        <ele>174</ele>
        <time>2012-10-07T09:27:30Z</time>
      </trkpt>
      <trkpt lat="45.77515" lon="4.84269">
        <ele>173</ele>
        <time>2012-10-07T09:27:38Z</time>
      </trkpt>
      <trkpt lat="45.775" lon="4.84267">
        <ele>172</ele>
        <time>2012-10-07T09:27:44Z</time>
      </trkpt>
      <trkpt lat="45.77487" lon="4.84258">
        <ele>170</ele>
        <time>2012-10-07T09:27:51Z</time>
      </trkpt>
      <trkpt lat="45.77474" lon="4.84245">
        <ele>172</ele>
        <time>2012-10-07T09:27:58Z</time>
      </trkpt>
      <trkpt lat="45.77463" lon="4.8423">
        <ele>173</ele>
        <time>2012-10-07T09:28:07Z</time>
      </trkpt>
      <trkpt lat="45.7745" lon="4.8422">
        <ele>174</ele>
        <time>2012-10-07T09:28:13Z</time>
      </trkpt>
      <trkpt lat="45.77436" lon="4.84219">
        <ele>173</ele>
        <time>2012-10-07T09:28:19Z</time>
      </trkpt>
      <trkpt lat="45.77424" lon="4.8421">
        <ele>173</ele>
        <time>2012-10-07T09:28:26Z</time>
      </trkpt>
      <trkpt lat="45.7741" lon="4.84202">
        <ele>174</ele>
        <time>2012-10-07T09:28:33Z</time>
      </trkpt>
      <trkpt lat="45.77396" lon="4.84194">
        <ele>175</ele>
        <time>2012-10-07T09:28:41Z</time>
      </trkpt>
      <trkpt lat="45.77384" lon="4.84181">
        <ele>172</ele>
        <time>2012-10-07T09:28:49Z</time>
      </trkpt>
      <trkpt lat="45.77373" lon="4.84165">
        <ele>173</ele>
        <time>2012-10-07T09:28:57Z</time>
      </trkpt>
      <trkpt lat="45.77361" lon="4.84151">
        <ele>174</ele>
        <time>2012-10-07T09:29:03Z</time>
      </trkpt>
      <trkpt lat="45.77349" lon="4.84138">
        <ele>172</ele>
        <time>2012-10-07T09:29:09Z</time>
      </trkpt>
      <trkpt lat="45.77336" lon="4.84129">
        <ele>173</ele>
        <time>2012-10-07T09:29:18Z</time>
      </trkpt>
      <trkpt lat="45.77323" lon="4.84122">
        <ele>172</ele>
        <time>2012-10-07T09:29:26Z</time>
      </trkpt>
      <trkpt lat="45.77309" lon="4.84113">
        <ele>171</ele>
        <time>2012-10-07T09:29:34Z</time>
      </trkpt>
      <trkpt lat="45.77297" lon="4.84102">
        <ele>170</ele>
        <time>2012-10-07T09:29:40Z</time>
      </trkpt>
      <trkpt lat="45.77285" lon="4.84093">
        <ele>168</ele>
        <time>2012-10-07T09:29:46Z</time>
      </trkpt>
      <trkpt lat="45.77272" lon="4.84086">
        <ele>170</ele>
        <time>2012-10-07T09:29:52Z</time>
      </trkpt>
      <trkpt lat="45.77258" lon="4.84084">
        <ele>170</ele>
        <time>2012-10-07T09:29:58Z</time>
      </trkpt>
      <trkpt lat="45.77243" lon="4.84079">
        <ele>170</ele>
        <time>2012-10-07T09:30:05Z</time>
      </trkpt>
      <trkpt lat="45.77228" lon="4.84072">
        <ele>170</ele>
        <time>2012-10-07T09:30:16Z</time>
      </trkpt>
      <trkpt lat="45.77203" lon="4.84076">
        <ele>169</ele>
        <time>2012-10-07T09:30:24Z</time>
      </trkpt>
      <trkpt lat="45.77187" lon="4.8408">
        <ele>169</ele>
        <time>2012-10-07T09:30:31Z</time>
      </trkpt>
      <trkpt lat="45.77173" lon="4.84084">
        <ele>170</ele>
        <time>2012-10-07T09:30:38Z</time>
      </trkpt>
      <trkpt lat="45.77158" lon="4.84091">
        <ele>169</ele>
        <time>2012-10-07T09:30:47Z</time>
      </trkpt>
      <trkpt lat="45.77145" lon="4.84094">
        <ele>170</ele>
        <time>2012-10-07T09:30:55Z</time>
      </trkpt>
      <trkpt lat="45.77131" lon="4.84093">
        <ele>172</ele>
        <time>2012-10-07T09:31:01Z</time>
      </trkpt>
      <trkpt lat="45.77117" lon="4.84094">
        <ele>174</ele>
        <time>2012-10-07T09:31:08Z</time>
      </trkpt>
      <trkpt lat="45.77103" lon="4.84097">
        <ele>173</ele>
        <time>2012-10-07T09:31:14Z</time>
      </trkpt>
      <trkpt lat="45.77088" lon="4.841">
        <ele>172</ele>
        <time>2012-10-07T09:31:23Z</time>
      </trkpt>
      <trkpt lat="45.77075" lon="4.84103">
        <ele>171</ele>
        <time>2012-10-07T09:31:31Z</time>
      </trkpt>
      <trkpt lat="45.77059" lon="4.84104">
        <ele>171</ele>
        <time>2012-10-07T09:31:39Z</time>
      </trkpt>
      <trkpt lat="45.77045" lon="4.84103">
        <ele>170</ele>
        <time>2012-10-07T09:31:46Z</time>
      </trkpt>
      <trkpt lat="45.77031" lon="4.84098">
        <ele>170</ele>
        <time>2012-10-07T09:31:54Z</time>
      </trkpt>
      <trkpt lat="45.77017" lon="4.84096">
        <ele>169</ele>
        <time>2012-10-07T09:32:00Z</time>
      </trkpt>
      <trkpt lat="45.77003" lon="4.84097">
        <ele>169</ele>
        <time>2012-10-07T09:32:07Z</time>
      </trkpt>
      <trkpt lat="45.76988" lon="4.84096">
        <ele>169</ele>
        <time>2012-10-07T09:32:13Z</time>
      </trkpt>
      <trkpt lat="45.76974" lon="4.84098">
        <ele>170</ele>
        <time>2012-10-07T09:32:20Z</time>
      </trkpt>
      <trkpt lat="45.7696" lon="4.84099">
        <ele>169</ele>
        <time>2012-10-07T09:32:27Z</time>
      </trkpt>
      <trkpt lat="45.76945" lon="4.84103">
        <ele>169</ele>
        <time>2012-10-07T09:32:35Z</time>
      </trkpt>
      <trkpt lat="45.7693" lon="4.84105">
        <ele>169</ele>
        <time>2012-10-07T09:32:41Z</time>
      </trkpt>
      <trkpt lat="45.76917" lon="4.84097">
        <ele>171</ele>
        <time>2012-10-07T09:32:47Z</time>
      </trkpt>
      <trkpt lat="45.76903" lon="4.84094">
        <ele>171</ele>
        <time>2012-10-07T09:32:54Z</time>
      </trkpt>
      <trkpt lat="45.76888" lon="4.84093">
        <ele>170</ele>
        <time>2012-10-07T09:33:04Z</time>
      </trkpt>
      <trkpt lat="45.76873" lon="4.84097">
        <ele>175</ele>
        <time>2012-10-07T09:33:13Z</time>
      </trkpt>
      <trkpt lat="45.76862" lon="4.84084">
        <ele>175</ele>
        <time>2012-10-07T09:33:22Z</time>
      </trkpt>
      <trkpt lat="45.76864" lon="4.84064">
        <ele>174</ele>
        <time>2012-10-07T09:33:29Z</time>
      </trkpt>
      <trkpt lat="45.76864" lon="4.84044">
        <ele>174</ele>
        <time>2012-10-07T09:33:37Z</time>
      </trkpt>
      <trkpt lat="45.76864" lon="4.84022">
        <ele>171</ele>
        <time>2012-10-07T09:33:46Z</time>
      </trkpt>
      <trkpt lat="45.76862" lon="4.84002">
        <ele>169</ele>
        <time>2012-10-07T09:33:53Z</time>
      </trkpt>
      <trkpt lat="45.76858" lon="4.83983">
        <ele>166</ele>
        <time>2012-10-07T09:33:59Z</time>
      </trkpt>
      <trkpt lat="45.76855" lon="4.83963">
        <ele>166</ele>
        <time>2012-10-07T09:34:07Z</time>
      </trkpt>
      <trkpt lat="45.76857" lon="4.83942">
        <ele>168</ele>
        <time>2012-10-07T09:34:14Z</time>
      </trkpt>
      <trkpt lat="45.76856" lon="4.83921">
        <ele>166</ele>
        <time>2012-10-07T09:34:21Z</time>
      </trkpt>
      <trkpt lat="45.76859" lon="4.83902">
        <ele>168</ele>
        <time>2012-10-07T09:34:27Z</time>
      </trkpt>
      <trkpt lat="45.76855" lon="4.83881">
        <ele>168</ele>
        <time>2012-10-07T09:34:33Z</time>
      </trkpt>
      <trkpt lat="45.76855" lon="4.83861">
        <ele>168</ele>
        <time>2012-10-07T09:34:40Z</time>
      </trkpt>
      <trkpt lat="45.76857" lon="4.83838">
        <ele>167</ele>
        <time>2012-10-07T09:34:47Z</time>
      </trkpt>
      <trkpt lat="45.7686" lon="4.83818">
        <ele>166</ele>
        <time>2012-10-07T09:34:53Z</time>
      </trkpt>
      <trkpt lat="45.76868" lon="4.83802">
        <ele>165</ele>
        <time>2012-10-07T09:34:59Z</time>
      </trkpt>
      <trkpt lat="45.76873" lon="4.83784">
        <ele>167</ele>
        <time>2012-10-07T09:35:07Z</time>
      </trkpt>
      <trkpt lat="45.7686" lon="4.83774">
        <ele>172</ele>
        <time>2012-10-07T09:35:15Z</time>
      </trkpt>
      <trkpt lat="45.76846" lon="4.83769">
        <ele>174</ele>
        <time>2012-10-07T09:35:21Z</time>
      </trkpt>
      <trkpt lat="45.76832" lon="4.8377">
        <ele>176</ele>
        <time>2012-10-07T09:35:27Z</time>
      </trkpt>
      <trkpt lat="45.76818" lon="4.83773">
        <ele>175</ele>
        <time>2012-10-07T09:35:33Z</time>
      </trkpt>
      <trkpt lat="45.7681" lon="4.83756">
        <ele>170</ele>
        <time>2012-10-07T09:35:43Z</time>
      </trkpt>
      <trkpt lat="45.76804" lon="4.83739">
        <ele>171</ele>
        <time>2012-10-07T09:35:50Z</time>
      </trkpt>
      <trkpt lat="45.76798" lon="4.8372">
        <ele>171</ele>
        <time>2012-10-07T09:35:57Z</time>
      </trkpt>
      <trkpt lat="45.76797" lon="4.83698">
        <ele>173</ele>
        <time>2012-10-07T09:36:04Z</time>
      </trkpt>
      <trkpt lat="45.76799" lon="4.83679">
        <ele>172</ele>
        <time>2012-10-07T09:36:10Z</time>
      </trkpt>
      <trkpt lat="45.76794" lon="4.83658">
        <ele>173</ele>
        <time>2012-10-07T09:36:18Z</time>
      </trkpt>
      <trkpt lat="45.76794" lon="4.83639">
        <ele>176</ele>
        <time>2012-10-07T09:36:25Z</time>
      </trkpt>
      <trkpt lat="45.76792" lon="4.83618">
        <ele>180</ele>
        <time>2012-10-07T09:36:33Z</time>
      </trkpt>
      <trkpt lat="45.76796" lon="4.83597">
        <ele>180</ele>
        <time>2012-10-07T09:36:40Z</time>
      </trkpt>
      <trkpt lat="45.76796" lon="4.83578">
        <ele>179</ele>
        <time>2012-10-07T09:36:47Z</time>
      </trkpt>
      <trkpt lat="45.76799" lon="4.83558">
        <ele>178</ele>
        <time>2012-10-07T09:36:53Z</time>
      </trkpt>
      <trkpt lat="45.76798" lon="4.83538">
        <ele>176</ele>
        <time>2012-10-07T09:36:59Z</time>
      </trkpt>
      <trkpt lat="45.76793" lon="4.83519">
        <ele>174</ele>
        <time>2012-10-07T09:37:04Z</time>
      </trkpt>
      <trkpt lat="45.76782" lon="4.83502">
        <ele>174</ele>
        <time>2012-10-07T09:37:10Z</time>
      </trkpt>
      <trkpt lat="45.76768" lon="4.83496">
        <ele>174</ele>
        <time>2012-10-07T09:37:15Z</time>
      </trkpt>
      <trkpt lat="45.76776" lon="4.83473">
        <ele>172</ele>
        <time>2012-10-07T09:37:20Z</time>
      </trkpt>
      <trkpt lat="45.76783" lon="4.83435">
        <ele>173</ele>
        <time>2012-10-07T09:37:30Z</time>
      </trkpt>
      <trkpt lat="45.76773" lon="4.83414">
        <ele>173</ele>
        <time>2012-10-07T09:37:39Z</time>
      </trkpt>
      <trkpt lat="45.76765" lon="4.83398">
        <ele>176</ele>
        <time>2012-10-07T09:37:46Z</time>
      </trkpt>
      <trkpt lat="45.76763" lon="4.83378">
        <ele>178</ele>
        <time>2012-10-07T09:37:52Z</time>
      </trkpt>
      <trkpt lat="45.76757" lon="4.83357">
        <ele>177</ele>
        <time>2012-10-07T09:37:59Z</time>
      </trkpt>
      <trkpt lat="45.76752" lon="4.83338">
        <ele>182</ele>
        <time>2012-10-07T09:38:07Z</time>
      </trkpt>
      <trkpt lat="45.76747" lon="4.8332">
        <ele>186</ele>
        <time>2012-10-07T09:38:12Z</time>
      </trkpt>
      <trkpt lat="45.76741" lon="4.83301">
        <ele>189</ele>
        <time>2012-10-07T09:38:18Z</time>
      </trkpt>
      <trkpt lat="45.76732" lon="4.83286">
        <ele>189</ele>
        <time>2012-10-07T09:38:28Z</time>
      </trkpt>
      <trkpt lat="45.76718" lon="4.83277">
        <ele>184</ele>
        <time>2012-10-07T09:38:38Z</time>
      </trkpt>
      <trkpt lat="45.76702" lon="4.83273">
        <ele>182</ele>
        <time>2012-10-07T09:38:44Z</time>
      </trkpt>
      <trkpt lat="45.76686" lon="4.83274">
        <ele>182</ele>
        <time>2012-10-07T09:38:50Z</time>
      </trkpt>
      <trkpt lat="45.76672" lon="4.83282">
        <ele>181</ele>
        <time>2012-10-07T09:38:54Z</time>
      </trkpt>
      <trkpt lat="45.76659" lon="4.83287">
        <ele>181</ele>
        <time>2012-10-07T09:38:59Z</time>
      </trkpt>
      <trkpt lat="45.76646" lon="4.83286">
        <ele>182</ele>
        <time>2012-10-07T09:39:05Z</time>
      </trkpt>
      <trkpt lat="45.76631" lon="4.83281">
        <ele>182</ele>
        <time>2012-10-07T09:39:12Z</time>
      </trkpt>
      <trkpt lat="45.76617" lon="4.83281">
        <ele>184</ele>
        <time>2012-10-07T09:39:19Z</time>
      </trkpt>
      <trkpt lat="45.76604" lon="4.83288">
        <ele>183</ele>
        <time>2012-10-07T09:39:25Z</time>
      </trkpt>
      <trkpt lat="45.76588" lon="4.83285">
        <ele>182</ele>
        <time>2012-10-07T09:39:31Z</time>
      </trkpt>
      <trkpt lat="45.76574" lon="4.83284">
        <ele>182</ele>
        <time>2012-10-07T09:39:37Z</time>
      </trkpt>
      <trkpt lat="45.7656" lon="4.83287">
        <ele>182</ele>
        <time>2012-10-07T09:39:43Z</time>
      </trkpt>
      <trkpt lat="45.76546" lon="4.8329">
        <ele>182</ele>
        <time>2012-10-07T09:39:49Z</time>
      </trkpt>
      <trkpt lat="45.76533" lon="4.83299">
        <ele>182</ele>
        <time>2012-10-07T09:39:55Z</time>
      </trkpt>
      <trkpt lat="45.76517" lon="4.83302">
        <ele>181</ele>
        <time>2012-10-07T09:40:01Z</time>
      </trkpt>
      <trkpt lat="45.76503" lon="4.8331">
        <ele>181</ele>
        <time>2012-10-07T09:40:07Z</time>
      </trkpt>
      <trkpt lat="45.76492" lon="4.83322">
        <ele>181</ele>
        <time>2012-10-07T09:40:15Z</time>
      </trkpt>
      <trkpt lat="45.76476" lon="4.83314">
        <ele>180</ele>
        <time>2012-10-07T09:40:23Z</time>
      </trkpt>
      <trkpt lat="45.76463" lon="4.83304">
        <ele>185</ele>
        <time>2012-10-07T09:40:29Z</time>
      </trkpt>
      <trkpt lat="45.76449" lon="4.83305">
        <ele>180</ele>
        <time>2012-10-07T09:40:38Z</time>
      </trkpt>
      <trkpt lat="45.76434" lon="4.83303">
        <ele>181</ele>
        <time>2012-10-07T09:40:45Z</time>
      </trkpt>
      <trkpt lat="45.76419" lon="4.83305">
        <ele>181</ele>
        <time>2012-10-07T09:40:52Z</time>
      </trkpt>
      <trkpt lat="45.76406" lon="4.83307">
        <ele>181</ele>
        <time>2012-10-07T09:40:58Z</time>
      </trkpt>
      <trkpt lat="45.7639" lon="4.83303">
        <ele>181</ele>
        <time>2012-10-07T09:41:04Z</time>
      </trkpt>
      <trkpt lat="45.76375" lon="4.83304">
        <ele>182</ele>
        <time>2012-10-07T09:41:11Z</time>
      </trkpt>
      <trkpt lat="45.76361" lon="4.83305">
        <ele>182</ele>
        <time>2012-10-07T09:41:18Z</time>
      </trkpt>
      <trkpt lat="45.76348" lon="4.83315">
        <ele>181</ele>
        <time>2012-10-07T09:41:25Z</time>
      </trkpt>
      <trkpt lat="45.76334" lon="4.83316">
        <ele>185</ele>
        <time>2012-10-07T09:41:32Z</time>
      </trkpt>
      <trkpt lat="45.76319" lon="4.83319">
        <ele>185</ele>
        <time>2012-10-07T09:41:41Z</time>
      </trkpt>
      <trkpt lat="45.76305" lon="4.83318">
        <ele>185</ele>
        <time>2012-10-07T09:41:48Z</time>
      </trkpt>
      <trkpt lat="45.76291" lon="4.83316">
        <ele>185</ele>
        <time>2012-10-07T09:41:54Z</time>
      </trkpt>
      <trkpt lat="45.76278" lon="4.83314">
        <ele>186</ele>
        <time>2012-10-07T09:41:58Z</time>
      </trkpt>
      <trkpt lat="45.76264" lon="4.83318">
        <ele>186</ele>
        <time>2012-10-07T09:42:04Z</time>
      </trkpt>
      <trkpt lat="45.76252" lon="4.83328">
        <ele>186</ele>
        <time>2012-10-07T09:42:11Z</time>
      </trkpt>
      <trkpt lat="45.76237" lon="4.8333">
        <ele>187</ele>
        <time>2012-10-07T09:42:17Z</time>
      </trkpt>
      <trkpt lat="45.76223" lon="4.83326">
        <ele>187</ele>
        <time>2012-10-07T09:42:22Z</time>
      </trkpt>
      <trkpt lat="45.76209" lon="4.83319">
        <ele>188</ele>
        <time>2012-10-07T09:42:28Z</time>
      </trkpt>
      <trkpt lat="45.76196" lon="4.83319">
        <ele>190</ele>
        <time>2012-10-07T09:42:34Z</time>
      </trkpt>
      <trkpt lat="45.76183" lon="4.83327">
        <ele>185</ele>
        <time>2012-10-07T09:42:43Z</time>
      </trkpt>
      <trkpt lat="45.76167" lon="4.83325">
        <ele>186</ele>
        <time>2012-10-07T09:42:50Z</time>
      </trkpt>
      <trkpt lat="45.76153" lon="4.8332">
        <ele>188</ele>
        <time>2012-10-07T09:42:56Z</time>
      </trkpt>
      <trkpt lat="45.76139" lon="4.83322">
        <ele>187</ele>
        <time>2012-10-07T09:43:05Z</time>
      </trkpt>
      <trkpt lat="45.76124" lon="4.83328">
        <ele>186</ele>
        <time>2012-10-07T09:43:12Z</time>
      </trkpt>
      <trkpt lat="45.76111" lon="4.83334">
        <ele>186</ele>
        <time>2012-10-07T09:43:20Z</time>
      </trkpt>
      <trkpt lat="45.76097" lon="4.83327">
        <ele>186</ele>
        <time>2012-10-07T09:43:25Z</time>
      </trkpt>
      <trkpt lat="45.76082" lon="4.83324">
        <ele>189</ele>
        <time>2012-10-07T09:43:31Z</time>
      </trkpt>
      <trkpt lat="45.7607" lon="4.83336">
        <ele>188</ele>
        <time>2012-10-07T09:43:39Z</time>
      </trkpt>
      <trkpt lat="45.76066" lon="4.83357">
        <ele>190</ele>
        <time>2012-10-07T09:43:46Z</time>
      </trkpt>
      <trkpt lat="45.76064" lon="4.83378">
        <ele>196</ele>
        <time>2012-10-07T09:43:54Z</time>
      </trkpt>
      <trkpt lat="45.76069" lon="4.83398">
        <ele>195</ele>
        <time>2012-10-07T09:44:02Z</time>
      </trkpt>
      <trkpt lat="45.76084" lon="4.83402">
        <ele>194</ele>
        <time>2012-10-07T09:44:08Z</time>
      </trkpt>
      <trkpt lat="45.76099" lon="4.834">
        <ele>195</ele>
        <time>2012-10-07T09:44:13Z</time>
      </trkpt>
      <trkpt lat="45.76113" lon="4.83399">
        <ele>193</ele>
        <time>2012-10-07T09:44:21Z</time>
      </trkpt>
      <trkpt lat="45.76128" lon="4.83399">
        <ele>192</ele>
        <time>2012-10-07T09:44:30Z</time>
      </trkpt>
      <trkpt lat="45.76142" lon="4.83402">
        <ele>191</ele>
        <time>2012-10-07T09:44:36Z</time>
      </trkpt>
      <trkpt lat="45.76155" lon="4.83406">
        <ele>190</ele>
        <time>2012-10-07T09:44:42Z</time>
      </trkpt>
      <trkpt lat="45.76169" lon="4.8341">
        <ele>190</ele>
        <time>2012-10-07T09:44:51Z</time>
      </trkpt>
      <trkpt lat="45.76184" lon="4.83411">
        <ele>187</ele>
        <time>2012-10-07T09:44:57Z</time>
      </trkpt>
      <trkpt lat="45.76199" lon="4.83417">
        <ele>189</ele>
        <time>2012-10-07T09:45:03Z</time>
      </trkpt>
      <trkpt lat="45.76211" lon="4.83434">
        <ele>188</ele>
        <time>2012-10-07T09:45:07Z</time>
      </trkpt>
      <trkpt lat="45.76225" lon="4.8344">
        <ele>189</ele>
        <time>2012-10-07T09:45:13Z</time>
      </trkpt>
      <trkpt lat="45.76241" lon="4.83437">
        <ele>189</ele>
        <time>2012-10-07T09:45:21Z</time>
      </trkpt>
      <trkpt lat="45.76254" lon="4.8343">
        <ele>187</ele>
        <time>2012-10-07T09:45:30Z</time>
      </trkpt>
      <trkpt lat="45.76269" lon="4.8343">
        <ele>183</ele>
        <time>2012-10-07T09:45:39Z</time>
      </trkpt>
      <trkpt lat="45.76284" lon="4.83429">
        <ele>189</ele>
        <time>2012-10-07T09:45:47Z</time>
      </trkpt>
      <trkpt lat="45.76299" lon="4.83428">
        <ele>193</ele>
        <time>2012-10-07T09:45:54Z</time>
      </trkpt>
      <trkpt lat="45.76315" lon="4.83428">
        <ele>195</ele>
        <time>2012-10-07T09:46:04Z</time>
      </trkpt>
      <trkpt lat="45.76329" lon="4.83427">
        <ele>195</ele>
        <time>2012-10-07T09:46:09Z</time>
      </trkpt>
      <trkpt lat="45.76344" lon="4.83426">
        <ele>195</ele>
        <time>2012-10-07T09:46:15Z</time>
      </trkpt>
      <trkpt lat="45.76357" lon="4.83431">
        <ele>192</ele>
        <time>2012-10-07T09:46:21Z</time>
      </trkpt>
      <trkpt lat="45.76371" lon="4.83432">
        <ele>192</ele>
        <time>2012-10-07T09:46:29Z</time>
      </trkpt>
      <trkpt lat="45.76386" lon="4.8343">
        <ele>191</ele>
        <time>2012-10-07T09:46:37Z</time>
      </trkpt>
      <trkpt lat="45.76402" lon="4.83431">
        <ele>189</ele>
        <time>2012-10-07T09:46:43Z</time>
      </trkpt>
      <trkpt lat="45.76417" lon="4.83432">
        <ele>189</ele>
        <time>2012-10-07T09:46:49Z</time>
      </trkpt>
      <trkpt lat="45.76431" lon="4.83431">
        <ele>189</ele>
        <time>2012-10-07T09:46:55Z</time>
      </trkpt>
      <trkpt lat="45.76446" lon="4.83426">
        <ele>188</ele>
        <time>2012-10-07T09:47:04Z</time>
      </trkpt>
      <trkpt lat="45.7646" lon="4.83433">
        <ele>187</ele>
        <time>2012-10-07T09:47:10Z</time>
      </trkpt>
      <trkpt lat="45.76473" lon="4.83431">
        <ele>184</ele>
        <time>2012-10-07T09:47:20Z</time>
      </trkpt>
      <trkpt lat="45.76487" lon="4.83429">
        <ele>185</ele>
        <time>2012-10-07T09:47:28Z</time>
      </trkpt>
      <trkpt lat="45.76502" lon="4.83428">
        <ele>186</ele>
        <time>2012-10-07T09:47:34Z</time>
      </trkpt>
      <trkpt lat="45.76517" lon="4.83428">
        <ele>186</ele>
        <time>2012-10-07T09:47:41Z</time>
      </trkpt>
      <trkpt lat="45.76532" lon="4.83429">
        <ele>185</ele>
        <time>2012-10-07T09:47:48Z</time>
      </trkpt>
      <trkpt lat="45.76546" lon="4.83437">
        <ele>186</ele>
        <time>2012-10-07T09:47:56Z</time>
      </trkpt>
      <trkpt lat="45.76561" lon="4.83435">
        <ele>187</ele>
        <time>2012-10-07T09:48:00Z</time>
      </trkpt>
      <trkpt lat="45.76575" lon="4.83434">
        <ele>186</ele>
        <time>2012-10-07T09:48:07Z</time>
      </trkpt>
      <trkpt lat="45.76589" lon="4.83435">
        <ele>187</ele>
        <time>2012-10-07T09:48:14Z</time>
      </trkpt>
      <trkpt lat="45.76603" lon="4.8344">
        <ele>188</ele>
        <time>2012-10-07T09:48:20Z</time>
      </trkpt>
      <trkpt lat="45.76618" lon="4.83441">
        <ele>190</ele>
        <time>2012-10-07T09:48:27Z</time>
      </trkpt>
      <trkpt lat="45.76631" lon="4.83443">
        <ele>183</ele>
        <time>2012-10-07T09:48:32Z</time>
      </trkpt>
      <trkpt lat="45.76645" lon="4.83446">
        <ele>181</ele>
        <time>2012-10-07T09:48:37Z</time>
      </trkpt>
      <trkpt lat="45.76659" lon="4.83446">
        <ele>179</ele>
        <time>2012-10-07T09:48:45Z</time>
      </trkpt>
      <trkpt lat="45.76674" lon="4.83445">
        <ele>180</ele>
        <time>2012-10-07T09:48:53Z</time>
      </trkpt>
      <trkpt lat="45.76688" lon="4.83443">
        <ele>183</ele>
        <time>2012-10-07T09:49:00Z</time>
      </trkpt>
      <trkpt lat="45.76701" lon="4.83453">
        <ele>184</ele>
        <time>2012-10-07T09:49:09Z</time>
      </trkpt>
      <trkpt lat="45.76716" lon="4.83456">
        <ele>178</ele>
        <time>2012-10-07T09:49:16Z</time>
      </trkpt>
      <trkpt lat="45.76729" lon="4.83462">
        <ele>177</ele>
        <time>2012-10-07T09:49:24Z</time>
      </trkpt>
      <trkpt lat="45.76739" lon="4.83478">
        <ele>177</ele>
        <time>2012-10-07T09:49:33Z</time>
      </trkpt>
      <trkpt lat="45.76748" lon="4.83493">
        <ele>177</ele>
        <time>2012-10-07T09:49:40Z</time>
      </trkpt>
      <trkpt lat="45.76758" lon="4.83508">
        <ele>177</ele>
        <time>2012-10-07T09:49:46Z</time>
      </trkpt>
      <trkpt lat="45.76762" lon="4.83528">
        <ele>178</ele>
        <time>2012-10-07T09:49:54Z</time>
      </trkpt>
      <trkpt lat="45.76764" lon="4.83549">
        <ele>179</ele>
        <time>2012-10-07T09:50:02Z</time>
      </trkpt>
      <trkpt lat="45.76731" lon="4.83606">
        <ele>183</ele>
        <time>2012-10-07T09:50:10Z</time>
      </trkpt>
      <trkpt lat="45.76717" lon="4.83606">
        <ele>185</ele>
        <time>2012-10-07T09:50:17Z</time>
      </trkpt>
      <trkpt lat="45.76705" lon="4.83599">
        <ele>186</ele>
        <time>2012-10-07T09:50:23Z</time>
      </trkpt>
      <trkpt lat="45.76691" lon="4.83591">
        <ele>187</ele>
        <time>2012-10-07T09:50:41Z</time>
      </trkpt>
      <trkpt lat="45.76676" lon="4.83593">
        <ele>193</ele>
        <time>2012-10-07T09:50:47Z</time>
      </trkpt>
      <trkpt lat="45.76661" lon="4.83594">
        <ele>193</ele>
        <time>2012-10-07T09:50:54Z</time>
      </trkpt>
      <trkpt lat="45.76646" lon="4.83586">
        <ele>192</ele>
        <time>2012-10-07T09:51:01Z</time>
      </trkpt>
      <trkpt lat="45.76632" lon="4.83592">
        <ele>195</ele>
        <time>2012-10-07T09:51:07Z</time>
      </trkpt>
      <trkpt lat="45.76618" lon="4.83593">
        <ele>194</ele>
        <time>2012-10-07T09:51:13Z</time>
      </trkpt>
      <trkpt lat="45.76604" lon="4.8359">
        <ele>189</ele>
        <time>2012-10-07T09:51:20Z</time>
      </trkpt>
      <trkpt lat="45.76589" lon="4.83586">
        <ele>188</ele>
        <time>2012-10-07T09:51:26Z</time>
      </trkpt>
      <trkpt lat="45.76576" lon="4.83586">
        <ele>185</ele>
        <time>2012-10-07T09:51:32Z</time>
      </trkpt>
      <trkpt lat="45.76561" lon="4.83588">
        <ele>186</ele>
        <time>2012-10-07T09:51:38Z</time>
      </trkpt>
      <trkpt lat="45.76545" lon="4.83585">
        <ele>186</ele>
        <time>2012-10-07T09:51:43Z</time>
      </trkpt>
      <trkpt lat="45.76531" lon="4.83581">
        <ele>186</ele>
        <time>2012-10-07T09:51:50Z</time>
      </trkpt>
      <trkpt lat="45.76517" lon="4.83579">
        <ele>184</ele>
        <time>2012-10-07T09:51:59Z</time>
      </trkpt>
      <trkpt lat="45.76502" lon="4.8358">
        <ele>185</ele>
        <time>2012-10-07T09:52:07Z</time>
      </trkpt>
      <trkpt lat="45.76489" lon="4.83585">
        <ele>184</ele>
        <time>2012-10-07T09:52:14Z</time>
      </trkpt>
      <trkpt lat="45.76475" lon="4.83586">
        <ele>184</ele>
        <time>2012-10-07T09:52:19Z</time>
      </trkpt>
      <trkpt lat="45.76461" lon="4.83585">
        <ele>184</ele>
        <time>2012-10-07T09:52:24Z</time>
      </trkpt>
      <trkpt lat="45.76446" lon="4.83585">
        <ele>184</ele>
        <time>2012-10-07T09:52:30Z</time>
      </trkpt>
      <trkpt lat="45.76432" lon="4.83578">
        <ele>185</ele>
        <time>2012-10-07T09:52:38Z</time>
      </trkpt>
      <trkpt lat="45.76418" lon="4.83578">
        <ele>182</ele>
        <time>2012-10-07T09:52:44Z</time>
      </trkpt>
      <trkpt lat="45.76403" lon="4.8358">
        <ele>184</ele>
        <time>2012-10-07T09:52:53Z</time>
      </trkpt>
      <trkpt lat="45.76388" lon="4.83576">
        <ele>184</ele>
        <time>2012-10-07T09:52:59Z</time>
      </trkpt>
      <trkpt lat="45.76373" lon="4.83581">
        <ele>186</ele>
        <time>2012-10-07T09:53:05Z</time>
      </trkpt>
      <trkpt lat="45.76359" lon="4.83579">
        <ele>196</ele>
        <time>2012-10-07T09:53:12Z</time>
      </trkpt>
      <trkpt lat="45.76345" lon="4.83581">
        <ele>189</ele>
        <time>2012-10-07T09:53:20Z</time>
      </trkpt>
      <trkpt lat="45.76331" lon="4.8358">
        <ele>186</ele>
        <time>2012-10-07T09:53:27Z</time>
      </trkpt>
      <trkpt lat="45.76315" lon="4.83579">
        <ele>186</ele>
        <time>2012-10-07T09:53:33Z</time>
      </trkpt>
      <trkpt lat="45.76299" lon="4.83575">
        <ele>186</ele>
        <time>2012-10-07T09:53:39Z</time>
      </trkpt>
      <trkpt lat="45.76286" lon="4.83574">
        <ele>182</ele>
        <time>2012-10-07T09:53:46Z</time>
      </trkpt>
      <trkpt lat="45.76271" lon="4.83571">
        <ele>182</ele>
        <time>2012-10-07T09:53:52Z</time>
      </trkpt>
      <trkpt lat="45.76256" lon="4.83568">
        <ele>181</ele>
        <time>2012-10-07T09:53:58Z</time>
      </trkpt>
      <trkpt lat="45.76242" lon="4.83562">
        <ele>182</ele>
        <time>2012-10-07T09:54:03Z</time>
      </trkpt>
      <trkpt lat="45.76226" lon="4.8356">
        <ele>182</ele>
        <time>2012-10-07T09:54:09Z</time>
      </trkpt>
      <trkpt lat="45.76211" lon="4.8356">
        <ele>183</ele>
        <time>2012-10-07T09:54:15Z</time>
      </trkpt>
      <trkpt lat="45.76198" lon="4.83567">
        <ele>181</ele>
        <time>2012-10-07T09:54:25Z</time>
      </trkpt>
      <trkpt lat="45.76184" lon="4.83565">
        <ele>178</ele>
        <time>2012-10-07T09:54:34Z</time>
      </trkpt>
      <trkpt lat="45.7617" lon="4.83566">
        <ele>179</ele>
        <time>2012-10-07T09:54:41Z</time>
      </trkpt>
      <trkpt lat="45.76155" lon="4.83566">
        <ele>178</ele>
        <time>2012-10-07T09:54:46Z</time>
      </trkpt>
      <trkpt lat="45.76141" lon="4.83565">
        <ele>177</ele>
        <time>2012-10-07T09:54:51Z</time>
      </trkpt>
      <trkpt lat="45.76127" lon="4.8356">
        <ele>176</ele>
        <time>2012-10-07T09:54:57Z</time>
      </trkpt>
      <trkpt lat="45.76112" lon="4.83553">
        <ele>177</ele>
        <time>2012-10-07T09:55:03Z</time>
      </trkpt>
      <trkpt lat="45.761" lon="4.83544">
        <ele>177</ele>
        <time>2012-10-07T09:55:09Z</time>
      </trkpt>
      <trkpt lat="45.76087" lon="4.83536">
        <ele>178</ele>
        <time>2012-10-07T09:55:17Z</time>
      </trkpt>
      <trkpt lat="45.76073" lon="4.83535">
        <ele>180</ele>
        <time>2012-10-07T09:55:26Z</time>
      </trkpt>
      <trkpt lat="45.7606" lon="4.83543">
        <ele>184</ele>
        <time>2012-10-07T09:55:36Z</time>
      </trkpt>
      <trkpt lat="45.76044" lon="4.83546">
        <ele>185</ele>
        <time>2012-10-07T09:55:44Z</time>
      </trkpt>
      <trkpt lat="45.76031" lon="4.83538">
        <ele>188</ele>
        <time>2012-10-07T09:55:50Z</time>
      </trkpt>
      <trkpt lat="45.76017" lon="4.83541">
        <ele>188</ele>
        <time>2012-10-07T09:55:56Z</time>
      </trkpt>
      <trkpt lat="45.76002" lon="4.83539">
        <ele>188</ele>
        <time>2012-10-07T09:56:03Z</time>
      </trkpt>
      <trkpt lat="45.75988" lon="4.83528">
        <ele>187</ele>
        <time>2012-10-07T09:56:10Z</time>
      </trkpt>
      <trkpt lat="45.75974" lon="4.83519">
        <ele>187</ele>
        <time>2012-10-07T09:56:15Z</time>
      </trkpt>
      <trkpt lat="45.75958" lon="4.83516">
        <ele>191</ele>
        <time>2012-10-07T09:56:21Z</time>
      </trkpt>
      <trkpt lat="45.75945" lon="4.83506">
        <ele>189</ele>
        <time>2012-10-07T09:56:28Z</time>
      </trkpt>
      <trkpt lat="45.75934" lon="4.83493">
        <ele>187</ele>
        <time>2012-10-07T09:56:35Z</time>
      </trkpt>
      <trkpt lat="45.75918" lon="4.8349">
        <ele>188</ele>
        <time>2012-10-07T09:56:43Z</time>
      </trkpt>
      <trkpt lat="45.75904" lon="4.83481">
        <ele>188</ele>
        <time>2012-10-07T09:56:49Z</time>
      </trkpt>
      <trkpt lat="45.75891" lon="4.83474">
        <ele>188</ele>
        <time>2012-10-07T09:56:54Z</time>
      </trkpt>
      <trkpt lat="45.75879" lon="4.8346">
        <ele>189</ele>
        <time>2012-10-07T09:57:01Z</time>
      </trkpt>
      <trkpt lat="45.75865" lon="4.83451">
        <ele>192</ele>
        <time>2012-10-07T09:57:08Z</time>
      </trkpt>
      <trkpt lat="45.75851" lon="4.83441">
        <ele>190</ele>
        <time>2012-10-07T09:57:14Z</time>
      </trkpt>
      <trkpt lat="45.75838" lon="4.83434">
        <ele>190</ele>
        <time>2012-10-07T09:57:19Z</time>
      </trkpt>
      <trkpt lat="45.75825" lon="4.83424">
        <ele>189</ele>
        <time>2012-10-07T09:57:24Z</time>
      </trkpt>
      <trkpt lat="45.75812" lon="4.83417">
        <ele>185</ele>
        <time>2012-10-07T09:57:29Z</time>
      </trkpt>
      <trkpt lat="45.758" lon="4.83406">
        <ele>194</ele>
        <time>2012-10-07T09:57:36Z</time>
      </trkpt>
      <trkpt lat="45.75797" lon="4.83385">
        <ele>189</ele>
        <time>2012-10-07T09:57:44Z</time>
      </trkpt>
      <trkpt lat="45.75798" lon="4.83363">
        <ele>185</ele>
        <time>2012-10-07T09:57:52Z</time>
      </trkpt>
      <trkpt lat="45.75806" lon="4.83344">
        <ele>180</ele>
        <time>2012-10-07T09:57:57Z</time>
      </trkpt>
      <trkpt lat="45.75816" lon="4.8333">
        <ele>177</ele>
        <time>2012-10-07T09:58:02Z</time>
      </trkpt>
      <trkpt lat="45.75824" lon="4.83311">
        <ele>178</ele>
        <time>2012-10-07T09:58:08Z</time>
      </trkpt>
      <trkpt lat="45.75827" lon="4.83289">
        <ele>175</ele>
        <time>2012-10-07T09:58:13Z</time>
      </trkpt>
      <trkpt lat="45.75838" lon="4.83252">
        <ele>174</ele>
        <time>2012-10-07T09:58:22Z</time>
      </trkpt>
      <trkpt lat="45.75842" lon="4.83232">
        <ele>173</ele>
        <time>2012-10-07T09:58:33Z</time>
      </trkpt>
      <trkpt lat="45.75853" lon="4.83222">
        <ele>173</ele>
        <time>2012-10-07T09:58:45Z</time>
      </trkpt>
      <trkpt lat="45.75853" lon="4.83222">
        <ele>167</ele>
        <time>2012-10-07T09:58:55Z</time>
      </trkpt>
    </trkseg>
  </trk>
</gpx>